<?xml version="1.0" encoding="UTF-8" standalone="no" ?>
<gpx xmlns="http://www.topografix.com/GPX/1/1" xmlns:xsi="http://www.w3.org/2001/XMLSchema-instance" xsi:schemaLocation="http://www.topografix.com/GPX/1/1 http://www.topografix.com/GPX/1/1/gpx.xsd" version="1.1" creator="VisuGPX - https://www.visugpx.com">
  <metadata>
    <name>pr10variante N 1 BOBIGNAC/SAUTEREAU</name>
    <desc><![CDATA[belle sortie vtt ras]]></desc>
  </metadata>
  <trk>
    <name><![CDATA[Tracé 2 déc. 2015 08:33:33]]></name>
    <trkseg>
      <trkpt lat="44.99333" lon="4.5142">
        <ele>532</ele>
        <time>2015-12-02T07:33:33Z</time>
      </trkpt>
      <trkpt lat="44.99406" lon="4.51478">
        <ele>496</ele>
        <time>2015-12-02T07:33:37Z</time>
      </trkpt>
      <trkpt lat="44.99507" lon="4.51559">
        <ele>437</ele>
        <time>2015-12-02T07:33:46Z</time>
      </trkpt>
      <trkpt lat="44.99519" lon="4.51565">
        <ele>430</ele>
        <time>2015-12-02T07:33:50Z</time>
      </trkpt>
      <trkpt lat="44.99525" lon="4.51573">
        <ele>408</ele>
        <time>2015-12-02T07:34:01Z</time>
      </trkpt>
      <trkpt lat="44.99527" lon="4.51569">
        <ele>403</ele>
        <time>2015-12-02T07:34:31Z</time>
      </trkpt>
      <trkpt lat="44.99529" lon="4.51557">
        <ele>407</ele>
        <time>2015-12-02T07:34:45Z</time>
      </trkpt>
      <trkpt lat="44.9953" lon="4.51546">
        <ele>407</ele>
        <time>2015-12-02T07:34:49Z</time>
      </trkpt>
      <trkpt lat="44.99535" lon="4.51533">
        <ele>406</ele>
        <time>2015-12-02T07:34:54Z</time>
      </trkpt>
      <trkpt lat="44.99537" lon="4.51521">
        <ele>404</ele>
        <time>2015-12-02T07:34:59Z</time>
      </trkpt>
      <trkpt lat="44.99536" lon="4.51511">
        <ele>403</ele>
        <time>2015-12-02T07:35:03Z</time>
      </trkpt>
      <trkpt lat="44.99535" lon="4.51499">
        <ele>403</ele>
        <time>2015-12-02T07:35:07Z</time>
      </trkpt>
      <trkpt lat="44.99542" lon="4.51493">
        <ele>402</ele>
        <time>2015-12-02T07:35:14Z</time>
      </trkpt>
      <trkpt lat="44.99551" lon="4.51492">
        <ele>402</ele>
        <time>2015-12-02T07:35:18Z</time>
      </trkpt>
      <trkpt lat="44.99565" lon="4.51488">
        <ele>402</ele>
        <time>2015-12-02T07:35:23Z</time>
      </trkpt>
      <trkpt lat="44.99572" lon="4.51489">
        <ele>401</ele>
        <time>2015-12-02T07:35:26Z</time>
      </trkpt>
      <trkpt lat="44.99581" lon="4.51488">
        <ele>401</ele>
        <time>2015-12-02T07:35:31Z</time>
      </trkpt>
      <trkpt lat="44.99589" lon="4.51492">
        <ele>401</ele>
        <time>2015-12-02T07:35:40Z</time>
      </trkpt>
      <trkpt lat="44.99598" lon="4.51486">
        <ele>402</ele>
        <time>2015-12-02T07:35:45Z</time>
      </trkpt>
      <trkpt lat="44.99604" lon="4.51476">
        <ele>402</ele>
        <time>2015-12-02T07:35:49Z</time>
      </trkpt>
      <trkpt lat="44.99607" lon="4.51465">
        <ele>401</ele>
        <time>2015-12-02T07:35:54Z</time>
      </trkpt>
      <trkpt lat="44.9961" lon="4.51457">
        <ele>401</ele>
        <time>2015-12-02T07:35:58Z</time>
      </trkpt>
      <trkpt lat="44.99613" lon="4.51445">
        <ele>400</ele>
        <time>2015-12-02T07:36:03Z</time>
      </trkpt>
      <trkpt lat="44.99615" lon="4.51436">
        <ele>400</ele>
        <time>2015-12-02T07:36:07Z</time>
      </trkpt>
      <trkpt lat="44.99618" lon="4.51425">
        <ele>399</ele>
        <time>2015-12-02T07:36:12Z</time>
      </trkpt>
      <trkpt lat="44.9962" lon="4.51414">
        <ele>399</ele>
        <time>2015-12-02T07:36:17Z</time>
      </trkpt>
      <trkpt lat="44.99622" lon="4.51403">
        <ele>402</ele>
        <time>2015-12-02T07:36:21Z</time>
      </trkpt>
      <trkpt lat="44.99615" lon="4.51384">
        <ele>411</ele>
        <time>2015-12-02T07:36:26Z</time>
      </trkpt>
      <trkpt lat="44.9961" lon="4.51369">
        <ele>417</ele>
        <time>2015-12-02T07:36:29Z</time>
      </trkpt>
      <trkpt lat="44.99608" lon="4.51351">
        <ele>423</ele>
        <time>2015-12-02T07:36:34Z</time>
      </trkpt>
      <trkpt lat="44.9961" lon="4.51338">
        <ele>426</ele>
        <time>2015-12-02T07:36:39Z</time>
      </trkpt>
      <trkpt lat="44.99611" lon="4.51327">
        <ele>427</ele>
        <time>2015-12-02T07:36:44Z</time>
      </trkpt>
      <trkpt lat="44.99603" lon="4.51323">
        <ele>432</ele>
        <time>2015-12-02T07:37:00Z</time>
      </trkpt>
      <trkpt lat="44.99595" lon="4.51328">
        <ele>433</ele>
        <time>2015-12-02T07:37:05Z</time>
      </trkpt>
      <trkpt lat="44.99589" lon="4.51336">
        <ele>435</ele>
        <time>2015-12-02T07:37:12Z</time>
      </trkpt>
      <trkpt lat="44.99581" lon="4.51335">
        <ele>437</ele>
        <time>2015-12-02T07:37:18Z</time>
      </trkpt>
      <trkpt lat="44.99573" lon="4.51332">
        <ele>438</ele>
        <time>2015-12-02T07:37:25Z</time>
      </trkpt>
      <trkpt lat="44.99568" lon="4.51324">
        <ele>440</ele>
        <time>2015-12-02T07:37:34Z</time>
      </trkpt>
      <trkpt lat="44.99561" lon="4.51317">
        <ele>441</ele>
        <time>2015-12-02T07:37:39Z</time>
      </trkpt>
      <trkpt lat="44.99554" lon="4.51312">
        <ele>442</ele>
        <time>2015-12-02T07:37:45Z</time>
      </trkpt>
      <trkpt lat="44.99548" lon="4.51308">
        <ele>442</ele>
        <time>2015-12-02T07:37:51Z</time>
      </trkpt>
      <trkpt lat="44.9954" lon="4.51302">
        <ele>443</ele>
        <time>2015-12-02T07:37:57Z</time>
      </trkpt>
      <trkpt lat="44.99534" lon="4.51299">
        <ele>443</ele>
        <time>2015-12-02T07:38:02Z</time>
      </trkpt>
      <trkpt lat="44.99527" lon="4.51294">
        <ele>443</ele>
        <time>2015-12-02T07:38:07Z</time>
      </trkpt>
      <trkpt lat="44.99527" lon="4.51283">
        <ele>444</ele>
        <time>2015-12-02T07:38:12Z</time>
      </trkpt>
      <trkpt lat="44.99525" lon="4.51275">
        <ele>445</ele>
        <time>2015-12-02T07:38:15Z</time>
      </trkpt>
      <trkpt lat="44.99522" lon="4.51262">
        <ele>446</ele>
        <time>2015-12-02T07:38:20Z</time>
      </trkpt>
      <trkpt lat="44.99522" lon="4.51252">
        <ele>448</ele>
        <time>2015-12-02T07:38:26Z</time>
      </trkpt>
      <trkpt lat="44.99519" lon="4.51243">
        <ele>449</ele>
        <time>2015-12-02T07:38:31Z</time>
      </trkpt>
      <trkpt lat="44.99518" lon="4.51232">
        <ele>451</ele>
        <time>2015-12-02T07:38:36Z</time>
      </trkpt>
      <trkpt lat="44.99513" lon="4.51221">
        <ele>453</ele>
        <time>2015-12-02T07:38:41Z</time>
      </trkpt>
      <trkpt lat="44.99511" lon="4.51211">
        <ele>455</ele>
        <time>2015-12-02T07:38:50Z</time>
      </trkpt>
      <trkpt lat="44.99501" lon="4.51207">
        <ele>456</ele>
        <time>2015-12-02T07:38:54Z</time>
      </trkpt>
      <trkpt lat="44.99497" lon="4.51197">
        <ele>459</ele>
        <time>2015-12-02T07:39:03Z</time>
      </trkpt>
      <trkpt lat="44.99495" lon="4.51186">
        <ele>461</ele>
        <time>2015-12-02T07:39:12Z</time>
      </trkpt>
      <trkpt lat="44.99489" lon="4.51182">
        <ele>462</ele>
        <time>2015-12-02T07:39:20Z</time>
      </trkpt>
      <trkpt lat="44.99481" lon="4.51183">
        <ele>464</ele>
        <time>2015-12-02T07:39:27Z</time>
      </trkpt>
      <trkpt lat="44.99473" lon="4.51181">
        <ele>465</ele>
        <time>2015-12-02T07:39:34Z</time>
      </trkpt>
      <trkpt lat="44.99466" lon="4.51177">
        <ele>466</ele>
        <time>2015-12-02T07:39:41Z</time>
      </trkpt>
      <trkpt lat="44.99459" lon="4.51175">
        <ele>467</ele>
        <time>2015-12-02T07:39:47Z</time>
      </trkpt>
      <trkpt lat="44.99452" lon="4.51169">
        <ele>470</ele>
        <time>2015-12-02T07:39:55Z</time>
      </trkpt>
      <trkpt lat="44.99447" lon="4.51165">
        <ele>472</ele>
        <time>2015-12-02T07:39:59Z</time>
      </trkpt>
      <trkpt lat="44.9944" lon="4.5116">
        <ele>474</ele>
        <time>2015-12-02T07:40:03Z</time>
      </trkpt>
      <trkpt lat="44.99432" lon="4.51158">
        <ele>475</ele>
        <time>2015-12-02T07:40:09Z</time>
      </trkpt>
      <trkpt lat="44.99425" lon="4.51157">
        <ele>475</ele>
        <time>2015-12-02T07:40:13Z</time>
      </trkpt>
      <trkpt lat="44.99418" lon="4.51151">
        <ele>476</ele>
        <time>2015-12-02T07:40:19Z</time>
      </trkpt>
      <trkpt lat="44.99411" lon="4.51147">
        <ele>479</ele>
        <time>2015-12-02T07:40:27Z</time>
      </trkpt>
      <trkpt lat="44.99407" lon="4.51138">
        <ele>480</ele>
        <time>2015-12-02T07:40:33Z</time>
      </trkpt>
      <trkpt lat="44.99403" lon="4.51131">
        <ele>481</ele>
        <time>2015-12-02T07:40:37Z</time>
      </trkpt>
      <trkpt lat="44.99399" lon="4.51119">
        <ele>484</ele>
        <time>2015-12-02T07:40:42Z</time>
      </trkpt>
      <trkpt lat="44.99395" lon="4.51108">
        <ele>489</ele>
        <time>2015-12-02T07:41:05Z</time>
      </trkpt>
      <trkpt lat="44.99392" lon="4.51099">
        <ele>490</ele>
        <time>2015-12-02T07:41:24Z</time>
      </trkpt>
      <trkpt lat="44.99388" lon="4.51088">
        <ele>491</ele>
        <time>2015-12-02T07:41:32Z</time>
      </trkpt>
      <trkpt lat="44.99385" lon="4.51077">
        <ele>491</ele>
        <time>2015-12-02T07:41:38Z</time>
      </trkpt>
      <trkpt lat="44.99381" lon="4.51067">
        <ele>491</ele>
        <time>2015-12-02T07:41:43Z</time>
      </trkpt>
      <trkpt lat="44.99376" lon="4.51056">
        <ele>490</ele>
        <time>2015-12-02T07:41:49Z</time>
      </trkpt>
      <trkpt lat="44.99372" lon="4.51047">
        <ele>490</ele>
        <time>2015-12-02T07:41:53Z</time>
      </trkpt>
      <trkpt lat="44.99368" lon="4.5104">
        <ele>490</ele>
        <time>2015-12-02T07:41:59Z</time>
      </trkpt>
      <trkpt lat="44.99363" lon="4.51029">
        <ele>490</ele>
        <time>2015-12-02T07:42:05Z</time>
      </trkpt>
      <trkpt lat="44.9936" lon="4.51022">
        <ele>491</ele>
        <time>2015-12-02T07:42:10Z</time>
      </trkpt>
      <trkpt lat="44.99356" lon="4.5101">
        <ele>491</ele>
        <time>2015-12-02T07:42:15Z</time>
      </trkpt>
      <trkpt lat="44.99354" lon="4.50999">
        <ele>492</ele>
        <time>2015-12-02T07:42:19Z</time>
      </trkpt>
      <trkpt lat="44.99355" lon="4.50988">
        <ele>492</ele>
        <time>2015-12-02T07:42:25Z</time>
      </trkpt>
      <trkpt lat="44.99355" lon="4.50978">
        <ele>492</ele>
        <time>2015-12-02T07:42:30Z</time>
      </trkpt>
      <trkpt lat="44.99356" lon="4.5097">
        <ele>492</ele>
        <time>2015-12-02T07:42:34Z</time>
      </trkpt>
      <trkpt lat="44.99363" lon="4.5096">
        <ele>492</ele>
        <time>2015-12-02T07:42:38Z</time>
      </trkpt>
      <trkpt lat="44.99371" lon="4.50951">
        <ele>493</ele>
        <time>2015-12-02T07:42:42Z</time>
      </trkpt>
      <trkpt lat="44.99374" lon="4.5094">
        <ele>494</ele>
        <time>2015-12-02T07:42:46Z</time>
      </trkpt>
      <trkpt lat="44.99376" lon="4.50931">
        <ele>495</ele>
        <time>2015-12-02T07:42:49Z</time>
      </trkpt>
      <trkpt lat="44.99379" lon="4.5092">
        <ele>497</ele>
        <time>2015-12-02T07:42:53Z</time>
      </trkpt>
      <trkpt lat="44.99384" lon="4.50909">
        <ele>499</ele>
        <time>2015-12-02T07:42:58Z</time>
      </trkpt>
      <trkpt lat="44.99387" lon="4.50903">
        <ele>500</ele>
        <time>2015-12-02T07:43:01Z</time>
      </trkpt>
      <trkpt lat="44.99392" lon="4.50894">
        <ele>502</ele>
        <time>2015-12-02T07:43:05Z</time>
      </trkpt>
      <trkpt lat="44.99398" lon="4.50884">
        <ele>503</ele>
        <time>2015-12-02T07:43:09Z</time>
      </trkpt>
      <trkpt lat="44.99398" lon="4.50875">
        <ele>505</ele>
        <time>2015-12-02T07:43:13Z</time>
      </trkpt>
      <trkpt lat="44.994" lon="4.50863">
        <ele>507</ele>
        <time>2015-12-02T07:43:20Z</time>
      </trkpt>
      <trkpt lat="44.99404" lon="4.50856">
        <ele>508</ele>
        <time>2015-12-02T07:43:25Z</time>
      </trkpt>
      <trkpt lat="44.9941" lon="4.50847">
        <ele>509</ele>
        <time>2015-12-02T07:43:30Z</time>
      </trkpt>
      <trkpt lat="44.99415" lon="4.5084">
        <ele>510</ele>
        <time>2015-12-02T07:43:34Z</time>
      </trkpt>
      <trkpt lat="44.9942" lon="4.50829">
        <ele>511</ele>
        <time>2015-12-02T07:43:39Z</time>
      </trkpt>
      <trkpt lat="44.99425" lon="4.5082">
        <ele>513</ele>
        <time>2015-12-02T07:43:45Z</time>
      </trkpt>
      <trkpt lat="44.99432" lon="4.50812">
        <ele>514</ele>
        <time>2015-12-02T07:43:51Z</time>
      </trkpt>
      <trkpt lat="44.99437" lon="4.50805">
        <ele>517</ele>
        <time>2015-12-02T07:43:56Z</time>
      </trkpt>
      <trkpt lat="44.99443" lon="4.50796">
        <ele>520</ele>
        <time>2015-12-02T07:44:04Z</time>
      </trkpt>
      <trkpt lat="44.99445" lon="4.50785">
        <ele>523</ele>
        <time>2015-12-02T07:44:12Z</time>
      </trkpt>
      <trkpt lat="44.99449" lon="4.50778">
        <ele>524</ele>
        <time>2015-12-02T07:44:16Z</time>
      </trkpt>
      <trkpt lat="44.99453" lon="4.50771">
        <ele>526</ele>
        <time>2015-12-02T07:44:21Z</time>
      </trkpt>
      <trkpt lat="44.9946" lon="4.50764">
        <ele>528</ele>
        <time>2015-12-02T07:44:27Z</time>
      </trkpt>
      <trkpt lat="44.99466" lon="4.50758">
        <ele>531</ele>
        <time>2015-12-02T07:44:34Z</time>
      </trkpt>
      <trkpt lat="44.9947" lon="4.50747">
        <ele>534</ele>
        <time>2015-12-02T07:44:42Z</time>
      </trkpt>
      <trkpt lat="44.99474" lon="4.50736">
        <ele>536</ele>
        <time>2015-12-02T07:44:49Z</time>
      </trkpt>
      <trkpt lat="44.99479" lon="4.50727">
        <ele>538</ele>
        <time>2015-12-02T07:44:56Z</time>
      </trkpt>
      <trkpt lat="44.99482" lon="4.50717">
        <ele>540</ele>
        <time>2015-12-02T07:45:02Z</time>
      </trkpt>
      <trkpt lat="44.99486" lon="4.50708">
        <ele>541</ele>
        <time>2015-12-02T07:45:07Z</time>
      </trkpt>
      <trkpt lat="44.99485" lon="4.50699">
        <ele>541</ele>
        <time>2015-12-02T07:45:12Z</time>
      </trkpt>
      <trkpt lat="44.9948" lon="4.50689">
        <ele>542</ele>
        <time>2015-12-02T07:45:18Z</time>
      </trkpt>
      <trkpt lat="44.99483" lon="4.5068">
        <ele>543</ele>
        <time>2015-12-02T07:45:24Z</time>
      </trkpt>
      <trkpt lat="44.99486" lon="4.50671">
        <ele>544</ele>
        <time>2015-12-02T07:45:29Z</time>
      </trkpt>
      <trkpt lat="44.99487" lon="4.50659">
        <ele>546</ele>
        <time>2015-12-02T07:45:36Z</time>
      </trkpt>
      <trkpt lat="44.99486" lon="4.5065">
        <ele>547</ele>
        <time>2015-12-02T07:45:40Z</time>
      </trkpt>
      <trkpt lat="44.99486" lon="4.50639">
        <ele>547</ele>
        <time>2015-12-02T07:45:45Z</time>
      </trkpt>
      <trkpt lat="44.99483" lon="4.50628">
        <ele>548</ele>
        <time>2015-12-02T07:45:51Z</time>
      </trkpt>
      <trkpt lat="44.99484" lon="4.50619">
        <ele>548</ele>
        <time>2015-12-02T07:45:55Z</time>
      </trkpt>
      <trkpt lat="44.99487" lon="4.50607">
        <ele>549</ele>
        <time>2015-12-02T07:46:01Z</time>
      </trkpt>
      <trkpt lat="44.99488" lon="4.50595">
        <ele>549</ele>
        <time>2015-12-02T07:46:07Z</time>
      </trkpt>
      <trkpt lat="44.9949" lon="4.50584">
        <ele>550</ele>
        <time>2015-12-02T07:46:13Z</time>
      </trkpt>
      <trkpt lat="44.99492" lon="4.50573">
        <ele>552</ele>
        <time>2015-12-02T07:46:20Z</time>
      </trkpt>
      <trkpt lat="44.99488" lon="4.50565">
        <ele>552</ele>
        <time>2015-12-02T07:46:25Z</time>
      </trkpt>
      <trkpt lat="44.99482" lon="4.50556">
        <ele>554</ele>
        <time>2015-12-02T07:46:33Z</time>
      </trkpt>
      <trkpt lat="44.9948" lon="4.50546">
        <ele>555</ele>
        <time>2015-12-02T07:46:40Z</time>
      </trkpt>
      <trkpt lat="44.99477" lon="4.50536">
        <ele>556</ele>
        <time>2015-12-02T07:46:46Z</time>
      </trkpt>
      <trkpt lat="44.99478" lon="4.50528">
        <ele>558</ele>
        <time>2015-12-02T07:46:51Z</time>
      </trkpt>
      <trkpt lat="44.99484" lon="4.5052">
        <ele>559</ele>
        <time>2015-12-02T07:46:57Z</time>
      </trkpt>
      <trkpt lat="44.99488" lon="4.50511">
        <ele>560</ele>
        <time>2015-12-02T07:47:04Z</time>
      </trkpt>
      <trkpt lat="44.99494" lon="4.50504">
        <ele>561</ele>
        <time>2015-12-02T07:47:09Z</time>
      </trkpt>
      <trkpt lat="44.99499" lon="4.50497">
        <ele>562</ele>
        <time>2015-12-02T07:47:15Z</time>
      </trkpt>
      <trkpt lat="44.99503" lon="4.50489">
        <ele>563</ele>
        <time>2015-12-02T07:47:20Z</time>
      </trkpt>
      <trkpt lat="44.99509" lon="4.50481">
        <ele>564</ele>
        <time>2015-12-02T07:47:25Z</time>
      </trkpt>
      <trkpt lat="44.99514" lon="4.50473">
        <ele>565</ele>
        <time>2015-12-02T07:47:32Z</time>
      </trkpt>
      <trkpt lat="44.9952" lon="4.50464">
        <ele>565</ele>
        <time>2015-12-02T07:47:39Z</time>
      </trkpt>
      <trkpt lat="44.99525" lon="4.50453">
        <ele>566</ele>
        <time>2015-12-02T07:47:46Z</time>
      </trkpt>
      <trkpt lat="44.99525" lon="4.50443">
        <ele>567</ele>
        <time>2015-12-02T07:47:50Z</time>
      </trkpt>
      <trkpt lat="44.99526" lon="4.50434">
        <ele>567</ele>
        <time>2015-12-02T07:47:55Z</time>
      </trkpt>
      <trkpt lat="44.99528" lon="4.50424">
        <ele>567</ele>
        <time>2015-12-02T07:48:00Z</time>
      </trkpt>
      <trkpt lat="44.9953" lon="4.50414">
        <ele>567</ele>
        <time>2015-12-02T07:48:07Z</time>
      </trkpt>
      <trkpt lat="44.99532" lon="4.50403">
        <ele>568</ele>
        <time>2015-12-02T07:48:12Z</time>
      </trkpt>
      <trkpt lat="44.99532" lon="4.50392">
        <ele>568</ele>
        <time>2015-12-02T07:48:20Z</time>
      </trkpt>
      <trkpt lat="44.99531" lon="4.5038">
        <ele>569</ele>
        <time>2015-12-02T07:48:26Z</time>
      </trkpt>
      <trkpt lat="44.99532" lon="4.50369">
        <ele>570</ele>
        <time>2015-12-02T07:48:32Z</time>
      </trkpt>
      <trkpt lat="44.99532" lon="4.50359">
        <ele>571</ele>
        <time>2015-12-02T07:48:41Z</time>
      </trkpt>
      <trkpt lat="44.99534" lon="4.50347">
        <ele>572</ele>
        <time>2015-12-02T07:48:49Z</time>
      </trkpt>
      <trkpt lat="44.99537" lon="4.50336">
        <ele>572</ele>
        <time>2015-12-02T07:48:55Z</time>
      </trkpt>
      <trkpt lat="44.99539" lon="4.50328">
        <ele>573</ele>
        <time>2015-12-02T07:48:59Z</time>
      </trkpt>
      <trkpt lat="44.9954" lon="4.50316">
        <ele>573</ele>
        <time>2015-12-02T07:49:03Z</time>
      </trkpt>
      <trkpt lat="44.99541" lon="4.50305">
        <ele>573</ele>
        <time>2015-12-02T07:49:06Z</time>
      </trkpt>
      <trkpt lat="44.99545" lon="4.50291">
        <ele>573</ele>
        <time>2015-12-02T07:49:10Z</time>
      </trkpt>
      <trkpt lat="44.99549" lon="4.50275">
        <ele>574</ele>
        <time>2015-12-02T07:49:15Z</time>
      </trkpt>
      <trkpt lat="44.99551" lon="4.50264">
        <ele>574</ele>
        <time>2015-12-02T07:49:18Z</time>
      </trkpt>
      <trkpt lat="44.9956" lon="4.50252">
        <ele>574</ele>
        <time>2015-12-02T07:49:22Z</time>
      </trkpt>
      <trkpt lat="44.9957" lon="4.5023">
        <ele>572</ele>
        <time>2015-12-02T07:49:27Z</time>
      </trkpt>
      <trkpt lat="44.99571" lon="4.50213">
        <ele>571</ele>
        <time>2015-12-02T07:49:31Z</time>
      </trkpt>
      <trkpt lat="44.99572" lon="4.50199">
        <ele>571</ele>
        <time>2015-12-02T07:49:34Z</time>
      </trkpt>
      <trkpt lat="44.99567" lon="4.50116">
        <ele>570</ele>
        <time>2015-12-02T07:49:41Z</time>
      </trkpt>
      <trkpt lat="44.99571" lon="4.50106">
        <ele>573</ele>
        <time>2015-12-02T07:49:52Z</time>
      </trkpt>
      <trkpt lat="44.9957" lon="4.50092">
        <ele>574</ele>
        <time>2015-12-02T07:49:56Z</time>
      </trkpt>
      <trkpt lat="44.99573" lon="4.50079">
        <ele>573</ele>
        <time>2015-12-02T07:50:00Z</time>
      </trkpt>
      <trkpt lat="44.99574" lon="4.50067">
        <ele>572</ele>
        <time>2015-12-02T07:50:04Z</time>
      </trkpt>
      <trkpt lat="44.99572" lon="4.50055">
        <ele>571</ele>
        <time>2015-12-02T07:50:09Z</time>
      </trkpt>
      <trkpt lat="44.99573" lon="4.50044">
        <ele>571</ele>
        <time>2015-12-02T07:50:13Z</time>
      </trkpt>
      <trkpt lat="44.99574" lon="4.50032">
        <ele>571</ele>
        <time>2015-12-02T07:50:19Z</time>
      </trkpt>
      <trkpt lat="44.99575" lon="4.50018">
        <ele>571</ele>
        <time>2015-12-02T07:50:23Z</time>
      </trkpt>
      <trkpt lat="44.99578" lon="4.50008">
        <ele>570</ele>
        <time>2015-12-02T07:50:27Z</time>
      </trkpt>
      <trkpt lat="44.99579" lon="4.49999">
        <ele>570</ele>
        <time>2015-12-02T07:50:30Z</time>
      </trkpt>
      <trkpt lat="44.99582" lon="4.49988">
        <ele>570</ele>
        <time>2015-12-02T07:50:34Z</time>
      </trkpt>
      <trkpt lat="44.99585" lon="4.49973">
        <ele>569</ele>
        <time>2015-12-02T07:50:38Z</time>
      </trkpt>
      <trkpt lat="44.99587" lon="4.49955">
        <ele>569</ele>
        <time>2015-12-02T07:50:42Z</time>
      </trkpt>
      <trkpt lat="44.99589" lon="4.49942">
        <ele>568</ele>
        <time>2015-12-02T07:50:45Z</time>
      </trkpt>
      <trkpt lat="44.99591" lon="4.49928">
        <ele>568</ele>
        <time>2015-12-02T07:50:49Z</time>
      </trkpt>
      <trkpt lat="44.99592" lon="4.49913">
        <ele>567</ele>
        <time>2015-12-02T07:50:53Z</time>
      </trkpt>
      <trkpt lat="44.99592" lon="4.49898">
        <ele>567</ele>
        <time>2015-12-02T07:50:57Z</time>
      </trkpt>
      <trkpt lat="44.99594" lon="4.49885">
        <ele>567</ele>
        <time>2015-12-02T07:51:01Z</time>
      </trkpt>
      <trkpt lat="44.99596" lon="4.4987">
        <ele>566</ele>
        <time>2015-12-02T07:51:05Z</time>
      </trkpt>
      <trkpt lat="44.99597" lon="4.4985">
        <ele>566</ele>
        <time>2015-12-02T07:51:09Z</time>
      </trkpt>
      <trkpt lat="44.99589" lon="4.49824">
        <ele>566</ele>
        <time>2015-12-02T07:51:13Z</time>
      </trkpt>
      <trkpt lat="44.99588" lon="4.49808">
        <ele>566</ele>
        <time>2015-12-02T07:51:16Z</time>
      </trkpt>
      <trkpt lat="44.99587" lon="4.49789">
        <ele>566</ele>
        <time>2015-12-02T07:51:20Z</time>
      </trkpt>
      <trkpt lat="44.99585" lon="4.49773">
        <ele>567</ele>
        <time>2015-12-02T07:51:24Z</time>
      </trkpt>
      <trkpt lat="44.99584" lon="4.49763">
        <ele>566</ele>
        <time>2015-12-02T07:51:28Z</time>
      </trkpt>
      <trkpt lat="44.99584" lon="4.49751">
        <ele>565</ele>
        <time>2015-12-02T07:51:32Z</time>
      </trkpt>
      <trkpt lat="44.99585" lon="4.49739">
        <ele>565</ele>
        <time>2015-12-02T07:51:37Z</time>
      </trkpt>
      <trkpt lat="44.99588" lon="4.4973">
        <ele>565</ele>
        <time>2015-12-02T07:51:43Z</time>
      </trkpt>
      <trkpt lat="44.99588" lon="4.49719">
        <ele>567</ele>
        <time>2015-12-02T07:51:46Z</time>
      </trkpt>
      <trkpt lat="44.99591" lon="4.49711">
        <ele>568</ele>
        <time>2015-12-02T07:51:50Z</time>
      </trkpt>
      <trkpt lat="44.99595" lon="4.49701">
        <ele>569</ele>
        <time>2015-12-02T07:51:57Z</time>
      </trkpt>
      <trkpt lat="44.99599" lon="4.4969">
        <ele>571</ele>
        <time>2015-12-02T07:52:05Z</time>
      </trkpt>
      <trkpt lat="44.99601" lon="4.49679">
        <ele>572</ele>
        <time>2015-12-02T07:52:15Z</time>
      </trkpt>
      <trkpt lat="44.99603" lon="4.49667">
        <ele>573</ele>
        <time>2015-12-02T07:52:25Z</time>
      </trkpt>
      <trkpt lat="44.99605" lon="4.4966">
        <ele>574</ele>
        <time>2015-12-02T07:52:29Z</time>
      </trkpt>
      <trkpt lat="44.99611" lon="4.49652">
        <ele>574</ele>
        <time>2015-12-02T07:52:34Z</time>
      </trkpt>
      <trkpt lat="44.99614" lon="4.49642">
        <ele>574</ele>
        <time>2015-12-02T07:52:43Z</time>
      </trkpt>
      <trkpt lat="44.99618" lon="4.49634">
        <ele>575</ele>
        <time>2015-12-02T07:52:51Z</time>
      </trkpt>
      <trkpt lat="44.99619" lon="4.49622">
        <ele>578</ele>
        <time>2015-12-02T07:52:59Z</time>
      </trkpt>
      <trkpt lat="44.99623" lon="4.49612">
        <ele>580</ele>
        <time>2015-12-02T07:53:08Z</time>
      </trkpt>
      <trkpt lat="44.99629" lon="4.49605">
        <ele>580</ele>
        <time>2015-12-02T07:53:14Z</time>
      </trkpt>
      <trkpt lat="44.99628" lon="4.49594">
        <ele>584</ele>
        <time>2015-12-02T07:53:19Z</time>
      </trkpt>
      <trkpt lat="44.99634" lon="4.49585">
        <ele>585</ele>
        <time>2015-12-02T07:53:25Z</time>
      </trkpt>
      <trkpt lat="44.9964" lon="4.49576">
        <ele>585</ele>
        <time>2015-12-02T07:53:32Z</time>
      </trkpt>
      <trkpt lat="44.99646" lon="4.49567">
        <ele>586</ele>
        <time>2015-12-02T07:53:39Z</time>
      </trkpt>
      <trkpt lat="44.99651" lon="4.49558">
        <ele>587</ele>
        <time>2015-12-02T07:53:46Z</time>
      </trkpt>
      <trkpt lat="44.99658" lon="4.4955">
        <ele>587</ele>
        <time>2015-12-02T07:53:54Z</time>
      </trkpt>
      <trkpt lat="44.99662" lon="4.49542">
        <ele>588</ele>
        <time>2015-12-02T07:54:00Z</time>
      </trkpt>
      <trkpt lat="44.99666" lon="4.49533">
        <ele>588</ele>
        <time>2015-12-02T07:54:06Z</time>
      </trkpt>
      <trkpt lat="44.9967" lon="4.49526">
        <ele>588</ele>
        <time>2015-12-02T07:54:11Z</time>
      </trkpt>
      <trkpt lat="44.99673" lon="4.49516">
        <ele>588</ele>
        <time>2015-12-02T07:54:16Z</time>
      </trkpt>
      <trkpt lat="44.99678" lon="4.49506">
        <ele>588</ele>
        <time>2015-12-02T07:54:23Z</time>
      </trkpt>
      <trkpt lat="44.99681" lon="4.49495">
        <ele>588</ele>
        <time>2015-12-02T07:54:29Z</time>
      </trkpt>
      <trkpt lat="44.9968" lon="4.49482">
        <ele>589</ele>
        <time>2015-12-02T07:54:37Z</time>
      </trkpt>
      <trkpt lat="44.99677" lon="4.4947">
        <ele>590</ele>
        <time>2015-12-02T07:54:42Z</time>
      </trkpt>
      <trkpt lat="44.99675" lon="4.49459">
        <ele>590</ele>
        <time>2015-12-02T07:54:50Z</time>
      </trkpt>
      <trkpt lat="44.99672" lon="4.49449">
        <ele>590</ele>
        <time>2015-12-02T07:54:58Z</time>
      </trkpt>
      <trkpt lat="44.99669" lon="4.4944">
        <ele>591</ele>
        <time>2015-12-02T07:55:04Z</time>
      </trkpt>
      <trkpt lat="44.99667" lon="4.49432">
        <ele>591</ele>
        <time>2015-12-02T07:55:08Z</time>
      </trkpt>
      <trkpt lat="44.99667" lon="4.49419">
        <ele>591</ele>
        <time>2015-12-02T07:55:13Z</time>
      </trkpt>
      <trkpt lat="44.99667" lon="4.49407">
        <ele>592</ele>
        <time>2015-12-02T07:55:20Z</time>
      </trkpt>
      <trkpt lat="44.99666" lon="4.49397">
        <ele>592</ele>
        <time>2015-12-02T07:55:25Z</time>
      </trkpt>
      <trkpt lat="44.99663" lon="4.49385">
        <ele>593</ele>
        <time>2015-12-02T07:55:34Z</time>
      </trkpt>
      <trkpt lat="44.99661" lon="4.49373">
        <ele>594</ele>
        <time>2015-12-02T07:55:43Z</time>
      </trkpt>
      <trkpt lat="44.99658" lon="4.49362">
        <ele>594</ele>
        <time>2015-12-02T07:55:50Z</time>
      </trkpt>
      <trkpt lat="44.99656" lon="4.49351">
        <ele>595</ele>
        <time>2015-12-02T07:55:57Z</time>
      </trkpt>
      <trkpt lat="44.99655" lon="4.49339">
        <ele>596</ele>
        <time>2015-12-02T07:56:03Z</time>
      </trkpt>
      <trkpt lat="44.99656" lon="4.49326">
        <ele>598</ele>
        <time>2015-12-02T07:56:39Z</time>
      </trkpt>
      <trkpt lat="44.99661" lon="4.49314">
        <ele>598</ele>
        <time>2015-12-02T07:56:44Z</time>
      </trkpt>
      <trkpt lat="44.99665" lon="4.49297">
        <ele>598</ele>
        <time>2015-12-02T07:56:49Z</time>
      </trkpt>
      <trkpt lat="44.99666" lon="4.49284">
        <ele>597</ele>
        <time>2015-12-02T07:56:52Z</time>
      </trkpt>
      <trkpt lat="44.9967" lon="4.49269">
        <ele>597</ele>
        <time>2015-12-02T07:56:55Z</time>
      </trkpt>
      <trkpt lat="44.99674" lon="4.49253">
        <ele>597</ele>
        <time>2015-12-02T07:56:58Z</time>
      </trkpt>
      <trkpt lat="44.99681" lon="4.49227">
        <ele>597</ele>
        <time>2015-12-02T07:57:03Z</time>
      </trkpt>
      <trkpt lat="44.99684" lon="4.49209">
        <ele>598</ele>
        <time>2015-12-02T07:57:07Z</time>
      </trkpt>
      <trkpt lat="44.99686" lon="4.4919">
        <ele>598</ele>
        <time>2015-12-02T07:57:11Z</time>
      </trkpt>
      <trkpt lat="44.99689" lon="4.49164">
        <ele>598</ele>
        <time>2015-12-02T07:57:16Z</time>
      </trkpt>
      <trkpt lat="44.99689" lon="4.49143">
        <ele>600</ele>
        <time>2015-12-02T07:57:20Z</time>
      </trkpt>
      <trkpt lat="44.99687" lon="4.4911">
        <ele>604</ele>
        <time>2015-12-02T07:57:25Z</time>
      </trkpt>
      <trkpt lat="44.99687" lon="4.4908">
        <ele>609</ele>
        <time>2015-12-02T07:57:29Z</time>
      </trkpt>
      <trkpt lat="44.99685" lon="4.49044">
        <ele>613</ele>
        <time>2015-12-02T07:57:34Z</time>
      </trkpt>
      <trkpt lat="44.99682" lon="4.49017">
        <ele>615</ele>
        <time>2015-12-02T07:57:38Z</time>
      </trkpt>
      <trkpt lat="44.99676" lon="4.48989">
        <ele>618</ele>
        <time>2015-12-02T07:57:42Z</time>
      </trkpt>
      <trkpt lat="44.99672" lon="4.48969">
        <ele>620</ele>
        <time>2015-12-02T07:57:45Z</time>
      </trkpt>
      <trkpt lat="44.99667" lon="4.48937">
        <ele>623</ele>
        <time>2015-12-02T07:57:50Z</time>
      </trkpt>
      <trkpt lat="44.99662" lon="4.4891">
        <ele>624</ele>
        <time>2015-12-02T07:57:54Z</time>
      </trkpt>
      <trkpt lat="44.9966" lon="4.48886">
        <ele>626</ele>
        <time>2015-12-02T07:57:58Z</time>
      </trkpt>
      <trkpt lat="44.99659" lon="4.4886">
        <ele>627</ele>
        <time>2015-12-02T07:58:03Z</time>
      </trkpt>
      <trkpt lat="44.99659" lon="4.48845">
        <ele>628</ele>
        <time>2015-12-02T07:58:06Z</time>
      </trkpt>
      <trkpt lat="44.99657" lon="4.48821">
        <ele>630</ele>
        <time>2015-12-02T07:58:11Z</time>
      </trkpt>
      <trkpt lat="44.99652" lon="4.48799">
        <ele>631</ele>
        <time>2015-12-02T07:58:15Z</time>
      </trkpt>
      <trkpt lat="44.99645" lon="4.48775">
        <ele>631</ele>
        <time>2015-12-02T07:58:20Z</time>
      </trkpt>
      <trkpt lat="44.99639" lon="4.48755">
        <ele>631</ele>
        <time>2015-12-02T07:58:24Z</time>
      </trkpt>
      <trkpt lat="44.99631" lon="4.48729">
        <ele>630</ele>
        <time>2015-12-02T07:58:29Z</time>
      </trkpt>
      <trkpt lat="44.99628" lon="4.48706">
        <ele>630</ele>
        <time>2015-12-02T07:58:33Z</time>
      </trkpt>
      <trkpt lat="44.99628" lon="4.48687">
        <ele>630</ele>
        <time>2015-12-02T07:58:37Z</time>
      </trkpt>
      <trkpt lat="44.9963" lon="4.48665">
        <ele>630</ele>
        <time>2015-12-02T07:58:41Z</time>
      </trkpt>
      <trkpt lat="44.9963" lon="4.48639">
        <ele>630</ele>
        <time>2015-12-02T07:58:45Z</time>
      </trkpt>
      <trkpt lat="44.99635" lon="4.48622">
        <ele>630</ele>
        <time>2015-12-02T07:58:50Z</time>
      </trkpt>
      <trkpt lat="44.99639" lon="4.48589">
        <ele>630</ele>
        <time>2015-12-02T07:58:54Z</time>
      </trkpt>
      <trkpt lat="44.99646" lon="4.48573">
        <ele>629</ele>
        <time>2015-12-02T07:58:57Z</time>
      </trkpt>
      <trkpt lat="44.99654" lon="4.48553">
        <ele>630</ele>
        <time>2015-12-02T07:59:02Z</time>
      </trkpt>
      <trkpt lat="44.99663" lon="4.48537">
        <ele>629</ele>
        <time>2015-12-02T07:59:06Z</time>
      </trkpt>
      <trkpt lat="44.99668" lon="4.48526">
        <ele>630</ele>
        <time>2015-12-02T07:59:11Z</time>
      </trkpt>
      <trkpt lat="44.99679" lon="4.48513">
        <ele>630</ele>
        <time>2015-12-02T07:59:15Z</time>
      </trkpt>
      <trkpt lat="44.99683" lon="4.48506">
        <ele>631</ele>
        <time>2015-12-02T07:59:19Z</time>
      </trkpt>
      <trkpt lat="44.9969" lon="4.48497">
        <ele>631</ele>
        <time>2015-12-02T07:59:23Z</time>
      </trkpt>
      <trkpt lat="44.99696" lon="4.48491">
        <ele>632</ele>
        <time>2015-12-02T07:59:27Z</time>
      </trkpt>
      <trkpt lat="44.99697" lon="4.48479">
        <ele>633</ele>
        <time>2015-12-02T07:59:37Z</time>
      </trkpt>
      <trkpt lat="44.99695" lon="4.48467">
        <ele>634</ele>
        <time>2015-12-02T07:59:44Z</time>
      </trkpt>
      <trkpt lat="44.9969" lon="4.48457">
        <ele>635</ele>
        <time>2015-12-02T07:59:50Z</time>
      </trkpt>
      <trkpt lat="44.99684" lon="4.48451">
        <ele>636</ele>
        <time>2015-12-02T07:59:58Z</time>
      </trkpt>
      <trkpt lat="44.99678" lon="4.48443">
        <ele>637</ele>
        <time>2015-12-02T08:00:06Z</time>
      </trkpt>
      <trkpt lat="44.99672" lon="4.48439">
        <ele>639</ele>
        <time>2015-12-02T08:00:11Z</time>
      </trkpt>
      <trkpt lat="44.99666" lon="4.48434">
        <ele>641</ele>
        <time>2015-12-02T08:00:18Z</time>
      </trkpt>
      <trkpt lat="44.99657" lon="4.4843">
        <ele>643</ele>
        <time>2015-12-02T08:00:27Z</time>
      </trkpt>
      <trkpt lat="44.99651" lon="4.4843">
        <ele>644</ele>
        <time>2015-12-02T08:00:36Z</time>
      </trkpt>
      <trkpt lat="44.99643" lon="4.48428">
        <ele>645</ele>
        <time>2015-12-02T08:00:42Z</time>
      </trkpt>
      <trkpt lat="44.99635" lon="4.48425">
        <ele>646</ele>
        <time>2015-12-02T08:00:51Z</time>
      </trkpt>
      <trkpt lat="44.99627" lon="4.48426">
        <ele>647</ele>
        <time>2015-12-02T08:00:59Z</time>
      </trkpt>
      <trkpt lat="44.99618" lon="4.48422">
        <ele>647</ele>
        <time>2015-12-02T08:01:05Z</time>
      </trkpt>
      <trkpt lat="44.9961" lon="4.48422">
        <ele>648</ele>
        <time>2015-12-02T08:01:12Z</time>
      </trkpt>
      <trkpt lat="44.99602" lon="4.48419">
        <ele>649</ele>
        <time>2015-12-02T08:01:20Z</time>
      </trkpt>
      <trkpt lat="44.99594" lon="4.48416">
        <ele>651</ele>
        <time>2015-12-02T08:01:30Z</time>
      </trkpt>
      <trkpt lat="44.99587" lon="4.48412">
        <ele>651</ele>
        <time>2015-12-02T08:01:37Z</time>
      </trkpt>
      <trkpt lat="44.99579" lon="4.48408">
        <ele>651</ele>
        <time>2015-12-02T08:01:45Z</time>
      </trkpt>
      <trkpt lat="44.99571" lon="4.48404">
        <ele>653</ele>
        <time>2015-12-02T08:01:52Z</time>
      </trkpt>
      <trkpt lat="44.99565" lon="4.48395">
        <ele>654</ele>
        <time>2015-12-02T08:02:01Z</time>
      </trkpt>
      <trkpt lat="44.99558" lon="4.4839">
        <ele>656</ele>
        <time>2015-12-02T08:02:08Z</time>
      </trkpt>
      <trkpt lat="44.99552" lon="4.48382">
        <ele>657</ele>
        <time>2015-12-02T08:02:13Z</time>
      </trkpt>
      <trkpt lat="44.99545" lon="4.48375">
        <ele>658</ele>
        <time>2015-12-02T08:02:21Z</time>
      </trkpt>
      <trkpt lat="44.99541" lon="4.48368">
        <ele>660</ele>
        <time>2015-12-02T08:02:29Z</time>
      </trkpt>
      <trkpt lat="44.99535" lon="4.4836">
        <ele>661</ele>
        <time>2015-12-02T08:02:36Z</time>
      </trkpt>
      <trkpt lat="44.9953" lon="4.4835">
        <ele>662</ele>
        <time>2015-12-02T08:02:45Z</time>
      </trkpt>
      <trkpt lat="44.9953" lon="4.48339">
        <ele>664</ele>
        <time>2015-12-02T08:02:55Z</time>
      </trkpt>
      <trkpt lat="44.99537" lon="4.48341">
        <ele>666</ele>
        <time>2015-12-02T08:03:06Z</time>
      </trkpt>
      <trkpt lat="44.99544" lon="4.48343">
        <ele>670</ele>
        <time>2015-12-02T08:03:21Z</time>
      </trkpt>
      <trkpt lat="44.99551" lon="4.48342">
        <ele>671</ele>
        <time>2015-12-02T08:03:27Z</time>
      </trkpt>
      <trkpt lat="44.99558" lon="4.48343">
        <ele>672</ele>
        <time>2015-12-02T08:03:31Z</time>
      </trkpt>
      <trkpt lat="44.99566" lon="4.48344">
        <ele>673</ele>
        <time>2015-12-02T08:03:38Z</time>
      </trkpt>
      <trkpt lat="44.99574" lon="4.48344">
        <ele>674</ele>
        <time>2015-12-02T08:03:44Z</time>
      </trkpt>
      <trkpt lat="44.99582" lon="4.48344">
        <ele>676</ele>
        <time>2015-12-02T08:03:51Z</time>
      </trkpt>
      <trkpt lat="44.99594" lon="4.48336">
        <ele>676</ele>
        <time>2015-12-02T08:03:56Z</time>
      </trkpt>
      <trkpt lat="44.99601" lon="4.48332">
        <ele>677</ele>
        <time>2015-12-02T08:04:01Z</time>
      </trkpt>
      <trkpt lat="44.99607" lon="4.48329">
        <ele>677</ele>
        <time>2015-12-02T08:04:05Z</time>
      </trkpt>
      <trkpt lat="44.99615" lon="4.48326">
        <ele>677</ele>
        <time>2015-12-02T08:04:09Z</time>
      </trkpt>
      <trkpt lat="44.99624" lon="4.48323">
        <ele>678</ele>
        <time>2015-12-02T08:04:15Z</time>
      </trkpt>
      <trkpt lat="44.9963" lon="4.4832">
        <ele>678</ele>
        <time>2015-12-02T08:04:19Z</time>
      </trkpt>
      <trkpt lat="44.99637" lon="4.48316">
        <ele>679</ele>
        <time>2015-12-02T08:04:23Z</time>
      </trkpt>
      <trkpt lat="44.99644" lon="4.48312">
        <ele>679</ele>
        <time>2015-12-02T08:04:28Z</time>
      </trkpt>
      <trkpt lat="44.99651" lon="4.48306">
        <ele>681</ele>
        <time>2015-12-02T08:04:33Z</time>
      </trkpt>
      <trkpt lat="44.99658" lon="4.48299">
        <ele>683</ele>
        <time>2015-12-02T08:04:42Z</time>
      </trkpt>
      <trkpt lat="44.99663" lon="4.48289">
        <ele>686</ele>
        <time>2015-12-02T08:04:50Z</time>
      </trkpt>
      <trkpt lat="44.99655" lon="4.4829">
        <ele>687</ele>
        <time>2015-12-02T08:05:00Z</time>
      </trkpt>
      <trkpt lat="44.99646" lon="4.48291">
        <ele>688</ele>
        <time>2015-12-02T08:05:08Z</time>
      </trkpt>
      <trkpt lat="44.99639" lon="4.4829">
        <ele>689</ele>
        <time>2015-12-02T08:05:17Z</time>
      </trkpt>
      <trkpt lat="44.99633" lon="4.48286">
        <ele>690</ele>
        <time>2015-12-02T08:05:21Z</time>
      </trkpt>
      <trkpt lat="44.99624" lon="4.48284">
        <ele>691</ele>
        <time>2015-12-02T08:05:27Z</time>
      </trkpt>
      <trkpt lat="44.99617" lon="4.48281">
        <ele>691</ele>
        <time>2015-12-02T08:05:34Z</time>
      </trkpt>
      <trkpt lat="44.99608" lon="4.48277">
        <ele>692</ele>
        <time>2015-12-02T08:05:44Z</time>
      </trkpt>
      <trkpt lat="44.99603" lon="4.48269">
        <ele>693</ele>
        <time>2015-12-02T08:05:50Z</time>
      </trkpt>
      <trkpt lat="44.99599" lon="4.4826">
        <ele>693</ele>
        <time>2015-12-02T08:05:56Z</time>
      </trkpt>
      <trkpt lat="44.99593" lon="4.48252">
        <ele>694</ele>
        <time>2015-12-02T08:06:04Z</time>
      </trkpt>
      <trkpt lat="44.99587" lon="4.48244">
        <ele>694</ele>
        <time>2015-12-02T08:06:12Z</time>
      </trkpt>
      <trkpt lat="44.99582" lon="4.48236">
        <ele>694</ele>
        <time>2015-12-02T08:06:19Z</time>
      </trkpt>
      <trkpt lat="44.99575" lon="4.48228">
        <ele>695</ele>
        <time>2015-12-02T08:06:27Z</time>
      </trkpt>
      <trkpt lat="44.9957" lon="4.48219">
        <ele>696</ele>
        <time>2015-12-02T08:06:36Z</time>
      </trkpt>
      <trkpt lat="44.99565" lon="4.48209">
        <ele>696</ele>
        <time>2015-12-02T08:06:42Z</time>
      </trkpt>
      <trkpt lat="44.99561" lon="4.48202">
        <ele>697</ele>
        <time>2015-12-02T08:06:46Z</time>
      </trkpt>
      <trkpt lat="44.99557" lon="4.48192">
        <ele>697</ele>
        <time>2015-12-02T08:06:52Z</time>
      </trkpt>
      <trkpt lat="44.99551" lon="4.48185">
        <ele>699</ele>
        <time>2015-12-02T08:07:00Z</time>
      </trkpt>
      <trkpt lat="44.99545" lon="4.48177">
        <ele>702</ele>
        <time>2015-12-02T08:07:07Z</time>
      </trkpt>
      <trkpt lat="44.9954" lon="4.48166">
        <ele>703</ele>
        <time>2015-12-02T08:07:14Z</time>
      </trkpt>
      <trkpt lat="44.99539" lon="4.48157">
        <ele>704</ele>
        <time>2015-12-02T08:07:19Z</time>
      </trkpt>
      <trkpt lat="44.99536" lon="4.48148">
        <ele>705</ele>
        <time>2015-12-02T08:07:25Z</time>
      </trkpt>
      <trkpt lat="44.99535" lon="4.48139">
        <ele>707</ele>
        <time>2015-12-02T08:07:31Z</time>
      </trkpt>
      <trkpt lat="44.99536" lon="4.48127">
        <ele>709</ele>
        <time>2015-12-02T08:07:40Z</time>
      </trkpt>
      <trkpt lat="44.99537" lon="4.48117">
        <ele>710</ele>
        <time>2015-12-02T08:07:48Z</time>
      </trkpt>
      <trkpt lat="44.99541" lon="4.48107">
        <ele>711</ele>
        <time>2015-12-02T08:07:56Z</time>
      </trkpt>
      <trkpt lat="44.99545" lon="4.48097">
        <ele>712</ele>
        <time>2015-12-02T08:08:04Z</time>
      </trkpt>
      <trkpt lat="44.99551" lon="4.4809">
        <ele>713</ele>
        <time>2015-12-02T08:08:10Z</time>
      </trkpt>
      <trkpt lat="44.99557" lon="4.48081">
        <ele>713</ele>
        <time>2015-12-02T08:08:17Z</time>
      </trkpt>
      <trkpt lat="44.99562" lon="4.48071">
        <ele>714</ele>
        <time>2015-12-02T08:08:26Z</time>
      </trkpt>
      <trkpt lat="44.99567" lon="4.4806">
        <ele>715</ele>
        <time>2015-12-02T08:08:33Z</time>
      </trkpt>
      <trkpt lat="44.99571" lon="4.48049">
        <ele>716</ele>
        <time>2015-12-02T08:08:44Z</time>
      </trkpt>
      <trkpt lat="44.99574" lon="4.48038">
        <ele>717</ele>
        <time>2015-12-02T08:08:54Z</time>
      </trkpt>
      <trkpt lat="44.99577" lon="4.48029">
        <ele>718</ele>
        <time>2015-12-02T08:09:03Z</time>
      </trkpt>
      <trkpt lat="44.99582" lon="4.48019">
        <ele>719</ele>
        <time>2015-12-02T08:09:10Z</time>
      </trkpt>
      <trkpt lat="44.99586" lon="4.4801">
        <ele>720</ele>
        <time>2015-12-02T08:09:16Z</time>
      </trkpt>
      <trkpt lat="44.99588" lon="4.47999">
        <ele>721</ele>
        <time>2015-12-02T08:09:23Z</time>
      </trkpt>
      <trkpt lat="44.99593" lon="4.4799">
        <ele>723</ele>
        <time>2015-12-02T08:09:29Z</time>
      </trkpt>
      <trkpt lat="44.99598" lon="4.47983">
        <ele>723</ele>
        <time>2015-12-02T08:09:35Z</time>
      </trkpt>
      <trkpt lat="44.99603" lon="4.47978">
        <ele>724</ele>
        <time>2015-12-02T08:09:39Z</time>
      </trkpt>
      <trkpt lat="44.9961" lon="4.4797">
        <ele>724</ele>
        <time>2015-12-02T08:09:46Z</time>
      </trkpt>
      <trkpt lat="44.99615" lon="4.47961">
        <ele>726</ele>
        <time>2015-12-02T08:09:57Z</time>
      </trkpt>
      <trkpt lat="44.99619" lon="4.4795">
        <ele>727</ele>
        <time>2015-12-02T08:10:04Z</time>
      </trkpt>
      <trkpt lat="44.99625" lon="4.47941">
        <ele>727</ele>
        <time>2015-12-02T08:10:09Z</time>
      </trkpt>
      <trkpt lat="44.99629" lon="4.47932">
        <ele>728</ele>
        <time>2015-12-02T08:10:16Z</time>
      </trkpt>
      <trkpt lat="44.99634" lon="4.47925">
        <ele>729</ele>
        <time>2015-12-02T08:10:24Z</time>
      </trkpt>
      <trkpt lat="44.99638" lon="4.47915">
        <ele>730</ele>
        <time>2015-12-02T08:10:32Z</time>
      </trkpt>
      <trkpt lat="44.99641" lon="4.47903">
        <ele>731</ele>
        <time>2015-12-02T08:10:44Z</time>
      </trkpt>
      <trkpt lat="44.99641" lon="4.47893">
        <ele>732</ele>
        <time>2015-12-02T08:10:52Z</time>
      </trkpt>
      <trkpt lat="44.99642" lon="4.47882">
        <ele>733</ele>
        <time>2015-12-02T08:11:00Z</time>
      </trkpt>
      <trkpt lat="44.99642" lon="4.47872">
        <ele>734</ele>
        <time>2015-12-02T08:11:10Z</time>
      </trkpt>
      <trkpt lat="44.99642" lon="4.47862">
        <ele>735</ele>
        <time>2015-12-02T08:11:18Z</time>
      </trkpt>
      <trkpt lat="44.99641" lon="4.4785">
        <ele>736</ele>
        <time>2015-12-02T08:11:26Z</time>
      </trkpt>
      <trkpt lat="44.9964" lon="4.47841">
        <ele>737</ele>
        <time>2015-12-02T08:11:34Z</time>
      </trkpt>
      <trkpt lat="44.9964" lon="4.47829">
        <ele>738</ele>
        <time>2015-12-02T08:11:41Z</time>
      </trkpt>
      <trkpt lat="44.99641" lon="4.47821">
        <ele>739</ele>
        <time>2015-12-02T08:11:48Z</time>
      </trkpt>
      <trkpt lat="44.99641" lon="4.47809">
        <ele>740</ele>
        <time>2015-12-02T08:11:55Z</time>
      </trkpt>
      <trkpt lat="44.99644" lon="4.47798">
        <ele>740</ele>
        <time>2015-12-02T08:12:05Z</time>
      </trkpt>
      <trkpt lat="44.99641" lon="4.47786">
        <ele>741</ele>
        <time>2015-12-02T08:12:12Z</time>
      </trkpt>
      <trkpt lat="44.99639" lon="4.47774">
        <ele>741</ele>
        <time>2015-12-02T08:12:19Z</time>
      </trkpt>
      <trkpt lat="44.99635" lon="4.47764">
        <ele>742</ele>
        <time>2015-12-02T08:12:26Z</time>
      </trkpt>
      <trkpt lat="44.99637" lon="4.47753">
        <ele>743</ele>
        <time>2015-12-02T08:12:36Z</time>
      </trkpt>
      <trkpt lat="44.99638" lon="4.47744">
        <ele>743</ele>
        <time>2015-12-02T08:12:44Z</time>
      </trkpt>
      <trkpt lat="44.99635" lon="4.47732">
        <ele>744</ele>
        <time>2015-12-02T08:12:54Z</time>
      </trkpt>
      <trkpt lat="44.99625" lon="4.47721">
        <ele>744</ele>
        <time>2015-12-02T08:12:58Z</time>
      </trkpt>
      <trkpt lat="44.99619" lon="4.47712">
        <ele>745</ele>
        <time>2015-12-02T08:13:04Z</time>
      </trkpt>
      <trkpt lat="44.99615" lon="4.477">
        <ele>746</ele>
        <time>2015-12-02T08:13:12Z</time>
      </trkpt>
      <trkpt lat="44.9961" lon="4.47693">
        <ele>747</ele>
        <time>2015-12-02T08:13:20Z</time>
      </trkpt>
      <trkpt lat="44.99605" lon="4.47684">
        <ele>748</ele>
        <time>2015-12-02T08:13:28Z</time>
      </trkpt>
      <trkpt lat="44.996" lon="4.47677">
        <ele>749</ele>
        <time>2015-12-02T08:13:36Z</time>
      </trkpt>
      <trkpt lat="44.99595" lon="4.47667">
        <ele>750</ele>
        <time>2015-12-02T08:13:41Z</time>
      </trkpt>
      <trkpt lat="44.9959" lon="4.47661">
        <ele>750</ele>
        <time>2015-12-02T08:13:45Z</time>
      </trkpt>
      <trkpt lat="44.99585" lon="4.47654">
        <ele>751</ele>
        <time>2015-12-02T08:13:51Z</time>
      </trkpt>
      <trkpt lat="44.99578" lon="4.47646">
        <ele>751</ele>
        <time>2015-12-02T08:14:00Z</time>
      </trkpt>
      <trkpt lat="44.99573" lon="4.47639">
        <ele>753</ele>
        <time>2015-12-02T08:14:05Z</time>
      </trkpt>
      <trkpt lat="44.99567" lon="4.47632">
        <ele>754</ele>
        <time>2015-12-02T08:14:13Z</time>
      </trkpt>
      <trkpt lat="44.99561" lon="4.47624">
        <ele>755</ele>
        <time>2015-12-02T08:14:22Z</time>
      </trkpt>
      <trkpt lat="44.99554" lon="4.47616">
        <ele>755</ele>
        <time>2015-12-02T08:14:29Z</time>
      </trkpt>
      <trkpt lat="44.99549" lon="4.47609">
        <ele>756</ele>
        <time>2015-12-02T08:14:35Z</time>
      </trkpt>
      <trkpt lat="44.99544" lon="4.47607">
        <ele>757</ele>
        <time>2015-12-02T08:14:39Z</time>
      </trkpt>
      <trkpt lat="44.99536" lon="4.47602">
        <ele>759</ele>
        <time>2015-12-02T08:14:46Z</time>
      </trkpt>
      <trkpt lat="44.99528" lon="4.47598">
        <ele>761</ele>
        <time>2015-12-02T08:14:54Z</time>
      </trkpt>
      <trkpt lat="44.9952" lon="4.47598">
        <ele>763</ele>
        <time>2015-12-02T08:15:02Z</time>
      </trkpt>
      <trkpt lat="44.99512" lon="4.47598">
        <ele>765</ele>
        <time>2015-12-02T08:15:08Z</time>
      </trkpt>
      <trkpt lat="44.99504" lon="4.47596">
        <ele>767</ele>
        <time>2015-12-02T08:15:15Z</time>
      </trkpt>
      <trkpt lat="44.99497" lon="4.47596">
        <ele>769</ele>
        <time>2015-12-02T08:15:22Z</time>
      </trkpt>
      <trkpt lat="44.99488" lon="4.47595">
        <ele>771</ele>
        <time>2015-12-02T08:15:29Z</time>
      </trkpt>
      <trkpt lat="44.99481" lon="4.47591">
        <ele>773</ele>
        <time>2015-12-02T08:15:36Z</time>
      </trkpt>
      <trkpt lat="44.99473" lon="4.47588">
        <ele>774</ele>
        <time>2015-12-02T08:15:42Z</time>
      </trkpt>
      <trkpt lat="44.99465" lon="4.47583">
        <ele>776</ele>
        <time>2015-12-02T08:15:53Z</time>
      </trkpt>
      <trkpt lat="44.99457" lon="4.47577">
        <ele>777</ele>
        <time>2015-12-02T08:16:01Z</time>
      </trkpt>
      <trkpt lat="44.99451" lon="4.47572">
        <ele>777</ele>
        <time>2015-12-02T08:16:06Z</time>
      </trkpt>
      <trkpt lat="44.99445" lon="4.47566">
        <ele>778</ele>
        <time>2015-12-02T08:16:11Z</time>
      </trkpt>
      <trkpt lat="44.9944" lon="4.47556">
        <ele>778</ele>
        <time>2015-12-02T08:16:16Z</time>
      </trkpt>
      <trkpt lat="44.99432" lon="4.4755">
        <ele>779</ele>
        <time>2015-12-02T08:16:21Z</time>
      </trkpt>
      <trkpt lat="44.99428" lon="4.47542">
        <ele>780</ele>
        <time>2015-12-02T08:16:25Z</time>
      </trkpt>
      <trkpt lat="44.99424" lon="4.47535">
        <ele>780</ele>
        <time>2015-12-02T08:16:30Z</time>
      </trkpt>
      <trkpt lat="44.99417" lon="4.47529">
        <ele>781</ele>
        <time>2015-12-02T08:16:37Z</time>
      </trkpt>
      <trkpt lat="44.99412" lon="4.47519">
        <ele>781</ele>
        <time>2015-12-02T08:16:41Z</time>
      </trkpt>
      <trkpt lat="44.99407" lon="4.47512">
        <ele>781</ele>
        <time>2015-12-02T08:16:45Z</time>
      </trkpt>
      <trkpt lat="44.99402" lon="4.47502">
        <ele>781</ele>
        <time>2015-12-02T08:16:50Z</time>
      </trkpt>
      <trkpt lat="44.99398" lon="4.47493">
        <ele>781</ele>
        <time>2015-12-02T08:16:58Z</time>
      </trkpt>
      <trkpt lat="44.99393" lon="4.47482">
        <ele>783</ele>
        <time>2015-12-02T08:17:10Z</time>
      </trkpt>
      <trkpt lat="44.99386" lon="4.47477">
        <ele>784</ele>
        <time>2015-12-02T08:17:16Z</time>
      </trkpt>
      <trkpt lat="44.99381" lon="4.4747">
        <ele>784</ele>
        <time>2015-12-02T08:17:24Z</time>
      </trkpt>
      <trkpt lat="44.99376" lon="4.47461">
        <ele>785</ele>
        <time>2015-12-02T08:17:30Z</time>
      </trkpt>
      <trkpt lat="44.9937" lon="4.47453">
        <ele>786</ele>
        <time>2015-12-02T08:17:36Z</time>
      </trkpt>
      <trkpt lat="44.99365" lon="4.47445">
        <ele>787</ele>
        <time>2015-12-02T08:17:45Z</time>
      </trkpt>
      <trkpt lat="44.99364" lon="4.47435">
        <ele>787</ele>
        <time>2015-12-02T08:17:51Z</time>
      </trkpt>
      <trkpt lat="44.99366" lon="4.47426">
        <ele>788</ele>
        <time>2015-12-02T08:17:55Z</time>
      </trkpt>
      <trkpt lat="44.99365" lon="4.47416">
        <ele>789</ele>
        <time>2015-12-02T08:18:00Z</time>
      </trkpt>
      <trkpt lat="44.99366" lon="4.47405">
        <ele>789</ele>
        <time>2015-12-02T08:18:06Z</time>
      </trkpt>
      <trkpt lat="44.99365" lon="4.47393">
        <ele>790</ele>
        <time>2015-12-02T08:18:15Z</time>
      </trkpt>
      <trkpt lat="44.99365" lon="4.47385">
        <ele>790</ele>
        <time>2015-12-02T08:18:20Z</time>
      </trkpt>
      <trkpt lat="44.99366" lon="4.47375">
        <ele>791</ele>
        <time>2015-12-02T08:18:24Z</time>
      </trkpt>
      <trkpt lat="44.99366" lon="4.47365">
        <ele>791</ele>
        <time>2015-12-02T08:18:28Z</time>
      </trkpt>
      <trkpt lat="44.99365" lon="4.47354">
        <ele>792</ele>
        <time>2015-12-02T08:18:32Z</time>
      </trkpt>
      <trkpt lat="44.99363" lon="4.47345">
        <ele>792</ele>
        <time>2015-12-02T08:18:36Z</time>
      </trkpt>
      <trkpt lat="44.99363" lon="4.47333">
        <ele>792</ele>
        <time>2015-12-02T08:18:40Z</time>
      </trkpt>
      <trkpt lat="44.99363" lon="4.47323">
        <ele>792</ele>
        <time>2015-12-02T08:18:44Z</time>
      </trkpt>
      <trkpt lat="44.99362" lon="4.4731">
        <ele>792</ele>
        <time>2015-12-02T08:18:48Z</time>
      </trkpt>
      <trkpt lat="44.99362" lon="4.47299">
        <ele>792</ele>
        <time>2015-12-02T08:18:52Z</time>
      </trkpt>
      <trkpt lat="44.99362" lon="4.47286">
        <ele>792</ele>
        <time>2015-12-02T08:18:56Z</time>
      </trkpt>
      <trkpt lat="44.99362" lon="4.47272">
        <ele>792</ele>
        <time>2015-12-02T08:19:00Z</time>
      </trkpt>
      <trkpt lat="44.99362" lon="4.47258">
        <ele>792</ele>
        <time>2015-12-02T08:19:04Z</time>
      </trkpt>
      <trkpt lat="44.99363" lon="4.47248">
        <ele>792</ele>
        <time>2015-12-02T08:19:08Z</time>
      </trkpt>
      <trkpt lat="44.99363" lon="4.47237">
        <ele>792</ele>
        <time>2015-12-02T08:19:12Z</time>
      </trkpt>
      <trkpt lat="44.99363" lon="4.47225">
        <ele>792</ele>
        <time>2015-12-02T08:19:16Z</time>
      </trkpt>
      <trkpt lat="44.99363" lon="4.47213">
        <ele>792</ele>
        <time>2015-12-02T08:19:20Z</time>
      </trkpt>
      <trkpt lat="44.99363" lon="4.47195">
        <ele>792</ele>
        <time>2015-12-02T08:19:25Z</time>
      </trkpt>
      <trkpt lat="44.99361" lon="4.47172">
        <ele>792</ele>
        <time>2015-12-02T08:19:30Z</time>
      </trkpt>
      <trkpt lat="44.99363" lon="4.47155">
        <ele>792</ele>
        <time>2015-12-02T08:19:34Z</time>
      </trkpt>
      <trkpt lat="44.99367" lon="4.47136">
        <ele>792</ele>
        <time>2015-12-02T08:19:38Z</time>
      </trkpt>
      <trkpt lat="44.99372" lon="4.47121">
        <ele>793</ele>
        <time>2015-12-02T08:19:42Z</time>
      </trkpt>
      <trkpt lat="44.99373" lon="4.47108">
        <ele>793</ele>
        <time>2015-12-02T08:19:47Z</time>
      </trkpt>
      <trkpt lat="44.9937" lon="4.471">
        <ele>793</ele>
        <time>2015-12-02T08:19:50Z</time>
      </trkpt>
      <trkpt lat="44.99363" lon="4.47089">
        <ele>794</ele>
        <time>2015-12-02T08:19:55Z</time>
      </trkpt>
      <trkpt lat="44.99357" lon="4.47083">
        <ele>794</ele>
        <time>2015-12-02T08:20:00Z</time>
      </trkpt>
      <trkpt lat="44.99354" lon="4.47075">
        <ele>793</ele>
        <time>2015-12-02T08:20:04Z</time>
      </trkpt>
      <trkpt lat="44.99352" lon="4.47066">
        <ele>793</ele>
        <time>2015-12-02T08:20:08Z</time>
      </trkpt>
      <trkpt lat="44.99349" lon="4.47058">
        <ele>794</ele>
        <time>2015-12-02T08:20:12Z</time>
      </trkpt>
      <trkpt lat="44.99348" lon="4.47049">
        <ele>794</ele>
        <time>2015-12-02T08:20:16Z</time>
      </trkpt>
      <trkpt lat="44.99344" lon="4.47038">
        <ele>794</ele>
        <time>2015-12-02T08:20:23Z</time>
      </trkpt>
      <trkpt lat="44.99339" lon="4.47023">
        <ele>794</ele>
        <time>2015-12-02T08:20:28Z</time>
      </trkpt>
      <trkpt lat="44.99334" lon="4.47014">
        <ele>794</ele>
        <time>2015-12-02T08:20:33Z</time>
      </trkpt>
      <trkpt lat="44.9933" lon="4.47004">
        <ele>795</ele>
        <time>2015-12-02T08:20:37Z</time>
      </trkpt>
      <trkpt lat="44.99324" lon="4.46994">
        <ele>795</ele>
        <time>2015-12-02T08:20:42Z</time>
      </trkpt>
      <trkpt lat="44.99319" lon="4.46987">
        <ele>795</ele>
        <time>2015-12-02T08:20:46Z</time>
      </trkpt>
      <trkpt lat="44.99316" lon="4.4698">
        <ele>796</ele>
        <time>2015-12-02T08:20:50Z</time>
      </trkpt>
      <trkpt lat="44.99309" lon="4.46974">
        <ele>796</ele>
        <time>2015-12-02T08:20:54Z</time>
      </trkpt>
      <trkpt lat="44.99303" lon="4.46968">
        <ele>796</ele>
        <time>2015-12-02T08:20:58Z</time>
      </trkpt>
      <trkpt lat="44.99299" lon="4.4696">
        <ele>797</ele>
        <time>2015-12-02T08:21:02Z</time>
      </trkpt>
      <trkpt lat="44.99294" lon="4.46952">
        <ele>798</ele>
        <time>2015-12-02T08:21:07Z</time>
      </trkpt>
      <trkpt lat="44.99289" lon="4.46941">
        <ele>798</ele>
        <time>2015-12-02T08:21:12Z</time>
      </trkpt>
      <trkpt lat="44.99284" lon="4.4693">
        <ele>798</ele>
        <time>2015-12-02T08:21:17Z</time>
      </trkpt>
      <trkpt lat="44.99277" lon="4.46922">
        <ele>800</ele>
        <time>2015-12-02T08:21:25Z</time>
      </trkpt>
      <trkpt lat="44.99272" lon="4.46914">
        <ele>801</ele>
        <time>2015-12-02T08:21:30Z</time>
      </trkpt>
      <trkpt lat="44.99267" lon="4.46904">
        <ele>801</ele>
        <time>2015-12-02T08:21:36Z</time>
      </trkpt>
      <trkpt lat="44.99262" lon="4.46897">
        <ele>801</ele>
        <time>2015-12-02T08:21:42Z</time>
      </trkpt>
      <trkpt lat="44.99257" lon="4.46887">
        <ele>803</ele>
        <time>2015-12-02T08:21:47Z</time>
      </trkpt>
      <trkpt lat="44.99252" lon="4.46875">
        <ele>807</ele>
        <time>2015-12-02T08:21:52Z</time>
      </trkpt>
      <trkpt lat="44.99248" lon="4.46865">
        <ele>807</ele>
        <time>2015-12-02T08:22:02Z</time>
      </trkpt>
      <trkpt lat="44.99243" lon="4.46859">
        <ele>807</ele>
        <time>2015-12-02T08:22:07Z</time>
      </trkpt>
      <trkpt lat="44.99238" lon="4.46851">
        <ele>807</ele>
        <time>2015-12-02T08:22:12Z</time>
      </trkpt>
      <trkpt lat="44.99235" lon="4.46843">
        <ele>807</ele>
        <time>2015-12-02T08:22:16Z</time>
      </trkpt>
      <trkpt lat="44.99228" lon="4.46835">
        <ele>807</ele>
        <time>2015-12-02T08:22:22Z</time>
      </trkpt>
      <trkpt lat="44.99222" lon="4.46829">
        <ele>807</ele>
        <time>2015-12-02T08:22:27Z</time>
      </trkpt>
      <trkpt lat="44.99217" lon="4.4682">
        <ele>806</ele>
        <time>2015-12-02T08:22:32Z</time>
      </trkpt>
      <trkpt lat="44.99213" lon="4.46812">
        <ele>806</ele>
        <time>2015-12-02T08:22:37Z</time>
      </trkpt>
      <trkpt lat="44.99208" lon="4.46806">
        <ele>806</ele>
        <time>2015-12-02T08:22:42Z</time>
      </trkpt>
      <trkpt lat="44.99203" lon="4.46798">
        <ele>805</ele>
        <time>2015-12-02T08:22:46Z</time>
      </trkpt>
      <trkpt lat="44.99197" lon="4.46786">
        <ele>805</ele>
        <time>2015-12-02T08:22:51Z</time>
      </trkpt>
      <trkpt lat="44.99194" lon="4.46778">
        <ele>805</ele>
        <time>2015-12-02T08:22:54Z</time>
      </trkpt>
      <trkpt lat="44.9919" lon="4.46768">
        <ele>805</ele>
        <time>2015-12-02T08:22:58Z</time>
      </trkpt>
      <trkpt lat="44.99186" lon="4.46759">
        <ele>805</ele>
        <time>2015-12-02T08:23:02Z</time>
      </trkpt>
      <trkpt lat="44.99181" lon="4.4675">
        <ele>805</ele>
        <time>2015-12-02T08:23:07Z</time>
      </trkpt>
      <trkpt lat="44.99171" lon="4.46737">
        <ele>805</ele>
        <time>2015-12-02T08:23:12Z</time>
      </trkpt>
      <trkpt lat="44.99162" lon="4.46727">
        <ele>805</ele>
        <time>2015-12-02T08:23:16Z</time>
      </trkpt>
      <trkpt lat="44.99154" lon="4.46716">
        <ele>805</ele>
        <time>2015-12-02T08:23:20Z</time>
      </trkpt>
      <trkpt lat="44.99146" lon="4.46707">
        <ele>805</ele>
        <time>2015-12-02T08:23:24Z</time>
      </trkpt>
      <trkpt lat="44.99137" lon="4.467">
        <ele>804</ele>
        <time>2015-12-02T08:23:28Z</time>
      </trkpt>
      <trkpt lat="44.99127" lon="4.4669">
        <ele>804</ele>
        <time>2015-12-02T08:23:32Z</time>
      </trkpt>
      <trkpt lat="44.99114" lon="4.46687">
        <ele>804</ele>
        <time>2015-12-02T08:23:36Z</time>
      </trkpt>
      <trkpt lat="44.99107" lon="4.46686">
        <ele>804</ele>
        <time>2015-12-02T08:23:39Z</time>
      </trkpt>
      <trkpt lat="44.99092" lon="4.46681">
        <ele>804</ele>
        <time>2015-12-02T08:23:44Z</time>
      </trkpt>
      <trkpt lat="44.99074" lon="4.46672">
        <ele>804</ele>
        <time>2015-12-02T08:23:49Z</time>
      </trkpt>
      <trkpt lat="44.99066" lon="4.46665">
        <ele>804</ele>
        <time>2015-12-02T08:23:52Z</time>
      </trkpt>
      <trkpt lat="44.99055" lon="4.46653">
        <ele>804</ele>
        <time>2015-12-02T08:23:57Z</time>
      </trkpt>
      <trkpt lat="44.99048" lon="4.4664">
        <ele>804</ele>
        <time>2015-12-02T08:24:02Z</time>
      </trkpt>
      <trkpt lat="44.99045" lon="4.46633">
        <ele>804</ele>
        <time>2015-12-02T08:24:05Z</time>
      </trkpt>
      <trkpt lat="44.99042" lon="4.46622">
        <ele>804</ele>
        <time>2015-12-02T08:24:08Z</time>
      </trkpt>
      <trkpt lat="44.99035" lon="4.46611">
        <ele>804</ele>
        <time>2015-12-02T08:24:12Z</time>
      </trkpt>
      <trkpt lat="44.99029" lon="4.46597">
        <ele>804</ele>
        <time>2015-12-02T08:24:16Z</time>
      </trkpt>
      <trkpt lat="44.99022" lon="4.46584">
        <ele>804</ele>
        <time>2015-12-02T08:24:20Z</time>
      </trkpt>
      <trkpt lat="44.99016" lon="4.46575">
        <ele>804</ele>
        <time>2015-12-02T08:24:23Z</time>
      </trkpt>
      <trkpt lat="44.9901" lon="4.4656">
        <ele>804</ele>
        <time>2015-12-02T08:24:27Z</time>
      </trkpt>
      <trkpt lat="44.99007" lon="4.46551">
        <ele>804</ele>
        <time>2015-12-02T08:24:30Z</time>
      </trkpt>
      <trkpt lat="44.99002" lon="4.46538">
        <ele>804</ele>
        <time>2015-12-02T08:24:33Z</time>
      </trkpt>
      <trkpt lat="44.98996" lon="4.46525">
        <ele>804</ele>
        <time>2015-12-02T08:24:36Z</time>
      </trkpt>
      <trkpt lat="44.98989" lon="4.46513">
        <ele>804</ele>
        <time>2015-12-02T08:24:40Z</time>
      </trkpt>
      <trkpt lat="44.98983" lon="4.46503">
        <ele>803</ele>
        <time>2015-12-02T08:24:43Z</time>
      </trkpt>
      <trkpt lat="44.98978" lon="4.46492">
        <ele>803</ele>
        <time>2015-12-02T08:24:47Z</time>
      </trkpt>
      <trkpt lat="44.98972" lon="4.46481">
        <ele>803</ele>
        <time>2015-12-02T08:24:50Z</time>
      </trkpt>
      <trkpt lat="44.98966" lon="4.46465">
        <ele>803</ele>
        <time>2015-12-02T08:24:54Z</time>
      </trkpt>
      <trkpt lat="44.98961" lon="4.4645">
        <ele>802</ele>
        <time>2015-12-02T08:24:58Z</time>
      </trkpt>
      <trkpt lat="44.98958" lon="4.46438">
        <ele>802</ele>
        <time>2015-12-02T08:25:03Z</time>
      </trkpt>
      <trkpt lat="44.98954" lon="4.4643">
        <ele>802</ele>
        <time>2015-12-02T08:25:08Z</time>
      </trkpt>
      <trkpt lat="44.98949" lon="4.46422">
        <ele>801</ele>
        <time>2015-12-02T08:25:12Z</time>
      </trkpt>
      <trkpt lat="44.98943" lon="4.46411">
        <ele>802</ele>
        <time>2015-12-02T08:25:16Z</time>
      </trkpt>
      <trkpt lat="44.98938" lon="4.46396">
        <ele>802</ele>
        <time>2015-12-02T08:25:21Z</time>
      </trkpt>
      <trkpt lat="44.98935" lon="4.46391">
        <ele>803</ele>
        <time>2015-12-02T08:25:24Z</time>
      </trkpt>
      <trkpt lat="44.98929" lon="4.46379">
        <ele>803</ele>
        <time>2015-12-02T08:25:28Z</time>
      </trkpt>
      <trkpt lat="44.98924" lon="4.46362">
        <ele>804</ele>
        <time>2015-12-02T08:25:33Z</time>
      </trkpt>
      <trkpt lat="44.9892" lon="4.46352">
        <ele>805</ele>
        <time>2015-12-02T08:25:38Z</time>
      </trkpt>
      <trkpt lat="44.98916" lon="4.46347">
        <ele>806</ele>
        <time>2015-12-02T08:25:43Z</time>
      </trkpt>
      <trkpt lat="44.98911" lon="4.4634">
        <ele>809</ele>
        <time>2015-12-02T08:25:48Z</time>
      </trkpt>
      <trkpt lat="44.98906" lon="4.46331">
        <ele>812</ele>
        <time>2015-12-02T08:25:58Z</time>
      </trkpt>
      <trkpt lat="44.98904" lon="4.46324">
        <ele>813</ele>
        <time>2015-12-02T08:26:02Z</time>
      </trkpt>
      <trkpt lat="44.98897" lon="4.46313">
        <ele>816</ele>
        <time>2015-12-02T08:26:06Z</time>
      </trkpt>
      <trkpt lat="44.98893" lon="4.46302">
        <ele>818</ele>
        <time>2015-12-02T08:26:11Z</time>
      </trkpt>
      <trkpt lat="44.98891" lon="4.46293">
        <ele>821</ele>
        <time>2015-12-02T08:26:18Z</time>
      </trkpt>
      <trkpt lat="44.9889" lon="4.46281">
        <ele>823</ele>
        <time>2015-12-02T08:26:26Z</time>
      </trkpt>
      <trkpt lat="44.98885" lon="4.46273">
        <ele>823</ele>
        <time>2015-12-02T08:26:30Z</time>
      </trkpt>
      <trkpt lat="44.98881" lon="4.46266">
        <ele>823</ele>
        <time>2015-12-02T08:26:34Z</time>
      </trkpt>
      <trkpt lat="44.98878" lon="4.46258">
        <ele>823</ele>
        <time>2015-12-02T08:26:38Z</time>
      </trkpt>
      <trkpt lat="44.98874" lon="4.46247">
        <ele>823</ele>
        <time>2015-12-02T08:26:42Z</time>
      </trkpt>
      <trkpt lat="44.98869" lon="4.46232">
        <ele>823</ele>
        <time>2015-12-02T08:26:47Z</time>
      </trkpt>
      <trkpt lat="44.98864" lon="4.46219">
        <ele>823</ele>
        <time>2015-12-02T08:26:51Z</time>
      </trkpt>
      <trkpt lat="44.98859" lon="4.46201">
        <ele>823</ele>
        <time>2015-12-02T08:26:55Z</time>
      </trkpt>
      <trkpt lat="44.98855" lon="4.46183">
        <ele>822</ele>
        <time>2015-12-02T08:27:00Z</time>
      </trkpt>
      <trkpt lat="44.98854" lon="4.46164">
        <ele>822</ele>
        <time>2015-12-02T08:27:04Z</time>
      </trkpt>
      <trkpt lat="44.98854" lon="4.46148">
        <ele>822</ele>
        <time>2015-12-02T08:27:08Z</time>
      </trkpt>
      <trkpt lat="44.98854" lon="4.46128">
        <ele>822</ele>
        <time>2015-12-02T08:27:12Z</time>
      </trkpt>
      <trkpt lat="44.98852" lon="4.46108">
        <ele>822</ele>
        <time>2015-12-02T08:27:16Z</time>
      </trkpt>
      <trkpt lat="44.98854" lon="4.46092">
        <ele>822</ele>
        <time>2015-12-02T08:27:20Z</time>
      </trkpt>
      <trkpt lat="44.98855" lon="4.46066">
        <ele>822</ele>
        <time>2015-12-02T08:27:24Z</time>
      </trkpt>
      <trkpt lat="44.98855" lon="4.46052">
        <ele>821</ele>
        <time>2015-12-02T08:27:27Z</time>
      </trkpt>
      <trkpt lat="44.98859" lon="4.46029">
        <ele>821</ele>
        <time>2015-12-02T08:27:32Z</time>
      </trkpt>
      <trkpt lat="44.98863" lon="4.46008">
        <ele>821</ele>
        <time>2015-12-02T08:27:36Z</time>
      </trkpt>
      <trkpt lat="44.98866" lon="4.45986">
        <ele>821</ele>
        <time>2015-12-02T08:27:40Z</time>
      </trkpt>
      <trkpt lat="44.98875" lon="4.45962">
        <ele>823</ele>
        <time>2015-12-02T08:27:44Z</time>
      </trkpt>
      <trkpt lat="44.98875" lon="4.45937">
        <ele>822</ele>
        <time>2015-12-02T08:27:49Z</time>
      </trkpt>
      <trkpt lat="44.98877" lon="4.45918">
        <ele>822</ele>
        <time>2015-12-02T08:27:53Z</time>
      </trkpt>
      <trkpt lat="44.9888" lon="4.45895">
        <ele>822</ele>
        <time>2015-12-02T08:27:58Z</time>
      </trkpt>
      <trkpt lat="44.98884" lon="4.45862">
        <ele>822</ele>
        <time>2015-12-02T08:28:02Z</time>
      </trkpt>
      <trkpt lat="44.98885" lon="4.45841">
        <ele>822</ele>
        <time>2015-12-02T08:28:06Z</time>
      </trkpt>
      <trkpt lat="44.98883" lon="4.45812">
        <ele>822</ele>
        <time>2015-12-02T08:28:11Z</time>
      </trkpt>
      <trkpt lat="44.98884" lon="4.45794">
        <ele>822</ele>
        <time>2015-12-02T08:28:14Z</time>
      </trkpt>
      <trkpt lat="44.98884" lon="4.4577">
        <ele>822</ele>
        <time>2015-12-02T08:28:18Z</time>
      </trkpt>
      <trkpt lat="44.98883" lon="4.4574">
        <ele>823</ele>
        <time>2015-12-02T08:28:23Z</time>
      </trkpt>
      <trkpt lat="44.98882" lon="4.45716">
        <ele>823</ele>
        <time>2015-12-02T08:28:27Z</time>
      </trkpt>
      <trkpt lat="44.98881" lon="4.45689">
        <ele>824</ele>
        <time>2015-12-02T08:28:31Z</time>
      </trkpt>
      <trkpt lat="44.98877" lon="4.45668">
        <ele>824</ele>
        <time>2015-12-02T08:28:35Z</time>
      </trkpt>
      <trkpt lat="44.98868" lon="4.45645">
        <ele>824</ele>
        <time>2015-12-02T08:28:40Z</time>
      </trkpt>
      <trkpt lat="44.98863" lon="4.45636">
        <ele>825</ele>
        <time>2015-12-02T08:28:43Z</time>
      </trkpt>
      <trkpt lat="44.98858" lon="4.45626">
        <ele>825</ele>
        <time>2015-12-02T08:28:47Z</time>
      </trkpt>
      <trkpt lat="44.98854" lon="4.45615">
        <ele>827</ele>
        <time>2015-12-02T08:28:51Z</time>
      </trkpt>
      <trkpt lat="44.98851" lon="4.45607">
        <ele>829</ele>
        <time>2015-12-02T08:28:54Z</time>
      </trkpt>
      <trkpt lat="44.98841" lon="4.4559">
        <ele>833</ele>
        <time>2015-12-02T08:28:59Z</time>
      </trkpt>
      <trkpt lat="44.98834" lon="4.45579">
        <ele>836</ele>
        <time>2015-12-02T08:29:02Z</time>
      </trkpt>
      <trkpt lat="44.98823" lon="4.45564">
        <ele>838</ele>
        <time>2015-12-02T08:29:07Z</time>
      </trkpt>
      <trkpt lat="44.98814" lon="4.45559">
        <ele>839</ele>
        <time>2015-12-02T08:29:10Z</time>
      </trkpt>
      <trkpt lat="44.98799" lon="4.45549">
        <ele>841</ele>
        <time>2015-12-02T08:29:15Z</time>
      </trkpt>
      <trkpt lat="44.98787" lon="4.45541">
        <ele>841</ele>
        <time>2015-12-02T08:29:18Z</time>
      </trkpt>
      <trkpt lat="44.98781" lon="4.45537">
        <ele>842</ele>
        <time>2015-12-02T08:29:23Z</time>
      </trkpt>
      <trkpt lat="44.98771" lon="4.45525">
        <ele>850</ele>
        <time>2015-12-02T08:29:28Z</time>
      </trkpt>
      <trkpt lat="44.98764" lon="4.4552">
        <ele>851</ele>
        <time>2015-12-02T08:29:32Z</time>
      </trkpt>
      <trkpt lat="44.98757" lon="4.4552">
        <ele>853</ele>
        <time>2015-12-02T08:29:36Z</time>
      </trkpt>
      <trkpt lat="44.98748" lon="4.4552">
        <ele>856</ele>
        <time>2015-12-02T08:29:42Z</time>
      </trkpt>
      <trkpt lat="44.9874" lon="4.45519">
        <ele>859</ele>
        <time>2015-12-02T08:29:48Z</time>
      </trkpt>
      <trkpt lat="44.98732" lon="4.45515">
        <ele>865</ele>
        <time>2015-12-02T08:29:54Z</time>
      </trkpt>
      <trkpt lat="44.9873" lon="4.45513">
        <ele>866</ele>
        <time>2015-12-02T08:30:25Z</time>
      </trkpt>
      <trkpt lat="44.98723" lon="4.45504">
        <ele>869</ele>
        <time>2015-12-02T08:30:29Z</time>
      </trkpt>
      <trkpt lat="44.98714" lon="4.45508">
        <ele>875</ele>
        <time>2015-12-02T08:32:05Z</time>
      </trkpt>
      <trkpt lat="44.98706" lon="4.45508">
        <ele>875</ele>
        <time>2015-12-02T08:32:12Z</time>
      </trkpt>
      <trkpt lat="44.98698" lon="4.45507">
        <ele>876</ele>
        <time>2015-12-02T08:32:21Z</time>
      </trkpt>
      <trkpt lat="44.98691" lon="4.45502">
        <ele>879</ele>
        <time>2015-12-02T08:32:53Z</time>
      </trkpt>
      <trkpt lat="44.98682" lon="4.455">
        <ele>879</ele>
        <time>2015-12-02T08:33:00Z</time>
      </trkpt>
      <trkpt lat="44.98672" lon="4.45499">
        <ele>879</ele>
        <time>2015-12-02T08:33:05Z</time>
      </trkpt>
      <trkpt lat="44.98666" lon="4.45497">
        <ele>879</ele>
        <time>2015-12-02T08:33:09Z</time>
      </trkpt>
      <trkpt lat="44.98658" lon="4.45496">
        <ele>879</ele>
        <time>2015-12-02T08:33:13Z</time>
      </trkpt>
      <trkpt lat="44.9865" lon="4.45493">
        <ele>879</ele>
        <time>2015-12-02T08:33:19Z</time>
      </trkpt>
      <trkpt lat="44.98642" lon="4.45495">
        <ele>879</ele>
        <time>2015-12-02T08:33:23Z</time>
      </trkpt>
      <trkpt lat="44.98634" lon="4.45499">
        <ele>879</ele>
        <time>2015-12-02T08:33:27Z</time>
      </trkpt>
      <trkpt lat="44.98626" lon="4.45501">
        <ele>879</ele>
        <time>2015-12-02T08:33:33Z</time>
      </trkpt>
      <trkpt lat="44.98619" lon="4.45498">
        <ele>880</ele>
        <time>2015-12-02T08:33:38Z</time>
      </trkpt>
      <trkpt lat="44.98613" lon="4.45496">
        <ele>880</ele>
        <time>2015-12-02T08:33:42Z</time>
      </trkpt>
      <trkpt lat="44.98606" lon="4.45493">
        <ele>881</ele>
        <time>2015-12-02T08:33:46Z</time>
      </trkpt>
      <trkpt lat="44.98597" lon="4.45489">
        <ele>881</ele>
        <time>2015-12-02T08:33:50Z</time>
      </trkpt>
      <trkpt lat="44.9859" lon="4.45487">
        <ele>881</ele>
        <time>2015-12-02T08:33:54Z</time>
      </trkpt>
      <trkpt lat="44.98583" lon="4.45479">
        <ele>882</ele>
        <time>2015-12-02T08:33:59Z</time>
      </trkpt>
      <trkpt lat="44.9858" lon="4.45475">
        <ele>882</ele>
        <time>2015-12-02T08:34:02Z</time>
      </trkpt>
      <trkpt lat="44.98575" lon="4.45466">
        <ele>882</ele>
        <time>2015-12-02T08:34:06Z</time>
      </trkpt>
      <trkpt lat="44.98571" lon="4.45461">
        <ele>882</ele>
        <time>2015-12-02T08:34:09Z</time>
      </trkpt>
      <trkpt lat="44.98561" lon="4.45454">
        <ele>882</ele>
        <time>2015-12-02T08:34:14Z</time>
      </trkpt>
      <trkpt lat="44.98555" lon="4.45446">
        <ele>883</ele>
        <time>2015-12-02T08:34:20Z</time>
      </trkpt>
      <trkpt lat="44.98551" lon="4.45436">
        <ele>883</ele>
        <time>2015-12-02T08:34:24Z</time>
      </trkpt>
      <trkpt lat="44.98548" lon="4.45425">
        <ele>883</ele>
        <time>2015-12-02T08:34:29Z</time>
      </trkpt>
      <trkpt lat="44.98546" lon="4.45415">
        <ele>883</ele>
        <time>2015-12-02T08:34:34Z</time>
      </trkpt>
      <trkpt lat="44.98545" lon="4.45399">
        <ele>883</ele>
        <time>2015-12-02T08:34:38Z</time>
      </trkpt>
      <trkpt lat="44.98543" lon="4.45383">
        <ele>883</ele>
        <time>2015-12-02T08:34:42Z</time>
      </trkpt>
      <trkpt lat="44.98539" lon="4.45361">
        <ele>883</ele>
        <time>2015-12-02T08:34:47Z</time>
      </trkpt>
      <trkpt lat="44.98535" lon="4.45342">
        <ele>883</ele>
        <time>2015-12-02T08:34:51Z</time>
      </trkpt>
      <trkpt lat="44.98531" lon="4.45323">
        <ele>883</ele>
        <time>2015-12-02T08:34:55Z</time>
      </trkpt>
      <trkpt lat="44.98528" lon="4.45309">
        <ele>884</ele>
        <time>2015-12-02T08:34:59Z</time>
      </trkpt>
      <trkpt lat="44.98526" lon="4.45293">
        <ele>884</ele>
        <time>2015-12-02T08:35:03Z</time>
      </trkpt>
      <trkpt lat="44.98521" lon="4.45273">
        <ele>885</ele>
        <time>2015-12-02T08:35:08Z</time>
      </trkpt>
      <trkpt lat="44.98521" lon="4.45261">
        <ele>886</ele>
        <time>2015-12-02T08:35:12Z</time>
      </trkpt>
      <trkpt lat="44.98518" lon="4.45238">
        <ele>886</ele>
        <time>2015-12-02T08:35:17Z</time>
      </trkpt>
      <trkpt lat="44.98518" lon="4.45218">
        <ele>886</ele>
        <time>2015-12-02T08:35:21Z</time>
      </trkpt>
      <trkpt lat="44.98517" lon="4.45198">
        <ele>886</ele>
        <time>2015-12-02T08:35:24Z</time>
      </trkpt>
      <trkpt lat="44.98519" lon="4.45161">
        <ele>888</ele>
        <time>2015-12-02T08:35:29Z</time>
      </trkpt>
      <trkpt lat="44.98519" lon="4.45133">
        <ele>890</ele>
        <time>2015-12-02T08:35:33Z</time>
      </trkpt>
      <trkpt lat="44.98522" lon="4.45114">
        <ele>892</ele>
        <time>2015-12-02T08:35:37Z</time>
      </trkpt>
      <trkpt lat="44.98528" lon="4.45083">
        <ele>894</ele>
        <time>2015-12-02T08:35:42Z</time>
      </trkpt>
      <trkpt lat="44.98528" lon="4.45061">
        <ele>895</ele>
        <time>2015-12-02T08:35:46Z</time>
      </trkpt>
      <trkpt lat="44.98521" lon="4.45035">
        <ele>895</ele>
        <time>2015-12-02T08:35:50Z</time>
      </trkpt>
      <trkpt lat="44.98514" lon="4.45004">
        <ele>896</ele>
        <time>2015-12-02T08:35:54Z</time>
      </trkpt>
      <trkpt lat="44.98506" lon="4.44978">
        <ele>896</ele>
        <time>2015-12-02T08:35:58Z</time>
      </trkpt>
      <trkpt lat="44.98498" lon="4.44948">
        <ele>897</ele>
        <time>2015-12-02T08:36:02Z</time>
      </trkpt>
      <trkpt lat="44.98493" lon="4.44921">
        <ele>897</ele>
        <time>2015-12-02T08:36:06Z</time>
      </trkpt>
      <trkpt lat="44.98491" lon="4.44894">
        <ele>897</ele>
        <time>2015-12-02T08:36:10Z</time>
      </trkpt>
      <trkpt lat="44.98486" lon="4.44867">
        <ele>898</ele>
        <time>2015-12-02T08:36:14Z</time>
      </trkpt>
      <trkpt lat="44.9848" lon="4.4484">
        <ele>899</ele>
        <time>2015-12-02T08:36:18Z</time>
      </trkpt>
      <trkpt lat="44.98477" lon="4.4482">
        <ele>899</ele>
        <time>2015-12-02T08:36:21Z</time>
      </trkpt>
      <trkpt lat="44.98466" lon="4.44781">
        <ele>898</ele>
        <time>2015-12-02T08:36:26Z</time>
      </trkpt>
      <trkpt lat="44.98456" lon="4.44754">
        <ele>898</ele>
        <time>2015-12-02T08:36:30Z</time>
      </trkpt>
      <trkpt lat="44.98448" lon="4.44729">
        <ele>898</ele>
        <time>2015-12-02T08:36:34Z</time>
      </trkpt>
      <trkpt lat="44.98439" lon="4.44703">
        <ele>899</ele>
        <time>2015-12-02T08:36:38Z</time>
      </trkpt>
      <trkpt lat="44.98431" lon="4.44674">
        <ele>899</ele>
        <time>2015-12-02T08:36:42Z</time>
      </trkpt>
      <trkpt lat="44.9842" lon="4.44648">
        <ele>898</ele>
        <time>2015-12-02T08:36:46Z</time>
      </trkpt>
      <trkpt lat="44.98408" lon="4.44621">
        <ele>898</ele>
        <time>2015-12-02T08:36:50Z</time>
      </trkpt>
      <trkpt lat="44.98393" lon="4.44601">
        <ele>899</ele>
        <time>2015-12-02T08:36:54Z</time>
      </trkpt>
      <trkpt lat="44.98382" lon="4.44586">
        <ele>899</ele>
        <time>2015-12-02T08:36:58Z</time>
      </trkpt>
      <trkpt lat="44.98373" lon="4.44571">
        <ele>900</ele>
        <time>2015-12-02T08:37:03Z</time>
      </trkpt>
      <trkpt lat="44.98364" lon="4.44565">
        <ele>900</ele>
        <time>2015-12-02T08:37:07Z</time>
      </trkpt>
      <trkpt lat="44.98359" lon="4.44561">
        <ele>900</ele>
        <time>2015-12-02T08:37:10Z</time>
      </trkpt>
      <trkpt lat="44.98346" lon="4.44555">
        <ele>899</ele>
        <time>2015-12-02T08:37:15Z</time>
      </trkpt>
      <trkpt lat="44.98337" lon="4.4455">
        <ele>900</ele>
        <time>2015-12-02T08:37:20Z</time>
      </trkpt>
      <trkpt lat="44.9833" lon="4.44544">
        <ele>901</ele>
        <time>2015-12-02T08:37:24Z</time>
      </trkpt>
      <trkpt lat="44.98321" lon="4.44535">
        <ele>901</ele>
        <time>2015-12-02T08:37:28Z</time>
      </trkpt>
      <trkpt lat="44.98313" lon="4.44527">
        <ele>902</ele>
        <time>2015-12-02T08:37:32Z</time>
      </trkpt>
      <trkpt lat="44.98309" lon="4.44517">
        <ele>902</ele>
        <time>2015-12-02T08:37:35Z</time>
      </trkpt>
      <trkpt lat="44.98302" lon="4.44503">
        <ele>901</ele>
        <time>2015-12-02T08:37:40Z</time>
      </trkpt>
      <trkpt lat="44.98296" lon="4.44494">
        <ele>901</ele>
        <time>2015-12-02T08:37:44Z</time>
      </trkpt>
      <trkpt lat="44.98291" lon="4.44487">
        <ele>901</ele>
        <time>2015-12-02T08:37:47Z</time>
      </trkpt>
      <trkpt lat="44.9828" lon="4.4448">
        <ele>901</ele>
        <time>2015-12-02T08:37:51Z</time>
      </trkpt>
      <trkpt lat="44.98274" lon="4.44479">
        <ele>901</ele>
        <time>2015-12-02T08:37:54Z</time>
      </trkpt>
      <trkpt lat="44.98264" lon="4.44474">
        <ele>901</ele>
        <time>2015-12-02T08:37:59Z</time>
      </trkpt>
      <trkpt lat="44.98256" lon="4.44471">
        <ele>902</ele>
        <time>2015-12-02T08:38:05Z</time>
      </trkpt>
      <trkpt lat="44.98248" lon="4.44469">
        <ele>904</ele>
        <time>2015-12-02T08:38:11Z</time>
      </trkpt>
      <trkpt lat="44.98246" lon="4.44477">
        <ele>904</ele>
        <time>2015-12-02T08:38:19Z</time>
      </trkpt>
      <trkpt lat="44.98238" lon="4.44493">
        <ele>905</ele>
        <time>2015-12-02T08:38:24Z</time>
      </trkpt>
      <trkpt lat="44.98236" lon="4.44502">
        <ele>905</ele>
        <time>2015-12-02T08:38:27Z</time>
      </trkpt>
      <trkpt lat="44.98234" lon="4.44515">
        <ele>905</ele>
        <time>2015-12-02T08:38:31Z</time>
      </trkpt>
      <trkpt lat="44.98233" lon="4.44529">
        <ele>904</ele>
        <time>2015-12-02T08:38:36Z</time>
      </trkpt>
      <trkpt lat="44.98228" lon="4.44538">
        <ele>904</ele>
        <time>2015-12-02T08:38:40Z</time>
      </trkpt>
      <trkpt lat="44.98218" lon="4.44557">
        <ele>904</ele>
        <time>2015-12-02T08:38:44Z</time>
      </trkpt>
      <trkpt lat="44.98204" lon="4.44579">
        <ele>905</ele>
        <time>2015-12-02T08:38:49Z</time>
      </trkpt>
      <trkpt lat="44.98192" lon="4.44592">
        <ele>904</ele>
        <time>2015-12-02T08:38:53Z</time>
      </trkpt>
      <trkpt lat="44.98185" lon="4.44607">
        <ele>904</ele>
        <time>2015-12-02T08:38:57Z</time>
      </trkpt>
      <trkpt lat="44.98178" lon="4.44618">
        <ele>904</ele>
        <time>2015-12-02T08:39:01Z</time>
      </trkpt>
      <trkpt lat="44.98165" lon="4.4463">
        <ele>903</ele>
        <time>2015-12-02T08:39:05Z</time>
      </trkpt>
      <trkpt lat="44.98158" lon="4.44638">
        <ele>903</ele>
        <time>2015-12-02T08:39:09Z</time>
      </trkpt>
      <trkpt lat="44.98162" lon="4.44648">
        <ele>903</ele>
        <time>2015-12-02T08:39:15Z</time>
      </trkpt>
      <trkpt lat="44.98164" lon="4.4466">
        <ele>904</ele>
        <time>2015-12-02T08:39:19Z</time>
      </trkpt>
      <trkpt lat="44.98164" lon="4.44672">
        <ele>903</ele>
        <time>2015-12-02T08:39:24Z</time>
      </trkpt>
      <trkpt lat="44.98167" lon="4.44685">
        <ele>903</ele>
        <time>2015-12-02T08:39:28Z</time>
      </trkpt>
      <trkpt lat="44.9817" lon="4.44696">
        <ele>903</ele>
        <time>2015-12-02T08:39:32Z</time>
      </trkpt>
      <trkpt lat="44.98172" lon="4.44705">
        <ele>903</ele>
        <time>2015-12-02T08:39:36Z</time>
      </trkpt>
      <trkpt lat="44.9817" lon="4.44717">
        <ele>903</ele>
        <time>2015-12-02T08:39:41Z</time>
      </trkpt>
      <trkpt lat="44.98176" lon="4.44731">
        <ele>903</ele>
        <time>2015-12-02T08:39:45Z</time>
      </trkpt>
      <trkpt lat="44.98173" lon="4.44742">
        <ele>902</ele>
        <time>2015-12-02T08:39:50Z</time>
      </trkpt>
      <trkpt lat="44.98177" lon="4.44751">
        <ele>902</ele>
        <time>2015-12-02T08:39:56Z</time>
      </trkpt>
      <trkpt lat="44.98176" lon="4.44762">
        <ele>901</ele>
        <time>2015-12-02T08:40:00Z</time>
      </trkpt>
      <trkpt lat="44.98173" lon="4.44772">
        <ele>900</ele>
        <time>2015-12-02T08:40:06Z</time>
      </trkpt>
      <trkpt lat="44.98173" lon="4.44785">
        <ele>900</ele>
        <time>2015-12-02T08:40:11Z</time>
      </trkpt>
      <trkpt lat="44.98177" lon="4.44801">
        <ele>900</ele>
        <time>2015-12-02T08:40:15Z</time>
      </trkpt>
      <trkpt lat="44.98179" lon="4.44814">
        <ele>900</ele>
        <time>2015-12-02T08:40:20Z</time>
      </trkpt>
      <trkpt lat="44.98179" lon="4.44831">
        <ele>900</ele>
        <time>2015-12-02T08:40:24Z</time>
      </trkpt>
      <trkpt lat="44.98178" lon="4.4485">
        <ele>899</ele>
        <time>2015-12-02T08:40:29Z</time>
      </trkpt>
      <trkpt lat="44.98176" lon="4.44872">
        <ele>898</ele>
        <time>2015-12-02T08:40:34Z</time>
      </trkpt>
      <trkpt lat="44.98175" lon="4.44887">
        <ele>898</ele>
        <time>2015-12-02T08:40:37Z</time>
      </trkpt>
      <trkpt lat="44.98174" lon="4.44905">
        <ele>897</ele>
        <time>2015-12-02T08:40:41Z</time>
      </trkpt>
      <trkpt lat="44.98169" lon="4.44927">
        <ele>895</ele>
        <time>2015-12-02T08:40:45Z</time>
      </trkpt>
      <trkpt lat="44.98167" lon="4.4494">
        <ele>895</ele>
        <time>2015-12-02T08:40:48Z</time>
      </trkpt>
      <trkpt lat="44.9816" lon="4.44966">
        <ele>892</ele>
        <time>2015-12-02T08:40:53Z</time>
      </trkpt>
      <trkpt lat="44.98157" lon="4.44977">
        <ele>891</ele>
        <time>2015-12-02T08:40:57Z</time>
      </trkpt>
      <trkpt lat="44.98157" lon="4.44987">
        <ele>890</ele>
        <time>2015-12-02T08:41:01Z</time>
      </trkpt>
      <trkpt lat="44.98156" lon="4.45002">
        <ele>890</ele>
        <time>2015-12-02T08:41:06Z</time>
      </trkpt>
      <trkpt lat="44.98151" lon="4.45015">
        <ele>888</ele>
        <time>2015-12-02T08:41:10Z</time>
      </trkpt>
      <trkpt lat="44.98147" lon="4.45029">
        <ele>886</ele>
        <time>2015-12-02T08:41:14Z</time>
      </trkpt>
      <trkpt lat="44.98145" lon="4.45044">
        <ele>884</ele>
        <time>2015-12-02T08:41:18Z</time>
      </trkpt>
      <trkpt lat="44.98144" lon="4.45062">
        <ele>882</ele>
        <time>2015-12-02T08:41:23Z</time>
      </trkpt>
      <trkpt lat="44.9814" lon="4.45073">
        <ele>881</ele>
        <time>2015-12-02T08:41:26Z</time>
      </trkpt>
      <trkpt lat="44.98138" lon="4.45081">
        <ele>880</ele>
        <time>2015-12-02T08:41:30Z</time>
      </trkpt>
      <trkpt lat="44.98133" lon="4.45092">
        <ele>878</ele>
        <time>2015-12-02T08:41:34Z</time>
      </trkpt>
      <trkpt lat="44.98127" lon="4.45103">
        <ele>877</ele>
        <time>2015-12-02T08:41:38Z</time>
      </trkpt>
      <trkpt lat="44.98118" lon="4.45115">
        <ele>876</ele>
        <time>2015-12-02T08:41:42Z</time>
      </trkpt>
      <trkpt lat="44.98113" lon="4.45126">
        <ele>875</ele>
        <time>2015-12-02T08:41:46Z</time>
      </trkpt>
      <trkpt lat="44.98096" lon="4.45127">
        <ele>874</ele>
        <time>2015-12-02T08:41:51Z</time>
      </trkpt>
      <trkpt lat="44.98073" lon="4.45124">
        <ele>872</ele>
        <time>2015-12-02T08:41:56Z</time>
      </trkpt>
      <trkpt lat="44.98063" lon="4.45115">
        <ele>871</ele>
        <time>2015-12-02T08:42:00Z</time>
      </trkpt>
      <trkpt lat="44.98055" lon="4.45104">
        <ele>870</ele>
        <time>2015-12-02T08:42:05Z</time>
      </trkpt>
      <trkpt lat="44.98048" lon="4.45094">
        <ele>869</ele>
        <time>2015-12-02T08:42:09Z</time>
      </trkpt>
      <trkpt lat="44.98038" lon="4.45082">
        <ele>866</ele>
        <time>2015-12-02T08:42:14Z</time>
      </trkpt>
      <trkpt lat="44.98036" lon="4.45092">
        <ele>862</ele>
        <time>2015-12-02T08:42:20Z</time>
      </trkpt>
      <trkpt lat="44.98036" lon="4.45108">
        <ele>860</ele>
        <time>2015-12-02T08:42:24Z</time>
      </trkpt>
      <trkpt lat="44.98037" lon="4.4513">
        <ele>859</ele>
        <time>2015-12-02T08:42:28Z</time>
      </trkpt>
      <trkpt lat="44.98038" lon="4.4515">
        <ele>858</ele>
        <time>2015-12-02T08:42:32Z</time>
      </trkpt>
      <trkpt lat="44.98038" lon="4.45166">
        <ele>855</ele>
        <time>2015-12-02T08:42:36Z</time>
      </trkpt>
      <trkpt lat="44.98038" lon="4.45196">
        <ele>852</ele>
        <time>2015-12-02T08:42:40Z</time>
      </trkpt>
      <trkpt lat="44.98034" lon="4.45224">
        <ele>848</ele>
        <time>2015-12-02T08:42:44Z</time>
      </trkpt>
      <trkpt lat="44.98035" lon="4.45245">
        <ele>846</ele>
        <time>2015-12-02T08:42:48Z</time>
      </trkpt>
      <trkpt lat="44.98034" lon="4.45255">
        <ele>845</ele>
        <time>2015-12-02T08:42:51Z</time>
      </trkpt>
      <trkpt lat="44.98039" lon="4.45269">
        <ele>844</ele>
        <time>2015-12-02T08:42:54Z</time>
      </trkpt>
      <trkpt lat="44.98047" lon="4.45286">
        <ele>840</ele>
        <time>2015-12-02T08:42:59Z</time>
      </trkpt>
      <trkpt lat="44.98049" lon="4.45292">
        <ele>839</ele>
        <time>2015-12-02T08:43:02Z</time>
      </trkpt>
      <trkpt lat="44.98047" lon="4.45313">
        <ele>836</ele>
        <time>2015-12-02T08:43:06Z</time>
      </trkpt>
      <trkpt lat="44.98048" lon="4.45345">
        <ele>830</ele>
        <time>2015-12-02T08:43:11Z</time>
      </trkpt>
      <trkpt lat="44.98053" lon="4.45363">
        <ele>828</ele>
        <time>2015-12-02T08:43:14Z</time>
      </trkpt>
      <trkpt lat="44.98056" lon="4.45408">
        <ele>823</ele>
        <time>2015-12-02T08:43:18Z</time>
      </trkpt>
      <trkpt lat="44.98054" lon="4.45432">
        <ele>819</ele>
        <time>2015-12-02T08:43:21Z</time>
      </trkpt>
      <trkpt lat="44.98057" lon="4.4547">
        <ele>810</ele>
        <time>2015-12-02T08:43:26Z</time>
      </trkpt>
      <trkpt lat="44.98063" lon="4.45484">
        <ele>807</ele>
        <time>2015-12-02T08:43:30Z</time>
      </trkpt>
      <trkpt lat="44.98066" lon="4.45493">
        <ele>803</ele>
        <time>2015-12-02T08:43:34Z</time>
      </trkpt>
      <trkpt lat="44.98072" lon="4.45491">
        <ele>800</ele>
        <time>2015-12-02T08:43:38Z</time>
      </trkpt>
      <trkpt lat="44.98077" lon="4.45479">
        <ele>797</ele>
        <time>2015-12-02T08:43:42Z</time>
      </trkpt>
      <trkpt lat="44.98077" lon="4.45466">
        <ele>795</ele>
        <time>2015-12-02T08:43:46Z</time>
      </trkpt>
      <trkpt lat="44.98076" lon="4.45451">
        <ele>791</ele>
        <time>2015-12-02T08:43:51Z</time>
      </trkpt>
      <trkpt lat="44.98078" lon="4.45437">
        <ele>788</ele>
        <time>2015-12-02T08:43:55Z</time>
      </trkpt>
      <trkpt lat="44.98079" lon="4.45425">
        <ele>785</ele>
        <time>2015-12-02T08:43:58Z</time>
      </trkpt>
      <trkpt lat="44.98083" lon="4.45408">
        <ele>783</ele>
        <time>2015-12-02T08:44:02Z</time>
      </trkpt>
      <trkpt lat="44.98085" lon="4.45389">
        <ele>780</ele>
        <time>2015-12-02T08:44:06Z</time>
      </trkpt>
      <trkpt lat="44.98087" lon="4.45377">
        <ele>778</ele>
        <time>2015-12-02T08:44:09Z</time>
      </trkpt>
      <trkpt lat="44.98089" lon="4.45357">
        <ele>775</ele>
        <time>2015-12-02T08:44:14Z</time>
      </trkpt>
      <trkpt lat="44.98097" lon="4.4535">
        <ele>772</ele>
        <time>2015-12-02T08:44:18Z</time>
      </trkpt>
      <trkpt lat="44.98111" lon="4.45351">
        <ele>769</ele>
        <time>2015-12-02T08:44:23Z</time>
      </trkpt>
      <trkpt lat="44.98121" lon="4.45358">
        <ele>766</ele>
        <time>2015-12-02T08:44:27Z</time>
      </trkpt>
      <trkpt lat="44.98132" lon="4.45382">
        <ele>763</ele>
        <time>2015-12-02T08:44:32Z</time>
      </trkpt>
      <trkpt lat="44.98139" lon="4.45413">
        <ele>761</ele>
        <time>2015-12-02T08:44:35Z</time>
      </trkpt>
      <trkpt lat="44.98147" lon="4.45459">
        <ele>758</ele>
        <time>2015-12-02T08:44:39Z</time>
      </trkpt>
      <trkpt lat="44.9815" lon="4.45511">
        <ele>756</ele>
        <time>2015-12-02T08:44:44Z</time>
      </trkpt>
      <trkpt lat="44.98144" lon="4.45543">
        <ele>754</ele>
        <time>2015-12-02T08:44:48Z</time>
      </trkpt>
      <trkpt lat="44.9813" lon="4.45571">
        <ele>752</ele>
        <time>2015-12-02T08:44:52Z</time>
      </trkpt>
      <trkpt lat="44.98121" lon="4.45598">
        <ele>748</ele>
        <time>2015-12-02T08:44:56Z</time>
      </trkpt>
      <trkpt lat="44.98117" lon="4.45627">
        <ele>744</ele>
        <time>2015-12-02T08:45:00Z</time>
      </trkpt>
      <trkpt lat="44.98109" lon="4.45649">
        <ele>740</ele>
        <time>2015-12-02T08:45:05Z</time>
      </trkpt>
      <trkpt lat="44.98103" lon="4.45657">
        <ele>737</ele>
        <time>2015-12-02T08:45:08Z</time>
      </trkpt>
      <trkpt lat="44.98104" lon="4.45674">
        <ele>733</ele>
        <time>2015-12-02T08:45:12Z</time>
      </trkpt>
      <trkpt lat="44.98116" lon="4.45701">
        <ele>730</ele>
        <time>2015-12-02T08:45:17Z</time>
      </trkpt>
      <trkpt lat="44.98117" lon="4.45751">
        <ele>725</ele>
        <time>2015-12-02T08:45:21Z</time>
      </trkpt>
      <trkpt lat="44.98121" lon="4.45796">
        <ele>722</ele>
        <time>2015-12-02T08:45:25Z</time>
      </trkpt>
      <trkpt lat="44.98126" lon="4.45847">
        <ele>719</ele>
        <time>2015-12-02T08:45:30Z</time>
      </trkpt>
      <trkpt lat="44.98129" lon="4.45884">
        <ele>715</ele>
        <time>2015-12-02T08:45:34Z</time>
      </trkpt>
      <trkpt lat="44.98135" lon="4.45936">
        <ele>710</ele>
        <time>2015-12-02T08:45:39Z</time>
      </trkpt>
      <trkpt lat="44.98138" lon="4.45966">
        <ele>707</ele>
        <time>2015-12-02T08:45:42Z</time>
      </trkpt>
      <trkpt lat="44.98146" lon="4.46008">
        <ele>703</ele>
        <time>2015-12-02T08:45:46Z</time>
      </trkpt>
      <trkpt lat="44.98157" lon="4.46042">
        <ele>699</ele>
        <time>2015-12-02T08:45:51Z</time>
      </trkpt>
      <trkpt lat="44.98167" lon="4.46062">
        <ele>696</ele>
        <time>2015-12-02T08:45:54Z</time>
      </trkpt>
      <trkpt lat="44.98176" lon="4.46076">
        <ele>693</ele>
        <time>2015-12-02T08:45:57Z</time>
      </trkpt>
      <trkpt lat="44.98182" lon="4.46112">
        <ele>691</ele>
        <time>2015-12-02T08:46:02Z</time>
      </trkpt>
      <trkpt lat="44.98181" lon="4.46138">
        <ele>689</ele>
        <time>2015-12-02T08:46:06Z</time>
      </trkpt>
      <trkpt lat="44.98178" lon="4.4616">
        <ele>686</ele>
        <time>2015-12-02T08:46:10Z</time>
      </trkpt>
      <trkpt lat="44.98169" lon="4.46185">
        <ele>683</ele>
        <time>2015-12-02T08:46:14Z</time>
      </trkpt>
      <trkpt lat="44.9817" lon="4.46205">
        <ele>681</ele>
        <time>2015-12-02T08:46:18Z</time>
      </trkpt>
      <trkpt lat="44.98174" lon="4.46219">
        <ele>677</ele>
        <time>2015-12-02T08:46:23Z</time>
      </trkpt>
      <trkpt lat="44.98179" lon="4.46231">
        <ele>674</ele>
        <time>2015-12-02T08:46:28Z</time>
      </trkpt>
      <trkpt lat="44.98183" lon="4.4624">
        <ele>671</ele>
        <time>2015-12-02T08:46:33Z</time>
      </trkpt>
      <trkpt lat="44.98173" lon="4.46252">
        <ele>668</ele>
        <time>2015-12-02T08:46:38Z</time>
      </trkpt>
      <trkpt lat="44.98165" lon="4.46248">
        <ele>663</ele>
        <time>2015-12-02T08:46:47Z</time>
      </trkpt>
      <trkpt lat="44.98158" lon="4.46254">
        <ele>659</ele>
        <time>2015-12-02T08:46:54Z</time>
      </trkpt>
      <trkpt lat="44.98162" lon="4.46266">
        <ele>657</ele>
        <time>2015-12-02T08:46:59Z</time>
      </trkpt>
      <trkpt lat="44.98164" lon="4.46278">
        <ele>658</ele>
        <time>2015-12-02T08:47:05Z</time>
      </trkpt>
      <trkpt lat="44.98161" lon="4.46289">
        <ele>658</ele>
        <time>2015-12-02T08:47:11Z</time>
      </trkpt>
      <trkpt lat="44.98158" lon="4.46299">
        <ele>658</ele>
        <time>2015-12-02T08:47:15Z</time>
      </trkpt>
      <trkpt lat="44.98155" lon="4.4631">
        <ele>658</ele>
        <time>2015-12-02T08:47:20Z</time>
      </trkpt>
      <trkpt lat="44.98149" lon="4.46317">
        <ele>657</ele>
        <time>2015-12-02T08:47:25Z</time>
      </trkpt>
      <trkpt lat="44.98143" lon="4.46327">
        <ele>655</ele>
        <time>2015-12-02T08:47:30Z</time>
      </trkpt>
      <trkpt lat="44.98139" lon="4.46339">
        <ele>656</ele>
        <time>2015-12-02T08:47:33Z</time>
      </trkpt>
      <trkpt lat="44.98135" lon="4.46343">
        <ele>655</ele>
        <time>2015-12-02T08:47:36Z</time>
      </trkpt>
      <trkpt lat="44.98134" lon="4.46356">
        <ele>658</ele>
        <time>2015-12-02T08:47:40Z</time>
      </trkpt>
      <trkpt lat="44.98129" lon="4.46366">
        <ele>660</ele>
        <time>2015-12-02T08:47:44Z</time>
      </trkpt>
      <trkpt lat="44.9812" lon="4.46368">
        <ele>660</ele>
        <time>2015-12-02T08:47:48Z</time>
      </trkpt>
      <trkpt lat="44.98113" lon="4.4637">
        <ele>660</ele>
        <time>2015-12-02T08:47:52Z</time>
      </trkpt>
      <trkpt lat="44.98106" lon="4.4637">
        <ele>660</ele>
        <time>2015-12-02T08:47:55Z</time>
      </trkpt>
      <trkpt lat="44.98093" lon="4.46375">
        <ele>659</ele>
        <time>2015-12-02T08:48:00Z</time>
      </trkpt>
      <trkpt lat="44.98084" lon="4.46386">
        <ele>658</ele>
        <time>2015-12-02T08:48:05Z</time>
      </trkpt>
      <trkpt lat="44.98079" lon="4.46395">
        <ele>657</ele>
        <time>2015-12-02T08:48:08Z</time>
      </trkpt>
      <trkpt lat="44.98074" lon="4.46407">
        <ele>657</ele>
        <time>2015-12-02T08:48:12Z</time>
      </trkpt>
      <trkpt lat="44.9807" lon="4.46422">
        <ele>655</ele>
        <time>2015-12-02T08:48:16Z</time>
      </trkpt>
      <trkpt lat="44.98064" lon="4.46438">
        <ele>655</ele>
        <time>2015-12-02T08:48:20Z</time>
      </trkpt>
      <trkpt lat="44.9806" lon="4.46448">
        <ele>654</ele>
        <time>2015-12-02T08:48:23Z</time>
      </trkpt>
      <trkpt lat="44.98055" lon="4.46467">
        <ele>656</ele>
        <time>2015-12-02T08:48:28Z</time>
      </trkpt>
      <trkpt lat="44.9805" lon="4.46483">
        <ele>656</ele>
        <time>2015-12-02T08:48:32Z</time>
      </trkpt>
      <trkpt lat="44.98043" lon="4.4649">
        <ele>655</ele>
        <time>2015-12-02T08:48:36Z</time>
      </trkpt>
      <trkpt lat="44.98033" lon="4.46501">
        <ele>655</ele>
        <time>2015-12-02T08:48:41Z</time>
      </trkpt>
      <trkpt lat="44.98025" lon="4.46509">
        <ele>654</ele>
        <time>2015-12-02T08:48:45Z</time>
      </trkpt>
      <trkpt lat="44.98017" lon="4.46518">
        <ele>654</ele>
        <time>2015-12-02T08:48:48Z</time>
      </trkpt>
      <trkpt lat="44.98008" lon="4.46536">
        <ele>655</ele>
        <time>2015-12-02T08:48:52Z</time>
      </trkpt>
      <trkpt lat="44.98005" lon="4.46552">
        <ele>655</ele>
        <time>2015-12-02T08:48:55Z</time>
      </trkpt>
      <trkpt lat="44.98009" lon="4.46567">
        <ele>655</ele>
        <time>2015-12-02T08:49:00Z</time>
      </trkpt>
      <trkpt lat="44.98014" lon="4.46578">
        <ele>655</ele>
        <time>2015-12-02T08:49:04Z</time>
      </trkpt>
      <trkpt lat="44.98016" lon="4.46589">
        <ele>655</ele>
        <time>2015-12-02T08:49:08Z</time>
      </trkpt>
      <trkpt lat="44.9802" lon="4.46595">
        <ele>658</ele>
        <time>2015-12-02T08:49:13Z</time>
      </trkpt>
      <trkpt lat="44.98029" lon="4.46602">
        <ele>659</ele>
        <time>2015-12-02T08:49:17Z</time>
      </trkpt>
      <trkpt lat="44.98039" lon="4.46609">
        <ele>659</ele>
        <time>2015-12-02T08:49:21Z</time>
      </trkpt>
      <trkpt lat="44.9805" lon="4.46616">
        <ele>659</ele>
        <time>2015-12-02T08:49:25Z</time>
      </trkpt>
      <trkpt lat="44.98062" lon="4.4662">
        <ele>658</ele>
        <time>2015-12-02T08:49:29Z</time>
      </trkpt>
      <trkpt lat="44.98082" lon="4.46631">
        <ele>660</ele>
        <time>2015-12-02T08:49:34Z</time>
      </trkpt>
      <trkpt lat="44.98102" lon="4.46638">
        <ele>668</ele>
        <time>2015-12-02T08:49:38Z</time>
      </trkpt>
      <trkpt lat="44.98112" lon="4.46648">
        <ele>668</ele>
        <time>2015-12-02T08:49:41Z</time>
      </trkpt>
      <trkpt lat="44.98119" lon="4.46664">
        <ele>669</ele>
        <time>2015-12-02T08:49:45Z</time>
      </trkpt>
      <trkpt lat="44.98119" lon="4.4668">
        <ele>672</ele>
        <time>2015-12-02T08:49:49Z</time>
      </trkpt>
      <trkpt lat="44.9812" lon="4.46704">
        <ele>672</ele>
        <time>2015-12-02T08:49:54Z</time>
      </trkpt>
      <trkpt lat="44.98118" lon="4.46716">
        <ele>677</ele>
        <time>2015-12-02T08:49:57Z</time>
      </trkpt>
      <trkpt lat="44.98117" lon="4.46733">
        <ele>678</ele>
        <time>2015-12-02T08:50:00Z</time>
      </trkpt>
      <trkpt lat="44.98123" lon="4.46755">
        <ele>679</ele>
        <time>2015-12-02T08:50:05Z</time>
      </trkpt>
      <trkpt lat="44.98125" lon="4.46772">
        <ele>680</ele>
        <time>2015-12-02T08:50:09Z</time>
      </trkpt>
      <trkpt lat="44.9813" lon="4.46787">
        <ele>682</ele>
        <time>2015-12-02T08:50:13Z</time>
      </trkpt>
      <trkpt lat="44.98134" lon="4.46807">
        <ele>683</ele>
        <time>2015-12-02T08:50:18Z</time>
      </trkpt>
      <trkpt lat="44.98135" lon="4.46823">
        <ele>684</ele>
        <time>2015-12-02T08:50:22Z</time>
      </trkpt>
      <trkpt lat="44.98134" lon="4.46843">
        <ele>684</ele>
        <time>2015-12-02T08:50:26Z</time>
      </trkpt>
      <trkpt lat="44.98128" lon="4.46862">
        <ele>686</ele>
        <time>2015-12-02T08:50:30Z</time>
      </trkpt>
      <trkpt lat="44.9812" lon="4.46876">
        <ele>686</ele>
        <time>2015-12-02T08:50:34Z</time>
      </trkpt>
      <trkpt lat="44.98109" lon="4.46902">
        <ele>691</ele>
        <time>2015-12-02T08:50:38Z</time>
      </trkpt>
      <trkpt lat="44.981" lon="4.4691">
        <ele>693</ele>
        <time>2015-12-02T08:50:42Z</time>
      </trkpt>
      <trkpt lat="44.98094" lon="4.46916">
        <ele>695</ele>
        <time>2015-12-02T08:50:46Z</time>
      </trkpt>
      <trkpt lat="44.98084" lon="4.46923">
        <ele>695</ele>
        <time>2015-12-02T08:50:51Z</time>
      </trkpt>
      <trkpt lat="44.98076" lon="4.46927">
        <ele>696</ele>
        <time>2015-12-02T08:50:54Z</time>
      </trkpt>
      <trkpt lat="44.98064" lon="4.46933">
        <ele>698</ele>
        <time>2015-12-02T08:50:58Z</time>
      </trkpt>
      <trkpt lat="44.98051" lon="4.46939">
        <ele>699</ele>
        <time>2015-12-02T08:51:03Z</time>
      </trkpt>
      <trkpt lat="44.98036" lon="4.46945">
        <ele>699</ele>
        <time>2015-12-02T08:51:07Z</time>
      </trkpt>
      <trkpt lat="44.98026" lon="4.46945">
        <ele>700</ele>
        <time>2015-12-02T08:51:10Z</time>
      </trkpt>
      <trkpt lat="44.98012" lon="4.46947">
        <ele>701</ele>
        <time>2015-12-02T08:51:14Z</time>
      </trkpt>
      <trkpt lat="44.98005" lon="4.46949">
        <ele>701</ele>
        <time>2015-12-02T08:51:18Z</time>
      </trkpt>
      <trkpt lat="44.97992" lon="4.46962">
        <ele>702</ele>
        <time>2015-12-02T08:51:22Z</time>
      </trkpt>
      <trkpt lat="44.97984" lon="4.46974">
        <ele>703</ele>
        <time>2015-12-02T08:51:26Z</time>
      </trkpt>
      <trkpt lat="44.9798" lon="4.4698">
        <ele>704</ele>
        <time>2015-12-02T08:51:30Z</time>
      </trkpt>
      <trkpt lat="44.97974" lon="4.4699">
        <ele>705</ele>
        <time>2015-12-02T08:51:34Z</time>
      </trkpt>
      <trkpt lat="44.97968" lon="4.47001">
        <ele>706</ele>
        <time>2015-12-02T08:51:38Z</time>
      </trkpt>
      <trkpt lat="44.97966" lon="4.47011">
        <ele>708</ele>
        <time>2015-12-02T08:51:42Z</time>
      </trkpt>
      <trkpt lat="44.97968" lon="4.47023">
        <ele>709</ele>
        <time>2015-12-02T08:51:48Z</time>
      </trkpt>
      <trkpt lat="44.97973" lon="4.47032">
        <ele>712</ele>
        <time>2015-12-02T08:51:55Z</time>
      </trkpt>
      <trkpt lat="44.97981" lon="4.47036">
        <ele>714</ele>
        <time>2015-12-02T08:52:02Z</time>
      </trkpt>
      <trkpt lat="44.97986" lon="4.47043">
        <ele>716</ele>
        <time>2015-12-02T08:52:07Z</time>
      </trkpt>
      <trkpt lat="44.97992" lon="4.47051">
        <ele>718</ele>
        <time>2015-12-02T08:52:13Z</time>
      </trkpt>
      <trkpt lat="44.98001" lon="4.47061">
        <ele>719</ele>
        <time>2015-12-02T08:52:18Z</time>
      </trkpt>
      <trkpt lat="44.98009" lon="4.4707">
        <ele>720</ele>
        <time>2015-12-02T08:52:22Z</time>
      </trkpt>
      <trkpt lat="44.98014" lon="4.47079">
        <ele>720</ele>
        <time>2015-12-02T08:52:28Z</time>
      </trkpt>
      <trkpt lat="44.98022" lon="4.4709">
        <ele>721</ele>
        <time>2015-12-02T08:52:33Z</time>
      </trkpt>
      <trkpt lat="44.98028" lon="4.47098">
        <ele>722</ele>
        <time>2015-12-02T08:52:38Z</time>
      </trkpt>
      <trkpt lat="44.98032" lon="4.47106">
        <ele>723</ele>
        <time>2015-12-02T08:52:42Z</time>
      </trkpt>
      <trkpt lat="44.98036" lon="4.47113">
        <ele>724</ele>
        <time>2015-12-02T08:52:46Z</time>
      </trkpt>
      <trkpt lat="44.98044" lon="4.47121">
        <ele>726</ele>
        <time>2015-12-02T08:52:50Z</time>
      </trkpt>
      <trkpt lat="44.9805" lon="4.47131">
        <ele>726</ele>
        <time>2015-12-02T08:52:54Z</time>
      </trkpt>
      <trkpt lat="44.98052" lon="4.47144">
        <ele>726</ele>
        <time>2015-12-02T08:52:59Z</time>
      </trkpt>
      <trkpt lat="44.98051" lon="4.47156">
        <ele>725</ele>
        <time>2015-12-02T08:53:03Z</time>
      </trkpt>
      <trkpt lat="44.9805" lon="4.47166">
        <ele>725</ele>
        <time>2015-12-02T08:53:06Z</time>
      </trkpt>
      <trkpt lat="44.98046" lon="4.47181">
        <ele>725</ele>
        <time>2015-12-02T08:53:11Z</time>
      </trkpt>
      <trkpt lat="44.98044" lon="4.47194">
        <ele>725</ele>
        <time>2015-12-02T08:53:15Z</time>
      </trkpt>
      <trkpt lat="44.98042" lon="4.47202">
        <ele>725</ele>
        <time>2015-12-02T08:53:18Z</time>
      </trkpt>
      <trkpt lat="44.98038" lon="4.47212">
        <ele>726</ele>
        <time>2015-12-02T08:53:23Z</time>
      </trkpt>
      <trkpt lat="44.98037" lon="4.47225">
        <ele>726</ele>
        <time>2015-12-02T08:53:27Z</time>
      </trkpt>
      <trkpt lat="44.98034" lon="4.47236">
        <ele>726</ele>
        <time>2015-12-02T08:53:32Z</time>
      </trkpt>
      <trkpt lat="44.98032" lon="4.47244">
        <ele>727</ele>
        <time>2015-12-02T08:53:36Z</time>
      </trkpt>
      <trkpt lat="44.98038" lon="4.47252">
        <ele>728</ele>
        <time>2015-12-02T08:53:43Z</time>
      </trkpt>
      <trkpt lat="44.98046" lon="4.47258">
        <ele>728</ele>
        <time>2015-12-02T08:53:48Z</time>
      </trkpt>
      <trkpt lat="44.98053" lon="4.47263">
        <ele>728</ele>
        <time>2015-12-02T08:53:54Z</time>
      </trkpt>
      <trkpt lat="44.98061" lon="4.47266">
        <ele>728</ele>
        <time>2015-12-02T08:53:59Z</time>
      </trkpt>
      <trkpt lat="44.98066" lon="4.47269">
        <ele>728</ele>
        <time>2015-12-02T08:54:02Z</time>
      </trkpt>
      <trkpt lat="44.98073" lon="4.47274">
        <ele>727</ele>
        <time>2015-12-02T08:54:06Z</time>
      </trkpt>
      <trkpt lat="44.9808" lon="4.47273">
        <ele>727</ele>
        <time>2015-12-02T08:54:11Z</time>
      </trkpt>
      <trkpt lat="44.98086" lon="4.47276">
        <ele>727</ele>
        <time>2015-12-02T08:54:14Z</time>
      </trkpt>
      <trkpt lat="44.98093" lon="4.47282">
        <ele>726</ele>
        <time>2015-12-02T08:54:18Z</time>
      </trkpt>
      <trkpt lat="44.98103" lon="4.47284">
        <ele>725</ele>
        <time>2015-12-02T08:54:23Z</time>
      </trkpt>
      <trkpt lat="44.98116" lon="4.47289">
        <ele>725</ele>
        <time>2015-12-02T08:54:28Z</time>
      </trkpt>
      <trkpt lat="44.98126" lon="4.47294">
        <ele>724</ele>
        <time>2015-12-02T08:54:32Z</time>
      </trkpt>
      <trkpt lat="44.98133" lon="4.47299">
        <ele>724</ele>
        <time>2015-12-02T08:54:35Z</time>
      </trkpt>
      <trkpt lat="44.98145" lon="4.47309">
        <ele>723</ele>
        <time>2015-12-02T08:54:39Z</time>
      </trkpt>
      <trkpt lat="44.98156" lon="4.4732">
        <ele>724</ele>
        <time>2015-12-02T08:54:44Z</time>
      </trkpt>
      <trkpt lat="44.98161" lon="4.47326">
        <ele>723</ele>
        <time>2015-12-02T08:54:47Z</time>
      </trkpt>
      <trkpt lat="44.98177" lon="4.47338">
        <ele>724</ele>
        <time>2015-12-02T08:54:52Z</time>
      </trkpt>
      <trkpt lat="44.98183" lon="4.47346">
        <ele>726</ele>
        <time>2015-12-02T08:54:57Z</time>
      </trkpt>
      <trkpt lat="44.98189" lon="4.47354">
        <ele>728</ele>
        <time>2015-12-02T08:55:03Z</time>
      </trkpt>
      <trkpt lat="44.98196" lon="4.47359">
        <ele>730</ele>
        <time>2015-12-02T08:55:08Z</time>
      </trkpt>
      <trkpt lat="44.98201" lon="4.47367">
        <ele>731</ele>
        <time>2015-12-02T08:55:15Z</time>
      </trkpt>
      <trkpt lat="44.98208" lon="4.47374">
        <ele>732</ele>
        <time>2015-12-02T08:55:22Z</time>
      </trkpt>
      <trkpt lat="44.98211" lon="4.47383">
        <ele>731</ele>
        <time>2015-12-02T08:55:26Z</time>
      </trkpt>
      <trkpt lat="44.98212" lon="4.47395">
        <ele>729</ele>
        <time>2015-12-02T08:55:32Z</time>
      </trkpt>
      <trkpt lat="44.98217" lon="4.47408">
        <ele>732</ele>
        <time>2015-12-02T08:55:36Z</time>
      </trkpt>
      <trkpt lat="44.98215" lon="4.47418">
        <ele>733</ele>
        <time>2015-12-02T08:55:40Z</time>
      </trkpt>
      <trkpt lat="44.98211" lon="4.47427">
        <ele>734</ele>
        <time>2015-12-02T08:55:44Z</time>
      </trkpt>
      <trkpt lat="44.98208" lon="4.47435">
        <ele>735</ele>
        <time>2015-12-02T08:55:48Z</time>
      </trkpt>
      <trkpt lat="44.98203" lon="4.47444">
        <ele>736</ele>
        <time>2015-12-02T08:55:54Z</time>
      </trkpt>
      <trkpt lat="44.98196" lon="4.4745">
        <ele>738</ele>
        <time>2015-12-02T08:55:59Z</time>
      </trkpt>
      <trkpt lat="44.98192" lon="4.47463">
        <ele>740</ele>
        <time>2015-12-02T08:56:04Z</time>
      </trkpt>
      <trkpt lat="44.98188" lon="4.47475">
        <ele>743</ele>
        <time>2015-12-02T08:56:12Z</time>
      </trkpt>
      <trkpt lat="44.98188" lon="4.47487">
        <ele>744</ele>
        <time>2015-12-02T08:56:21Z</time>
      </trkpt>
      <trkpt lat="44.98186" lon="4.47497">
        <ele>744</ele>
        <time>2015-12-02T08:56:29Z</time>
      </trkpt>
      <trkpt lat="44.98186" lon="4.47507">
        <ele>743</ele>
        <time>2015-12-02T08:56:35Z</time>
      </trkpt>
      <trkpt lat="44.98186" lon="4.4752">
        <ele>743</ele>
        <time>2015-12-02T08:56:40Z</time>
      </trkpt>
      <trkpt lat="44.98186" lon="4.47532">
        <ele>743</ele>
        <time>2015-12-02T08:56:46Z</time>
      </trkpt>
      <trkpt lat="44.98185" lon="4.47541">
        <ele>744</ele>
        <time>2015-12-02T08:56:51Z</time>
      </trkpt>
      <trkpt lat="44.98185" lon="4.47552">
        <ele>744</ele>
        <time>2015-12-02T08:56:57Z</time>
      </trkpt>
      <trkpt lat="44.98185" lon="4.47562">
        <ele>744</ele>
        <time>2015-12-02T08:57:02Z</time>
      </trkpt>
      <trkpt lat="44.98184" lon="4.47576">
        <ele>744</ele>
        <time>2015-12-02T08:57:07Z</time>
      </trkpt>
      <trkpt lat="44.98187" lon="4.47586">
        <ele>743</ele>
        <time>2015-12-02T08:57:14Z</time>
      </trkpt>
      <trkpt lat="44.9819" lon="4.47598">
        <ele>742</ele>
        <time>2015-12-02T08:57:24Z</time>
      </trkpt>
      <trkpt lat="44.98194" lon="4.47607">
        <ele>741</ele>
        <time>2015-12-02T08:57:30Z</time>
      </trkpt>
      <trkpt lat="44.98194" lon="4.47619">
        <ele>740</ele>
        <time>2015-12-02T08:57:38Z</time>
      </trkpt>
      <trkpt lat="44.982" lon="4.47629">
        <ele>739</ele>
        <time>2015-12-02T08:57:44Z</time>
      </trkpt>
      <trkpt lat="44.98197" lon="4.47641">
        <ele>738</ele>
        <time>2015-12-02T08:57:51Z</time>
      </trkpt>
      <trkpt lat="44.982" lon="4.4765">
        <ele>737</ele>
        <time>2015-12-02T08:57:57Z</time>
      </trkpt>
      <trkpt lat="44.98202" lon="4.47659">
        <ele>737</ele>
        <time>2015-12-02T08:58:04Z</time>
      </trkpt>
      <trkpt lat="44.98203" lon="4.47669">
        <ele>736</ele>
        <time>2015-12-02T08:58:11Z</time>
      </trkpt>
      <trkpt lat="44.98204" lon="4.47679">
        <ele>736</ele>
        <time>2015-12-02T08:58:17Z</time>
      </trkpt>
      <trkpt lat="44.98206" lon="4.47688">
        <ele>736</ele>
        <time>2015-12-02T08:58:22Z</time>
      </trkpt>
      <trkpt lat="44.98211" lon="4.47695">
        <ele>736</ele>
        <time>2015-12-02T08:58:26Z</time>
      </trkpt>
      <trkpt lat="44.98214" lon="4.47699">
        <ele>736</ele>
        <time>2015-12-02T08:58:30Z</time>
      </trkpt>
      <trkpt lat="44.9821" lon="4.47715">
        <ele>737</ele>
        <time>2015-12-02T08:58:34Z</time>
      </trkpt>
      <trkpt lat="44.98217" lon="4.4772">
        <ele>737</ele>
        <time>2015-12-02T08:58:38Z</time>
      </trkpt>
      <trkpt lat="44.98224" lon="4.4773">
        <ele>737</ele>
        <time>2015-12-02T08:58:42Z</time>
      </trkpt>
      <trkpt lat="44.98233" lon="4.47742">
        <ele>738</ele>
        <time>2015-12-02T08:58:46Z</time>
      </trkpt>
      <trkpt lat="44.98238" lon="4.4775">
        <ele>738</ele>
        <time>2015-12-02T08:58:51Z</time>
      </trkpt>
      <trkpt lat="44.98245" lon="4.47755">
        <ele>739</ele>
        <time>2015-12-02T08:58:55Z</time>
      </trkpt>
      <trkpt lat="44.98247" lon="4.47764">
        <ele>741</ele>
        <time>2015-12-02T08:59:00Z</time>
      </trkpt>
      <trkpt lat="44.98252" lon="4.47771">
        <ele>741</ele>
        <time>2015-12-02T08:59:05Z</time>
      </trkpt>
      <trkpt lat="44.98258" lon="4.47776">
        <ele>742</ele>
        <time>2015-12-02T08:59:10Z</time>
      </trkpt>
      <trkpt lat="44.98265" lon="4.47781">
        <ele>742</ele>
        <time>2015-12-02T08:59:18Z</time>
      </trkpt>
      <trkpt lat="44.98272" lon="4.47788">
        <ele>742</ele>
        <time>2015-12-02T08:59:26Z</time>
      </trkpt>
      <trkpt lat="44.98276" lon="4.47799">
        <ele>742</ele>
        <time>2015-12-02T08:59:34Z</time>
      </trkpt>
      <trkpt lat="44.98279" lon="4.4781">
        <ele>741</ele>
        <time>2015-12-02T08:59:46Z</time>
      </trkpt>
      <trkpt lat="44.98282" lon="4.47819">
        <ele>741</ele>
        <time>2015-12-02T08:59:53Z</time>
      </trkpt>
      <trkpt lat="44.98286" lon="4.4783">
        <ele>741</ele>
        <time>2015-12-02T09:00:01Z</time>
      </trkpt>
      <trkpt lat="44.98287" lon="4.4784">
        <ele>740</ele>
        <time>2015-12-02T09:00:07Z</time>
      </trkpt>
      <trkpt lat="44.9829" lon="4.4785">
        <ele>740</ele>
        <time>2015-12-02T09:00:12Z</time>
      </trkpt>
      <trkpt lat="44.98291" lon="4.4786">
        <ele>740</ele>
        <time>2015-12-02T09:00:16Z</time>
      </trkpt>
      <trkpt lat="44.98293" lon="4.47871">
        <ele>739</ele>
        <time>2015-12-02T09:00:21Z</time>
      </trkpt>
      <trkpt lat="44.98295" lon="4.47881">
        <ele>739</ele>
        <time>2015-12-02T09:00:25Z</time>
      </trkpt>
      <trkpt lat="44.98294" lon="4.47893">
        <ele>739</ele>
        <time>2015-12-02T09:00:30Z</time>
      </trkpt>
      <trkpt lat="44.98294" lon="4.47904">
        <ele>738</ele>
        <time>2015-12-02T09:00:36Z</time>
      </trkpt>
      <trkpt lat="44.98293" lon="4.47914">
        <ele>738</ele>
        <time>2015-12-02T09:00:41Z</time>
      </trkpt>
      <trkpt lat="44.98292" lon="4.47923">
        <ele>738</ele>
        <time>2015-12-02T09:00:45Z</time>
      </trkpt>
      <trkpt lat="44.98293" lon="4.47932">
        <ele>738</ele>
        <time>2015-12-02T09:00:49Z</time>
      </trkpt>
      <trkpt lat="44.9829" lon="4.47944">
        <ele>737</ele>
        <time>2015-12-02T09:00:54Z</time>
      </trkpt>
      <trkpt lat="44.98287" lon="4.47952">
        <ele>737</ele>
        <time>2015-12-02T09:00:59Z</time>
      </trkpt>
      <trkpt lat="44.98281" lon="4.47959">
        <ele>737</ele>
        <time>2015-12-02T09:01:04Z</time>
      </trkpt>
      <trkpt lat="44.98274" lon="4.47962">
        <ele>736</ele>
        <time>2015-12-02T09:01:09Z</time>
      </trkpt>
      <trkpt lat="44.98268" lon="4.4797">
        <ele>737</ele>
        <time>2015-12-02T09:01:14Z</time>
      </trkpt>
      <trkpt lat="44.98261" lon="4.47974">
        <ele>737</ele>
        <time>2015-12-02T09:01:21Z</time>
      </trkpt>
      <trkpt lat="44.98253" lon="4.47975">
        <ele>736</ele>
        <time>2015-12-02T09:01:26Z</time>
      </trkpt>
      <trkpt lat="44.98242" lon="4.47981">
        <ele>736</ele>
        <time>2015-12-02T09:01:31Z</time>
      </trkpt>
      <trkpt lat="44.98235" lon="4.47983">
        <ele>736</ele>
        <time>2015-12-02T09:01:34Z</time>
      </trkpt>
      <trkpt lat="44.98225" lon="4.47987">
        <ele>736</ele>
        <time>2015-12-02T09:01:38Z</time>
      </trkpt>
      <trkpt lat="44.98217" lon="4.47996">
        <ele>737</ele>
        <time>2015-12-02T09:01:42Z</time>
      </trkpt>
      <trkpt lat="44.98209" lon="4.48005">
        <ele>737</ele>
        <time>2015-12-02T09:01:47Z</time>
      </trkpt>
      <trkpt lat="44.982" lon="4.48009">
        <ele>738</ele>
        <time>2015-12-02T09:01:51Z</time>
      </trkpt>
      <trkpt lat="44.98189" lon="4.48016">
        <ele>738</ele>
        <time>2015-12-02T09:01:56Z</time>
      </trkpt>
      <trkpt lat="44.98181" lon="4.4802">
        <ele>738</ele>
        <time>2015-12-02T09:02:00Z</time>
      </trkpt>
      <trkpt lat="44.98172" lon="4.48024">
        <ele>739</ele>
        <time>2015-12-02T09:02:04Z</time>
      </trkpt>
      <trkpt lat="44.98166" lon="4.48028">
        <ele>739</ele>
        <time>2015-12-02T09:02:08Z</time>
      </trkpt>
      <trkpt lat="44.98161" lon="4.48034">
        <ele>739</ele>
        <time>2015-12-02T09:02:12Z</time>
      </trkpt>
      <trkpt lat="44.98157" lon="4.48039">
        <ele>739</ele>
        <time>2015-12-02T09:02:16Z</time>
      </trkpt>
      <trkpt lat="44.98153" lon="4.4805">
        <ele>741</ele>
        <time>2015-12-02T09:02:21Z</time>
      </trkpt>
      <trkpt lat="44.9815" lon="4.48061">
        <ele>743</ele>
        <time>2015-12-02T09:02:26Z</time>
      </trkpt>
      <trkpt lat="44.98146" lon="4.48071">
        <ele>747</ele>
        <time>2015-12-02T09:02:34Z</time>
      </trkpt>
      <trkpt lat="44.98139" lon="4.48078">
        <ele>749</ele>
        <time>2015-12-02T09:02:41Z</time>
      </trkpt>
      <trkpt lat="44.98135" lon="4.48088">
        <ele>752</ele>
        <time>2015-12-02T09:02:47Z</time>
      </trkpt>
      <trkpt lat="44.98131" lon="4.48096">
        <ele>753</ele>
        <time>2015-12-02T09:02:51Z</time>
      </trkpt>
      <trkpt lat="44.98128" lon="4.48107">
        <ele>755</ele>
        <time>2015-12-02T09:02:57Z</time>
      </trkpt>
      <trkpt lat="44.98126" lon="4.48115">
        <ele>756</ele>
        <time>2015-12-02T09:03:03Z</time>
      </trkpt>
      <trkpt lat="44.98121" lon="4.48127">
        <ele>757</ele>
        <time>2015-12-02T09:03:08Z</time>
      </trkpt>
      <trkpt lat="44.98111" lon="4.48133">
        <ele>758</ele>
        <time>2015-12-02T09:03:12Z</time>
      </trkpt>
      <trkpt lat="44.98104" lon="4.48147">
        <ele>760</ele>
        <time>2015-12-02T09:03:17Z</time>
      </trkpt>
      <trkpt lat="44.98097" lon="4.48158">
        <ele>761</ele>
        <time>2015-12-02T09:03:22Z</time>
      </trkpt>
      <trkpt lat="44.98092" lon="4.48166">
        <ele>762</ele>
        <time>2015-12-02T09:03:26Z</time>
      </trkpt>
      <trkpt lat="44.98087" lon="4.48175">
        <ele>764</ele>
        <time>2015-12-02T09:03:31Z</time>
      </trkpt>
      <trkpt lat="44.98087" lon="4.48187">
        <ele>766</ele>
        <time>2015-12-02T09:03:40Z</time>
      </trkpt>
      <trkpt lat="44.98082" lon="4.48197">
        <ele>767</ele>
        <time>2015-12-02T09:03:47Z</time>
      </trkpt>
      <trkpt lat="44.98078" lon="4.48204">
        <ele>769</ele>
        <time>2015-12-02T09:03:51Z</time>
      </trkpt>
      <trkpt lat="44.98071" lon="4.48217">
        <ele>770</ele>
        <time>2015-12-02T09:03:56Z</time>
      </trkpt>
      <trkpt lat="44.98066" lon="4.48226">
        <ele>772</ele>
        <time>2015-12-02T09:04:00Z</time>
      </trkpt>
      <trkpt lat="44.98063" lon="4.48236">
        <ele>773</ele>
        <time>2015-12-02T09:04:05Z</time>
      </trkpt>
      <trkpt lat="44.98059" lon="4.48242">
        <ele>774</ele>
        <time>2015-12-02T09:04:08Z</time>
      </trkpt>
      <trkpt lat="44.98054" lon="4.48255">
        <ele>775</ele>
        <time>2015-12-02T09:04:12Z</time>
      </trkpt>
      <trkpt lat="44.98047" lon="4.48264">
        <ele>777</ele>
        <time>2015-12-02T09:04:16Z</time>
      </trkpt>
      <trkpt lat="44.98038" lon="4.48277">
        <ele>780</ele>
        <time>2015-12-02T09:04:21Z</time>
      </trkpt>
      <trkpt lat="44.98034" lon="4.48288">
        <ele>784</ele>
        <time>2015-12-02T09:04:27Z</time>
      </trkpt>
      <trkpt lat="44.98031" lon="4.483">
        <ele>787</ele>
        <time>2015-12-02T09:04:33Z</time>
      </trkpt>
      <trkpt lat="44.9803" lon="4.48309">
        <ele>789</ele>
        <time>2015-12-02T09:04:38Z</time>
      </trkpt>
      <trkpt lat="44.98027" lon="4.4832">
        <ele>791</ele>
        <time>2015-12-02T09:04:43Z</time>
      </trkpt>
      <trkpt lat="44.98025" lon="4.48329">
        <ele>792</ele>
        <time>2015-12-02T09:04:49Z</time>
      </trkpt>
      <trkpt lat="44.98024" lon="4.48338">
        <ele>793</ele>
        <time>2015-12-02T09:04:54Z</time>
      </trkpt>
      <trkpt lat="44.9802" lon="4.48349">
        <ele>795</ele>
        <time>2015-12-02T09:04:59Z</time>
      </trkpt>
      <trkpt lat="44.98015" lon="4.48356">
        <ele>798</ele>
        <time>2015-12-02T09:06:43Z</time>
      </trkpt>
      <trkpt lat="44.98012" lon="4.48366">
        <ele>815</ele>
        <time>2015-12-02T09:06:52Z</time>
      </trkpt>
      <trkpt lat="44.98007" lon="4.48376">
        <ele>815</ele>
        <time>2015-12-02T09:06:59Z</time>
      </trkpt>
      <trkpt lat="44.98002" lon="4.48385">
        <ele>814</ele>
        <time>2015-12-02T09:07:03Z</time>
      </trkpt>
      <trkpt lat="44.97994" lon="4.48394">
        <ele>814</ele>
        <time>2015-12-02T09:07:07Z</time>
      </trkpt>
      <trkpt lat="44.97987" lon="4.48404">
        <ele>814</ele>
        <time>2015-12-02T09:07:11Z</time>
      </trkpt>
      <trkpt lat="44.97979" lon="4.48415">
        <ele>814</ele>
        <time>2015-12-02T09:07:15Z</time>
      </trkpt>
      <trkpt lat="44.9797" lon="4.48426">
        <ele>814</ele>
        <time>2015-12-02T09:07:19Z</time>
      </trkpt>
      <trkpt lat="44.97965" lon="4.48437">
        <ele>814</ele>
        <time>2015-12-02T09:07:22Z</time>
      </trkpt>
      <trkpt lat="44.97957" lon="4.48445">
        <ele>814</ele>
        <time>2015-12-02T09:07:25Z</time>
      </trkpt>
      <trkpt lat="44.97945" lon="4.48459">
        <ele>814</ele>
        <time>2015-12-02T09:07:30Z</time>
      </trkpt>
      <trkpt lat="44.97938" lon="4.48466">
        <ele>814</ele>
        <time>2015-12-02T09:07:33Z</time>
      </trkpt>
      <trkpt lat="44.9793" lon="4.48477">
        <ele>814</ele>
        <time>2015-12-02T09:07:37Z</time>
      </trkpt>
      <trkpt lat="44.97924" lon="4.48484">
        <ele>813</ele>
        <time>2015-12-02T09:07:40Z</time>
      </trkpt>
      <trkpt lat="44.97914" lon="4.48497">
        <ele>813</ele>
        <time>2015-12-02T09:07:45Z</time>
      </trkpt>
      <trkpt lat="44.97905" lon="4.48507">
        <ele>813</ele>
        <time>2015-12-02T09:07:50Z</time>
      </trkpt>
      <trkpt lat="44.97898" lon="4.48518">
        <ele>813</ele>
        <time>2015-12-02T09:07:54Z</time>
      </trkpt>
      <trkpt lat="44.97892" lon="4.48526">
        <ele>813</ele>
        <time>2015-12-02T09:07:57Z</time>
      </trkpt>
      <trkpt lat="44.97881" lon="4.48541">
        <ele>813</ele>
        <time>2015-12-02T09:08:02Z</time>
      </trkpt>
      <trkpt lat="44.97871" lon="4.48559">
        <ele>812</ele>
        <time>2015-12-02T09:08:07Z</time>
      </trkpt>
      <trkpt lat="44.97867" lon="4.4857">
        <ele>812</ele>
        <time>2015-12-02T09:08:10Z</time>
      </trkpt>
      <trkpt lat="44.97861" lon="4.48583">
        <ele>812</ele>
        <time>2015-12-02T09:08:14Z</time>
      </trkpt>
      <trkpt lat="44.97857" lon="4.48593">
        <ele>812</ele>
        <time>2015-12-02T09:08:17Z</time>
      </trkpt>
      <trkpt lat="44.97851" lon="4.48616">
        <ele>812</ele>
        <time>2015-12-02T09:08:21Z</time>
      </trkpt>
      <trkpt lat="44.97846" lon="4.48632">
        <ele>812</ele>
        <time>2015-12-02T09:08:24Z</time>
      </trkpt>
      <trkpt lat="44.97843" lon="4.48648">
        <ele>813</ele>
        <time>2015-12-02T09:08:28Z</time>
      </trkpt>
      <trkpt lat="44.97838" lon="4.48665">
        <ele>813</ele>
        <time>2015-12-02T09:08:32Z</time>
      </trkpt>
      <trkpt lat="44.97831" lon="4.48685">
        <ele>813</ele>
        <time>2015-12-02T09:08:36Z</time>
      </trkpt>
      <trkpt lat="44.97824" lon="4.48701">
        <ele>814</ele>
        <time>2015-12-02T09:08:40Z</time>
      </trkpt>
      <trkpt lat="44.97821" lon="4.48715">
        <ele>814</ele>
        <time>2015-12-02T09:08:43Z</time>
      </trkpt>
      <trkpt lat="44.97818" lon="4.48737">
        <ele>814</ele>
        <time>2015-12-02T09:08:47Z</time>
      </trkpt>
      <trkpt lat="44.97814" lon="4.48757">
        <ele>815</ele>
        <time>2015-12-02T09:08:51Z</time>
      </trkpt>
      <trkpt lat="44.97809" lon="4.4879">
        <ele>817</ele>
        <time>2015-12-02T09:08:56Z</time>
      </trkpt>
      <trkpt lat="44.97805" lon="4.48809">
        <ele>819</ele>
        <time>2015-12-02T09:08:59Z</time>
      </trkpt>
      <trkpt lat="44.978" lon="4.48818">
        <ele>820</ele>
        <time>2015-12-02T09:09:03Z</time>
      </trkpt>
      <trkpt lat="44.97784" lon="4.48823">
        <ele>820</ele>
        <time>2015-12-02T09:09:08Z</time>
      </trkpt>
      <trkpt lat="44.97773" lon="4.48822">
        <ele>820</ele>
        <time>2015-12-02T09:09:12Z</time>
      </trkpt>
      <trkpt lat="44.97763" lon="4.48816">
        <ele>821</ele>
        <time>2015-12-02T09:09:15Z</time>
      </trkpt>
      <trkpt lat="44.97748" lon="4.48797">
        <ele>824</ele>
        <time>2015-12-02T09:09:20Z</time>
      </trkpt>
      <trkpt lat="44.97738" lon="4.48777">
        <ele>826</ele>
        <time>2015-12-02T09:09:24Z</time>
      </trkpt>
      <trkpt lat="44.97728" lon="4.48756">
        <ele>826</ele>
        <time>2015-12-02T09:09:28Z</time>
      </trkpt>
      <trkpt lat="44.97717" lon="4.48734">
        <ele>825</ele>
        <time>2015-12-02T09:09:32Z</time>
      </trkpt>
      <trkpt lat="44.97708" lon="4.48711">
        <ele>824</ele>
        <time>2015-12-02T09:09:36Z</time>
      </trkpt>
      <trkpt lat="44.97695" lon="4.48694">
        <ele>823</ele>
        <time>2015-12-02T09:09:40Z</time>
      </trkpt>
      <trkpt lat="44.9768" lon="4.48681">
        <ele>822</ele>
        <time>2015-12-02T09:09:45Z</time>
      </trkpt>
      <trkpt lat="44.97664" lon="4.48656">
        <ele>820</ele>
        <time>2015-12-02T09:09:50Z</time>
      </trkpt>
      <trkpt lat="44.97653" lon="4.48635">
        <ele>818</ele>
        <time>2015-12-02T09:09:54Z</time>
      </trkpt>
      <trkpt lat="44.97642" lon="4.48609">
        <ele>817</ele>
        <time>2015-12-02T09:09:58Z</time>
      </trkpt>
      <trkpt lat="44.97634" lon="4.48579">
        <ele>816</ele>
        <time>2015-12-02T09:10:03Z</time>
      </trkpt>
      <trkpt lat="44.9763" lon="4.48563">
        <ele>815</ele>
        <time>2015-12-02T09:10:06Z</time>
      </trkpt>
      <trkpt lat="44.97625" lon="4.48543">
        <ele>814</ele>
        <time>2015-12-02T09:10:10Z</time>
      </trkpt>
      <trkpt lat="44.97621" lon="4.48519">
        <ele>812</ele>
        <time>2015-12-02T09:10:14Z</time>
      </trkpt>
      <trkpt lat="44.97612" lon="4.48495">
        <ele>811</ele>
        <time>2015-12-02T09:10:18Z</time>
      </trkpt>
      <trkpt lat="44.97603" lon="4.48465">
        <ele>810</ele>
        <time>2015-12-02T09:10:22Z</time>
      </trkpt>
      <trkpt lat="44.97601" lon="4.48435">
        <ele>808</ele>
        <time>2015-12-02T09:10:26Z</time>
      </trkpt>
      <trkpt lat="44.97598" lon="4.48394">
        <ele>807</ele>
        <time>2015-12-02T09:10:30Z</time>
      </trkpt>
      <trkpt lat="44.97591" lon="4.4836">
        <ele>806</ele>
        <time>2015-12-02T09:10:34Z</time>
      </trkpt>
      <trkpt lat="44.9759" lon="4.48329">
        <ele>805</ele>
        <time>2015-12-02T09:10:38Z</time>
      </trkpt>
      <trkpt lat="44.97589" lon="4.48308">
        <ele>804</ele>
        <time>2015-12-02T09:10:42Z</time>
      </trkpt>
      <trkpt lat="44.97588" lon="4.48282">
        <ele>803</ele>
        <time>2015-12-02T09:10:46Z</time>
      </trkpt>
      <trkpt lat="44.97584" lon="4.48263">
        <ele>801</ele>
        <time>2015-12-02T09:10:50Z</time>
      </trkpt>
      <trkpt lat="44.97572" lon="4.48245">
        <ele>801</ele>
        <time>2015-12-02T09:10:54Z</time>
      </trkpt>
      <trkpt lat="44.9756" lon="4.48242">
        <ele>801</ele>
        <time>2015-12-02T09:10:58Z</time>
      </trkpt>
      <trkpt lat="44.97547" lon="4.48248">
        <ele>800</ele>
        <time>2015-12-02T09:11:02Z</time>
      </trkpt>
      <trkpt lat="44.97532" lon="4.48252">
        <ele>799</ele>
        <time>2015-12-02T09:11:06Z</time>
      </trkpt>
      <trkpt lat="44.97521" lon="4.48256">
        <ele>798</ele>
        <time>2015-12-02T09:11:09Z</time>
      </trkpt>
      <trkpt lat="44.97499" lon="4.4826">
        <ele>797</ele>
        <time>2015-12-02T09:11:13Z</time>
      </trkpt>
      <trkpt lat="44.97477" lon="4.48268">
        <ele>795</ele>
        <time>2015-12-02T09:11:18Z</time>
      </trkpt>
      <trkpt lat="44.97467" lon="4.48271">
        <ele>794</ele>
        <time>2015-12-02T09:11:21Z</time>
      </trkpt>
      <trkpt lat="44.97454" lon="4.4828">
        <ele>793</ele>
        <time>2015-12-02T09:11:25Z</time>
      </trkpt>
      <trkpt lat="44.97434" lon="4.48294">
        <ele>792</ele>
        <time>2015-12-02T09:11:29Z</time>
      </trkpt>
      <trkpt lat="44.97417" lon="4.483">
        <ele>791</ele>
        <time>2015-12-02T09:11:33Z</time>
      </trkpt>
      <trkpt lat="44.97393" lon="4.48307">
        <ele>790</ele>
        <time>2015-12-02T09:11:38Z</time>
      </trkpt>
      <trkpt lat="44.9737" lon="4.48316">
        <ele>789</ele>
        <time>2015-12-02T09:11:42Z</time>
      </trkpt>
      <trkpt lat="44.97349" lon="4.48323">
        <ele>788</ele>
        <time>2015-12-02T09:11:46Z</time>
      </trkpt>
      <trkpt lat="44.97328" lon="4.48322">
        <ele>787</ele>
        <time>2015-12-02T09:11:50Z</time>
      </trkpt>
      <trkpt lat="44.97307" lon="4.48322">
        <ele>785</ele>
        <time>2015-12-02T09:11:54Z</time>
      </trkpt>
      <trkpt lat="44.97286" lon="4.48331">
        <ele>785</ele>
        <time>2015-12-02T09:11:58Z</time>
      </trkpt>
      <trkpt lat="44.97269" lon="4.48348">
        <ele>784</ele>
        <time>2015-12-02T09:12:02Z</time>
      </trkpt>
      <trkpt lat="44.97257" lon="4.48364">
        <ele>783</ele>
        <time>2015-12-02T09:12:06Z</time>
      </trkpt>
      <trkpt lat="44.97244" lon="4.48384">
        <ele>782</ele>
        <time>2015-12-02T09:12:10Z</time>
      </trkpt>
      <trkpt lat="44.97231" lon="4.48401">
        <ele>782</ele>
        <time>2015-12-02T09:12:13Z</time>
      </trkpt>
      <trkpt lat="44.97194" lon="4.48427">
        <ele>782</ele>
        <time>2015-12-02T09:12:17Z</time>
      </trkpt>
      <trkpt lat="44.97165" lon="4.48451">
        <ele>783</ele>
        <time>2015-12-02T09:12:21Z</time>
      </trkpt>
      <trkpt lat="44.97138" lon="4.48459">
        <ele>783</ele>
        <time>2015-12-02T09:12:26Z</time>
      </trkpt>
      <trkpt lat="44.97115" lon="4.4847">
        <ele>784</ele>
        <time>2015-12-02T09:12:30Z</time>
      </trkpt>
      <trkpt lat="44.97103" lon="4.4848">
        <ele>783</ele>
        <time>2015-12-02T09:12:33Z</time>
      </trkpt>
      <trkpt lat="44.97093" lon="4.48492">
        <ele>783</ele>
        <time>2015-12-02T09:12:36Z</time>
      </trkpt>
      <trkpt lat="44.97074" lon="4.48509">
        <ele>783</ele>
        <time>2015-12-02T09:12:41Z</time>
      </trkpt>
      <trkpt lat="44.97066" lon="4.4852">
        <ele>783</ele>
        <time>2015-12-02T09:12:44Z</time>
      </trkpt>
      <trkpt lat="44.97063" lon="4.48544">
        <ele>783</ele>
        <time>2015-12-02T09:12:48Z</time>
      </trkpt>
      <trkpt lat="44.97068" lon="4.48575">
        <ele>782</ele>
        <time>2015-12-02T09:12:52Z</time>
      </trkpt>
      <trkpt lat="44.97069" lon="4.48607">
        <ele>781</ele>
        <time>2015-12-02T09:12:55Z</time>
      </trkpt>
      <trkpt lat="44.97065" lon="4.48641">
        <ele>780</ele>
        <time>2015-12-02T09:12:59Z</time>
      </trkpt>
      <trkpt lat="44.97059" lon="4.48673">
        <ele>779</ele>
        <time>2015-12-02T09:13:03Z</time>
      </trkpt>
      <trkpt lat="44.9705" lon="4.48693">
        <ele>781</ele>
        <time>2015-12-02T09:13:06Z</time>
      </trkpt>
      <trkpt lat="44.97033" lon="4.48712">
        <ele>783</ele>
        <time>2015-12-02T09:13:10Z</time>
      </trkpt>
      <trkpt lat="44.97015" lon="4.48721">
        <ele>784</ele>
        <time>2015-12-02T09:13:14Z</time>
      </trkpt>
      <trkpt lat="44.97002" lon="4.48723">
        <ele>785</ele>
        <time>2015-12-02T09:13:17Z</time>
      </trkpt>
      <trkpt lat="44.96974" lon="4.48727">
        <ele>785</ele>
        <time>2015-12-02T09:13:22Z</time>
      </trkpt>
      <trkpt lat="44.9695" lon="4.48725">
        <ele>786</ele>
        <time>2015-12-02T09:13:26Z</time>
      </trkpt>
      <trkpt lat="44.96925" lon="4.48728">
        <ele>784</ele>
        <time>2015-12-02T09:13:30Z</time>
      </trkpt>
      <trkpt lat="44.96903" lon="4.48734">
        <ele>782</ele>
        <time>2015-12-02T09:13:34Z</time>
      </trkpt>
      <trkpt lat="44.96882" lon="4.48732">
        <ele>781</ele>
        <time>2015-12-02T09:13:38Z</time>
      </trkpt>
      <trkpt lat="44.96869" lon="4.48731">
        <ele>780</ele>
        <time>2015-12-02T09:13:41Z</time>
      </trkpt>
      <trkpt lat="44.96854" lon="4.48745">
        <ele>780</ele>
        <time>2015-12-02T09:13:45Z</time>
      </trkpt>
      <trkpt lat="44.96846" lon="4.48775">
        <ele>779</ele>
        <time>2015-12-02T09:13:49Z</time>
      </trkpt>
      <trkpt lat="44.96837" lon="4.48802">
        <ele>778</ele>
        <time>2015-12-02T09:13:53Z</time>
      </trkpt>
      <trkpt lat="44.96831" lon="4.48824">
        <ele>777</ele>
        <time>2015-12-02T09:13:56Z</time>
      </trkpt>
      <trkpt lat="44.96824" lon="4.48851">
        <ele>775</ele>
        <time>2015-12-02T09:14:00Z</time>
      </trkpt>
      <trkpt lat="44.96811" lon="4.48885">
        <ele>775</ele>
        <time>2015-12-02T09:14:05Z</time>
      </trkpt>
      <trkpt lat="44.96807" lon="4.48913">
        <ele>774</ele>
        <time>2015-12-02T09:14:09Z</time>
      </trkpt>
      <trkpt lat="44.9681" lon="4.48946">
        <ele>774</ele>
        <time>2015-12-02T09:14:14Z</time>
      </trkpt>
      <trkpt lat="44.96805" lon="4.4898">
        <ele>773</ele>
        <time>2015-12-02T09:14:18Z</time>
      </trkpt>
      <trkpt lat="44.96794" lon="4.4901">
        <ele>772</ele>
        <time>2015-12-02T09:14:22Z</time>
      </trkpt>
      <trkpt lat="44.96783" lon="4.49029">
        <ele>770</ele>
        <time>2015-12-02T09:14:25Z</time>
      </trkpt>
      <trkpt lat="44.96771" lon="4.49054">
        <ele>769</ele>
        <time>2015-12-02T09:14:29Z</time>
      </trkpt>
      <trkpt lat="44.96761" lon="4.49076">
        <ele>769</ele>
        <time>2015-12-02T09:14:32Z</time>
      </trkpt>
      <trkpt lat="44.96739" lon="4.49112">
        <ele>768</ele>
        <time>2015-12-02T09:14:37Z</time>
      </trkpt>
      <trkpt lat="44.96722" lon="4.49135">
        <ele>768</ele>
        <time>2015-12-02T09:14:41Z</time>
      </trkpt>
      <trkpt lat="44.9671" lon="4.49153">
        <ele>768</ele>
        <time>2015-12-02T09:14:44Z</time>
      </trkpt>
      <trkpt lat="44.96697" lon="4.49169">
        <ele>768</ele>
        <time>2015-12-02T09:14:48Z</time>
      </trkpt>
      <trkpt lat="44.9669" lon="4.49176">
        <ele>768</ele>
        <time>2015-12-02T09:14:52Z</time>
      </trkpt>
      <trkpt lat="44.96687" lon="4.49184">
        <ele>768</ele>
        <time>2015-12-02T09:14:56Z</time>
      </trkpt>
      <trkpt lat="44.96671" lon="4.49192">
        <ele>769</ele>
        <time>2015-12-02T09:15:00Z</time>
      </trkpt>
      <trkpt lat="44.96665" lon="4.49198">
        <ele>771</ele>
        <time>2015-12-02T09:15:06Z</time>
      </trkpt>
      <trkpt lat="44.96662" lon="4.49205">
        <ele>772</ele>
        <time>2015-12-02T09:15:10Z</time>
      </trkpt>
      <trkpt lat="44.96657" lon="4.49212">
        <ele>773</ele>
        <time>2015-12-02T09:15:14Z</time>
      </trkpt>
      <trkpt lat="44.96653" lon="4.49224">
        <ele>774</ele>
        <time>2015-12-02T09:15:18Z</time>
      </trkpt>
      <trkpt lat="44.96654" lon="4.49262">
        <ele>775</ele>
        <time>2015-12-02T09:15:23Z</time>
      </trkpt>
      <trkpt lat="44.96651" lon="4.49274">
        <ele>773</ele>
        <time>2015-12-02T09:15:32Z</time>
      </trkpt>
      <trkpt lat="44.96648" lon="4.49277">
        <ele>772</ele>
        <time>2015-12-02T09:15:36Z</time>
      </trkpt>
      <trkpt lat="44.96639" lon="4.49279">
        <ele>775</ele>
        <time>2015-12-02T09:15:40Z</time>
      </trkpt>
      <trkpt lat="44.96631" lon="4.49275">
        <ele>775</ele>
        <time>2015-12-02T09:15:46Z</time>
      </trkpt>
      <trkpt lat="44.96623" lon="4.49269">
        <ele>777</ele>
        <time>2015-12-02T09:15:54Z</time>
      </trkpt>
      <trkpt lat="44.96615" lon="4.49265">
        <ele>778</ele>
        <time>2015-12-02T09:16:03Z</time>
      </trkpt>
      <trkpt lat="44.9661" lon="4.49262">
        <ele>779</ele>
        <time>2015-12-02T09:16:08Z</time>
      </trkpt>
      <trkpt lat="44.96603" lon="4.49253">
        <ele>783</ele>
        <time>2015-12-02T09:16:13Z</time>
      </trkpt>
      <trkpt lat="44.96596" lon="4.4925">
        <ele>785</ele>
        <time>2015-12-02T09:16:21Z</time>
      </trkpt>
      <trkpt lat="44.96589" lon="4.49246">
        <ele>788</ele>
        <time>2015-12-02T09:16:27Z</time>
      </trkpt>
      <trkpt lat="44.96582" lon="4.49242">
        <ele>791</ele>
        <time>2015-12-02T09:16:34Z</time>
      </trkpt>
      <trkpt lat="44.96577" lon="4.49238">
        <ele>792</ele>
        <time>2015-12-02T09:16:40Z</time>
      </trkpt>
      <trkpt lat="44.96569" lon="4.49238">
        <ele>793</ele>
        <time>2015-12-02T09:16:45Z</time>
      </trkpt>
      <trkpt lat="44.96561" lon="4.49234">
        <ele>794</ele>
        <time>2015-12-02T09:16:52Z</time>
      </trkpt>
      <trkpt lat="44.96553" lon="4.49229">
        <ele>796</ele>
        <time>2015-12-02T09:16:58Z</time>
      </trkpt>
      <trkpt lat="44.96546" lon="4.49226">
        <ele>797</ele>
        <time>2015-12-02T09:17:04Z</time>
      </trkpt>
      <trkpt lat="44.96539" lon="4.49223">
        <ele>798</ele>
        <time>2015-12-02T09:17:09Z</time>
      </trkpt>
      <trkpt lat="44.96532" lon="4.49222">
        <ele>799</ele>
        <time>2015-12-02T09:17:14Z</time>
      </trkpt>
      <trkpt lat="44.96524" lon="4.49217">
        <ele>800</ele>
        <time>2015-12-02T09:17:21Z</time>
      </trkpt>
      <trkpt lat="44.96516" lon="4.49214">
        <ele>802</ele>
        <time>2015-12-02T09:17:28Z</time>
      </trkpt>
      <trkpt lat="44.96509" lon="4.49214">
        <ele>803</ele>
        <time>2015-12-02T09:17:33Z</time>
      </trkpt>
      <trkpt lat="44.96501" lon="4.49217">
        <ele>804</ele>
        <time>2015-12-02T09:17:40Z</time>
      </trkpt>
      <trkpt lat="44.96495" lon="4.49224">
        <ele>806</ele>
        <time>2015-12-02T09:17:49Z</time>
      </trkpt>
      <trkpt lat="44.96492" lon="4.49232">
        <ele>808</ele>
        <time>2015-12-02T09:17:58Z</time>
      </trkpt>
      <trkpt lat="44.96492" lon="4.49243">
        <ele>808</ele>
        <time>2015-12-02T09:18:58Z</time>
      </trkpt>
      <trkpt lat="44.96498" lon="4.49249">
        <ele>808</ele>
        <time>2015-12-02T09:19:04Z</time>
      </trkpt>
      <trkpt lat="44.96504" lon="4.49254">
        <ele>808</ele>
        <time>2015-12-02T09:19:10Z</time>
      </trkpt>
      <trkpt lat="44.96511" lon="4.49261">
        <ele>808</ele>
        <time>2015-12-02T09:19:18Z</time>
      </trkpt>
      <trkpt lat="44.96517" lon="4.4927">
        <ele>807</ele>
        <time>2015-12-02T09:19:28Z</time>
      </trkpt>
      <trkpt lat="44.96519" lon="4.4928">
        <ele>807</ele>
        <time>2015-12-02T09:19:34Z</time>
      </trkpt>
      <trkpt lat="44.96522" lon="4.49288">
        <ele>807</ele>
        <time>2015-12-02T09:19:38Z</time>
      </trkpt>
      <trkpt lat="44.96521" lon="4.49298">
        <ele>807</ele>
        <time>2015-12-02T09:19:42Z</time>
      </trkpt>
      <trkpt lat="44.9652" lon="4.49309">
        <ele>807</ele>
        <time>2015-12-02T09:19:46Z</time>
      </trkpt>
      <trkpt lat="44.96518" lon="4.49318">
        <ele>807</ele>
        <time>2015-12-02T09:19:49Z</time>
      </trkpt>
      <trkpt lat="44.96517" lon="4.49335">
        <ele>806</ele>
        <time>2015-12-02T09:19:54Z</time>
      </trkpt>
      <trkpt lat="44.96518" lon="4.4935">
        <ele>806</ele>
        <time>2015-12-02T09:19:58Z</time>
      </trkpt>
      <trkpt lat="44.96519" lon="4.4937">
        <ele>806</ele>
        <time>2015-12-02T09:20:02Z</time>
      </trkpt>
      <trkpt lat="44.96514" lon="4.49389">
        <ele>807</ele>
        <time>2015-12-02T09:20:06Z</time>
      </trkpt>
      <trkpt lat="44.96513" lon="4.4941">
        <ele>807</ele>
        <time>2015-12-02T09:20:10Z</time>
      </trkpt>
      <trkpt lat="44.96511" lon="4.49431">
        <ele>806</ele>
        <time>2015-12-02T09:20:14Z</time>
      </trkpt>
      <trkpt lat="44.96509" lon="4.49449">
        <ele>806</ele>
        <time>2015-12-02T09:20:17Z</time>
      </trkpt>
      <trkpt lat="44.96504" lon="4.49472">
        <ele>806</ele>
        <time>2015-12-02T09:20:21Z</time>
      </trkpt>
      <trkpt lat="44.96492" lon="4.49506">
        <ele>807</ele>
        <time>2015-12-02T09:20:25Z</time>
      </trkpt>
      <trkpt lat="44.96477" lon="4.49541">
        <ele>808</ele>
        <time>2015-12-02T09:20:29Z</time>
      </trkpt>
      <trkpt lat="44.96466" lon="4.49562">
        <ele>806</ele>
        <time>2015-12-02T09:20:32Z</time>
      </trkpt>
      <trkpt lat="44.96454" lon="4.49584">
        <ele>806</ele>
        <time>2015-12-02T09:20:36Z</time>
      </trkpt>
      <trkpt lat="44.96446" lon="4.49598">
        <ele>806</ele>
        <time>2015-12-02T09:20:39Z</time>
      </trkpt>
      <trkpt lat="44.96438" lon="4.49613">
        <ele>806</ele>
        <time>2015-12-02T09:20:43Z</time>
      </trkpt>
      <trkpt lat="44.96433" lon="4.49628">
        <ele>806</ele>
        <time>2015-12-02T09:20:48Z</time>
      </trkpt>
      <trkpt lat="44.96427" lon="4.49636">
        <ele>806</ele>
        <time>2015-12-02T09:20:52Z</time>
      </trkpt>
      <trkpt lat="44.96419" lon="4.49644">
        <ele>806</ele>
        <time>2015-12-02T09:20:56Z</time>
      </trkpt>
      <trkpt lat="44.96415" lon="4.49651">
        <ele>806</ele>
        <time>2015-12-02T09:21:00Z</time>
      </trkpt>
      <trkpt lat="44.9641" lon="4.4966">
        <ele>806</ele>
        <time>2015-12-02T09:21:04Z</time>
      </trkpt>
      <trkpt lat="44.96405" lon="4.49671">
        <ele>806</ele>
        <time>2015-12-02T09:21:09Z</time>
      </trkpt>
      <trkpt lat="44.96402" lon="4.49678">
        <ele>806</ele>
        <time>2015-12-02T09:21:12Z</time>
      </trkpt>
      <trkpt lat="44.96396" lon="4.497">
        <ele>807</ele>
        <time>2015-12-02T09:21:17Z</time>
      </trkpt>
      <trkpt lat="44.96393" lon="4.4971">
        <ele>807</ele>
        <time>2015-12-02T09:21:21Z</time>
      </trkpt>
      <trkpt lat="44.9639" lon="4.49718">
        <ele>807</ele>
        <time>2015-12-02T09:21:24Z</time>
      </trkpt>
      <trkpt lat="44.96384" lon="4.49727">
        <ele>809</ele>
        <time>2015-12-02T09:21:28Z</time>
      </trkpt>
      <trkpt lat="44.96379" lon="4.49739">
        <ele>811</ele>
        <time>2015-12-02T09:21:32Z</time>
      </trkpt>
      <trkpt lat="44.96381" lon="4.49754">
        <ele>811</ele>
        <time>2015-12-02T09:21:36Z</time>
      </trkpt>
      <trkpt lat="44.96382" lon="4.49767">
        <ele>812</ele>
        <time>2015-12-02T09:21:40Z</time>
      </trkpt>
      <trkpt lat="44.96377" lon="4.49777">
        <ele>814</ele>
        <time>2015-12-02T09:21:44Z</time>
      </trkpt>
      <trkpt lat="44.96374" lon="4.49785">
        <ele>815</ele>
        <time>2015-12-02T09:21:50Z</time>
      </trkpt>
      <trkpt lat="44.96368" lon="4.49795">
        <ele>816</ele>
        <time>2015-12-02T09:21:58Z</time>
      </trkpt>
      <trkpt lat="44.96363" lon="4.49803">
        <ele>818</ele>
        <time>2015-12-02T09:22:05Z</time>
      </trkpt>
      <trkpt lat="44.96358" lon="4.4981">
        <ele>818</ele>
        <time>2015-12-02T09:22:10Z</time>
      </trkpt>
      <trkpt lat="44.96352" lon="4.49814">
        <ele>819</ele>
        <time>2015-12-02T09:22:17Z</time>
      </trkpt>
      <trkpt lat="44.96348" lon="4.49822">
        <ele>820</ele>
        <time>2015-12-02T09:22:21Z</time>
      </trkpt>
      <trkpt lat="44.96344" lon="4.49829">
        <ele>820</ele>
        <time>2015-12-02T09:22:24Z</time>
      </trkpt>
      <trkpt lat="44.96337" lon="4.49837">
        <ele>821</ele>
        <time>2015-12-02T09:22:31Z</time>
      </trkpt>
      <trkpt lat="44.96334" lon="4.49846">
        <ele>821</ele>
        <time>2015-12-02T09:22:35Z</time>
      </trkpt>
      <trkpt lat="44.96332" lon="4.49857">
        <ele>821</ele>
        <time>2015-12-02T09:22:39Z</time>
      </trkpt>
      <trkpt lat="44.96326" lon="4.49872">
        <ele>820</ele>
        <time>2015-12-02T09:22:44Z</time>
      </trkpt>
      <trkpt lat="44.96322" lon="4.49887">
        <ele>820</ele>
        <time>2015-12-02T09:22:48Z</time>
      </trkpt>
      <trkpt lat="44.96317" lon="4.49903">
        <ele>820</ele>
        <time>2015-12-02T09:22:53Z</time>
      </trkpt>
      <trkpt lat="44.96314" lon="4.49918">
        <ele>821</ele>
        <time>2015-12-02T09:22:57Z</time>
      </trkpt>
      <trkpt lat="44.96313" lon="4.49929">
        <ele>821</ele>
        <time>2015-12-02T09:23:00Z</time>
      </trkpt>
      <trkpt lat="44.96311" lon="4.49939">
        <ele>821</ele>
        <time>2015-12-02T09:23:03Z</time>
      </trkpt>
      <trkpt lat="44.96308" lon="4.49953">
        <ele>821</ele>
        <time>2015-12-02T09:23:07Z</time>
      </trkpt>
      <trkpt lat="44.96295" lon="4.49963">
        <ele>822</ele>
        <time>2015-12-02T09:23:11Z</time>
      </trkpt>
      <trkpt lat="44.96293" lon="4.49973">
        <ele>822</ele>
        <time>2015-12-02T09:23:17Z</time>
      </trkpt>
      <trkpt lat="44.96287" lon="4.49982">
        <ele>824</ele>
        <time>2015-12-02T09:23:27Z</time>
      </trkpt>
      <trkpt lat="44.96283" lon="4.49991">
        <ele>824</ele>
        <time>2015-12-02T09:23:36Z</time>
      </trkpt>
      <trkpt lat="44.96281" lon="4.50003">
        <ele>824</ele>
        <time>2015-12-02T09:23:42Z</time>
      </trkpt>
      <trkpt lat="44.96276" lon="4.50014">
        <ele>824</ele>
        <time>2015-12-02T09:23:46Z</time>
      </trkpt>
      <trkpt lat="44.96272" lon="4.50024">
        <ele>825</ele>
        <time>2015-12-02T09:23:52Z</time>
      </trkpt>
      <trkpt lat="44.96269" lon="4.50032">
        <ele>825</ele>
        <time>2015-12-02T09:24:00Z</time>
      </trkpt>
      <trkpt lat="44.96271" lon="4.5005">
        <ele>825</ele>
        <time>2015-12-02T09:24:05Z</time>
      </trkpt>
      <trkpt lat="44.96275" lon="4.50068">
        <ele>826</ele>
        <time>2015-12-02T09:24:10Z</time>
      </trkpt>
      <trkpt lat="44.9628" lon="4.50087">
        <ele>826</ele>
        <time>2015-12-02T09:24:14Z</time>
      </trkpt>
      <trkpt lat="44.96284" lon="4.50115">
        <ele>826</ele>
        <time>2015-12-02T09:24:18Z</time>
      </trkpt>
      <trkpt lat="44.96284" lon="4.50152">
        <ele>827</ele>
        <time>2015-12-02T09:24:23Z</time>
      </trkpt>
      <trkpt lat="44.96288" lon="4.5019">
        <ele>827</ele>
        <time>2015-12-02T09:24:28Z</time>
      </trkpt>
      <trkpt lat="44.96289" lon="4.50231">
        <ele>827</ele>
        <time>2015-12-02T09:24:33Z</time>
      </trkpt>
      <trkpt lat="44.9629" lon="4.50245">
        <ele>827</ele>
        <time>2015-12-02T09:24:36Z</time>
      </trkpt>
      <trkpt lat="44.96289" lon="4.50247">
        <ele>826</ele>
        <time>2015-12-02T09:24:39Z</time>
      </trkpt>
      <trkpt lat="44.9628" lon="4.50261">
        <ele>830</ele>
        <time>2015-12-02T09:24:43Z</time>
      </trkpt>
      <trkpt lat="44.96285" lon="4.50264">
        <ele>830</ele>
        <time>2015-12-02T09:25:00Z</time>
      </trkpt>
      <trkpt lat="44.96288" lon="4.50274">
        <ele>830</ele>
        <time>2015-12-02T09:25:04Z</time>
      </trkpt>
      <trkpt lat="44.96289" lon="4.50286">
        <ele>830</ele>
        <time>2015-12-02T09:25:08Z</time>
      </trkpt>
      <trkpt lat="44.96291" lon="4.50304">
        <ele>830</ele>
        <time>2015-12-02T09:25:12Z</time>
      </trkpt>
      <trkpt lat="44.96296" lon="4.50328">
        <ele>829</ele>
        <time>2015-12-02T09:25:17Z</time>
      </trkpt>
      <trkpt lat="44.963" lon="4.50342">
        <ele>828</ele>
        <time>2015-12-02T09:25:20Z</time>
      </trkpt>
      <trkpt lat="44.96303" lon="4.50365">
        <ele>827</ele>
        <time>2015-12-02T09:25:24Z</time>
      </trkpt>
      <trkpt lat="44.96307" lon="4.50385">
        <ele>827</ele>
        <time>2015-12-02T09:25:28Z</time>
      </trkpt>
      <trkpt lat="44.96314" lon="4.50409">
        <ele>826</ele>
        <time>2015-12-02T09:25:33Z</time>
      </trkpt>
      <trkpt lat="44.9632" lon="4.50432">
        <ele>825</ele>
        <time>2015-12-02T09:25:37Z</time>
      </trkpt>
      <trkpt lat="44.96326" lon="4.50456">
        <ele>824</ele>
        <time>2015-12-02T09:25:41Z</time>
      </trkpt>
      <trkpt lat="44.96325" lon="4.50473">
        <ele>825</ele>
        <time>2015-12-02T09:25:45Z</time>
      </trkpt>
      <trkpt lat="44.96328" lon="4.50485">
        <ele>823</ele>
        <time>2015-12-02T09:25:52Z</time>
      </trkpt>
      <trkpt lat="44.9633" lon="4.50496">
        <ele>822</ele>
        <time>2015-12-02T09:25:58Z</time>
      </trkpt>
      <trkpt lat="44.96332" lon="4.50503">
        <ele>822</ele>
        <time>2015-12-02T09:26:03Z</time>
      </trkpt>
      <trkpt lat="44.96335" lon="4.50514">
        <ele>820</ele>
        <time>2015-12-02T09:26:08Z</time>
      </trkpt>
      <trkpt lat="44.96338" lon="4.50526">
        <ele>819</ele>
        <time>2015-12-02T09:26:14Z</time>
      </trkpt>
      <trkpt lat="44.96339" lon="4.50537">
        <ele>819</ele>
        <time>2015-12-02T09:26:18Z</time>
      </trkpt>
      <trkpt lat="44.96342" lon="4.50548">
        <ele>819</ele>
        <time>2015-12-02T09:26:24Z</time>
      </trkpt>
      <trkpt lat="44.96344" lon="4.50557">
        <ele>820</ele>
        <time>2015-12-02T09:26:30Z</time>
      </trkpt>
      <trkpt lat="44.96346" lon="4.50566">
        <ele>821</ele>
        <time>2015-12-02T09:26:34Z</time>
      </trkpt>
      <trkpt lat="44.96349" lon="4.50576">
        <ele>822</ele>
        <time>2015-12-02T09:26:39Z</time>
      </trkpt>
      <trkpt lat="44.96351" lon="4.50588">
        <ele>823</ele>
        <time>2015-12-02T09:26:45Z</time>
      </trkpt>
      <trkpt lat="44.96352" lon="4.50599">
        <ele>825</ele>
        <time>2015-12-02T09:26:53Z</time>
      </trkpt>
      <trkpt lat="44.96357" lon="4.50609">
        <ele>824</ele>
        <time>2015-12-02T09:26:59Z</time>
      </trkpt>
      <trkpt lat="44.96366" lon="4.5062">
        <ele>825</ele>
        <time>2015-12-02T09:27:04Z</time>
      </trkpt>
      <trkpt lat="44.96372" lon="4.50626">
        <ele>824</ele>
        <time>2015-12-02T09:27:08Z</time>
      </trkpt>
      <trkpt lat="44.96378" lon="4.50633">
        <ele>824</ele>
        <time>2015-12-02T09:27:12Z</time>
      </trkpt>
      <trkpt lat="44.96383" lon="4.5064">
        <ele>824</ele>
        <time>2015-12-02T09:27:16Z</time>
      </trkpt>
      <trkpt lat="44.96389" lon="4.50646">
        <ele>823</ele>
        <time>2015-12-02T09:27:21Z</time>
      </trkpt>
      <trkpt lat="44.96401" lon="4.50657">
        <ele>823</ele>
        <time>2015-12-02T09:27:26Z</time>
      </trkpt>
      <trkpt lat="44.9641" lon="4.50664">
        <ele>822</ele>
        <time>2015-12-02T09:27:29Z</time>
      </trkpt>
      <trkpt lat="44.96418" lon="4.50671">
        <ele>822</ele>
        <time>2015-12-02T09:27:33Z</time>
      </trkpt>
      <trkpt lat="44.96425" lon="4.5068">
        <ele>822</ele>
        <time>2015-12-02T09:27:37Z</time>
      </trkpt>
      <trkpt lat="44.96437" lon="4.50689">
        <ele>821</ele>
        <time>2015-12-02T09:27:41Z</time>
      </trkpt>
      <trkpt lat="44.96451" lon="4.50698">
        <ele>820</ele>
        <time>2015-12-02T09:27:45Z</time>
      </trkpt>
      <trkpt lat="44.96459" lon="4.50707">
        <ele>819</ele>
        <time>2015-12-02T09:27:49Z</time>
      </trkpt>
      <trkpt lat="44.96465" lon="4.50717">
        <ele>819</ele>
        <time>2015-12-02T09:27:53Z</time>
      </trkpt>
      <trkpt lat="44.96471" lon="4.50724">
        <ele>819</ele>
        <time>2015-12-02T09:27:56Z</time>
      </trkpt>
      <trkpt lat="44.96479" lon="4.50733">
        <ele>820</ele>
        <time>2015-12-02T09:28:01Z</time>
      </trkpt>
      <trkpt lat="44.96489" lon="4.50737">
        <ele>820</ele>
        <time>2015-12-02T09:28:05Z</time>
      </trkpt>
      <trkpt lat="44.96495" lon="4.50744">
        <ele>817</ele>
        <time>2015-12-02T09:28:12Z</time>
      </trkpt>
      <trkpt lat="44.96501" lon="4.5075">
        <ele>814</ele>
        <time>2015-12-02T09:28:19Z</time>
      </trkpt>
      <trkpt lat="44.96508" lon="4.50758">
        <ele>811</ele>
        <time>2015-12-02T09:28:28Z</time>
      </trkpt>
      <trkpt lat="44.96514" lon="4.50761">
        <ele>809</ele>
        <time>2015-12-02T09:28:34Z</time>
      </trkpt>
      <trkpt lat="44.96519" lon="4.50771">
        <ele>806</ele>
        <time>2015-12-02T09:28:43Z</time>
      </trkpt>
      <trkpt lat="44.96521" lon="4.50783">
        <ele>804</ele>
        <time>2015-12-02T09:28:50Z</time>
      </trkpt>
      <trkpt lat="44.96527" lon="4.5079">
        <ele>802</ele>
        <time>2015-12-02T09:28:57Z</time>
      </trkpt>
      <trkpt lat="44.96531" lon="4.50791">
        <ele>801</ele>
        <time>2015-12-02T09:29:38Z</time>
      </trkpt>
      <trkpt lat="44.96539" lon="4.50793">
        <ele>800</ele>
        <time>2015-12-02T09:29:42Z</time>
      </trkpt>
      <trkpt lat="44.96547" lon="4.50802">
        <ele>800</ele>
        <time>2015-12-02T09:29:46Z</time>
      </trkpt>
      <trkpt lat="44.96555" lon="4.50814">
        <ele>799</ele>
        <time>2015-12-02T09:29:50Z</time>
      </trkpt>
      <trkpt lat="44.96558" lon="4.50822">
        <ele>799</ele>
        <time>2015-12-02T09:29:53Z</time>
      </trkpt>
      <trkpt lat="44.96567" lon="4.50838">
        <ele>799</ele>
        <time>2015-12-02T09:29:58Z</time>
      </trkpt>
      <trkpt lat="44.96574" lon="4.50851">
        <ele>799</ele>
        <time>2015-12-02T09:30:02Z</time>
      </trkpt>
      <trkpt lat="44.96582" lon="4.50865">
        <ele>799</ele>
        <time>2015-12-02T09:30:06Z</time>
      </trkpt>
      <trkpt lat="44.96596" lon="4.50882">
        <ele>799</ele>
        <time>2015-12-02T09:30:11Z</time>
      </trkpt>
      <trkpt lat="44.9661" lon="4.50893">
        <ele>799</ele>
        <time>2015-12-02T09:30:15Z</time>
      </trkpt>
      <trkpt lat="44.96624" lon="4.50909">
        <ele>798</ele>
        <time>2015-12-02T09:30:19Z</time>
      </trkpt>
      <trkpt lat="44.96639" lon="4.50929">
        <ele>798</ele>
        <time>2015-12-02T09:30:24Z</time>
      </trkpt>
      <trkpt lat="44.96644" lon="4.50942">
        <ele>798</ele>
        <time>2015-12-02T09:30:27Z</time>
      </trkpt>
      <trkpt lat="44.96649" lon="4.50967">
        <ele>798</ele>
        <time>2015-12-02T09:30:32Z</time>
      </trkpt>
      <trkpt lat="44.96658" lon="4.5098">
        <ele>798</ele>
        <time>2015-12-02T09:30:35Z</time>
      </trkpt>
      <trkpt lat="44.96666" lon="4.50997">
        <ele>797</ele>
        <time>2015-12-02T09:30:40Z</time>
      </trkpt>
      <trkpt lat="44.96676" lon="4.51017">
        <ele>796</ele>
        <time>2015-12-02T09:30:44Z</time>
      </trkpt>
      <trkpt lat="44.96684" lon="4.51033">
        <ele>795</ele>
        <time>2015-12-02T09:30:48Z</time>
      </trkpt>
      <trkpt lat="44.96699" lon="4.51041">
        <ele>794</ele>
        <time>2015-12-02T09:30:52Z</time>
      </trkpt>
      <trkpt lat="44.9672" lon="4.51064">
        <ele>794</ele>
        <time>2015-12-02T09:30:56Z</time>
      </trkpt>
      <trkpt lat="44.96731" lon="4.51081">
        <ele>793</ele>
        <time>2015-12-02T09:30:59Z</time>
      </trkpt>
      <trkpt lat="44.96732" lon="4.51095">
        <ele>793</ele>
        <time>2015-12-02T09:31:03Z</time>
      </trkpt>
      <trkpt lat="44.96753" lon="4.51115">
        <ele>792</ele>
        <time>2015-12-02T09:31:08Z</time>
      </trkpt>
      <trkpt lat="44.9677" lon="4.51126">
        <ele>791</ele>
        <time>2015-12-02T09:31:12Z</time>
      </trkpt>
      <trkpt lat="44.96784" lon="4.51131">
        <ele>791</ele>
        <time>2015-12-02T09:31:16Z</time>
      </trkpt>
      <trkpt lat="44.96803" lon="4.51147">
        <ele>791</ele>
        <time>2015-12-02T09:31:20Z</time>
      </trkpt>
      <trkpt lat="44.96821" lon="4.51168">
        <ele>790</ele>
        <time>2015-12-02T09:31:24Z</time>
      </trkpt>
      <trkpt lat="44.96841" lon="4.51184">
        <ele>788</ele>
        <time>2015-12-02T09:31:28Z</time>
      </trkpt>
      <trkpt lat="44.96852" lon="4.51182">
        <ele>787</ele>
        <time>2015-12-02T09:31:32Z</time>
      </trkpt>
      <trkpt lat="44.96862" lon="4.51189">
        <ele>786</ele>
        <time>2015-12-02T09:31:36Z</time>
      </trkpt>
      <trkpt lat="44.96876" lon="4.51204">
        <ele>784</ele>
        <time>2015-12-02T09:31:39Z</time>
      </trkpt>
      <trkpt lat="44.96897" lon="4.51226">
        <ele>781</ele>
        <time>2015-12-02T09:31:44Z</time>
      </trkpt>
      <trkpt lat="44.96913" lon="4.51249">
        <ele>777</ele>
        <time>2015-12-02T09:31:48Z</time>
      </trkpt>
      <trkpt lat="44.96923" lon="4.51271">
        <ele>771</ele>
        <time>2015-12-02T09:31:51Z</time>
      </trkpt>
      <trkpt lat="44.96936" lon="4.51292">
        <ele>766</ele>
        <time>2015-12-02T09:31:56Z</time>
      </trkpt>
      <trkpt lat="44.96944" lon="4.51311">
        <ele>759</ele>
        <time>2015-12-02T09:32:00Z</time>
      </trkpt>
      <trkpt lat="44.96958" lon="4.51334">
        <ele>759</ele>
        <time>2015-12-02T09:32:05Z</time>
      </trkpt>
      <trkpt lat="44.96973" lon="4.51345">
        <ele>758</ele>
        <time>2015-12-02T09:32:10Z</time>
      </trkpt>
      <trkpt lat="44.96987" lon="4.51352">
        <ele>757</ele>
        <time>2015-12-02T09:32:14Z</time>
      </trkpt>
      <trkpt lat="44.97002" lon="4.51361">
        <ele>755</ele>
        <time>2015-12-02T09:32:18Z</time>
      </trkpt>
      <trkpt lat="44.97015" lon="4.51374">
        <ele>755</ele>
        <time>2015-12-02T09:32:22Z</time>
      </trkpt>
      <trkpt lat="44.97025" lon="4.51387">
        <ele>753</ele>
        <time>2015-12-02T09:32:26Z</time>
      </trkpt>
      <trkpt lat="44.97036" lon="4.51402">
        <ele>751</ele>
        <time>2015-12-02T09:32:30Z</time>
      </trkpt>
      <trkpt lat="44.97043" lon="4.51419">
        <ele>750</ele>
        <time>2015-12-02T09:32:34Z</time>
      </trkpt>
      <trkpt lat="44.97058" lon="4.51438">
        <ele>748</ele>
        <time>2015-12-02T09:32:38Z</time>
      </trkpt>
      <trkpt lat="44.97069" lon="4.51464">
        <ele>744</ele>
        <time>2015-12-02T09:32:42Z</time>
      </trkpt>
      <trkpt lat="44.97079" lon="4.51489">
        <ele>740</ele>
        <time>2015-12-02T09:32:47Z</time>
      </trkpt>
      <trkpt lat="44.97086" lon="4.51503">
        <ele>740</ele>
        <time>2015-12-02T09:32:50Z</time>
      </trkpt>
      <trkpt lat="44.97091" lon="4.51522">
        <ele>738</ele>
        <time>2015-12-02T09:32:55Z</time>
      </trkpt>
      <trkpt lat="44.97096" lon="4.5153">
        <ele>737</ele>
        <time>2015-12-02T09:32:58Z</time>
      </trkpt>
      <trkpt lat="44.97104" lon="4.51541">
        <ele>736</ele>
        <time>2015-12-02T09:33:02Z</time>
      </trkpt>
      <trkpt lat="44.97112" lon="4.51553">
        <ele>734</ele>
        <time>2015-12-02T09:33:06Z</time>
      </trkpt>
      <trkpt lat="44.97125" lon="4.51574">
        <ele>731</ele>
        <time>2015-12-02T09:33:10Z</time>
      </trkpt>
      <trkpt lat="44.9714" lon="4.51593">
        <ele>729</ele>
        <time>2015-12-02T09:33:14Z</time>
      </trkpt>
      <trkpt lat="44.97154" lon="4.51609">
        <ele>727</ele>
        <time>2015-12-02T09:33:18Z</time>
      </trkpt>
      <trkpt lat="44.97167" lon="4.51629">
        <ele>725</ele>
        <time>2015-12-02T09:33:22Z</time>
      </trkpt>
      <trkpt lat="44.97182" lon="4.51649">
        <ele>721</ele>
        <time>2015-12-02T09:33:27Z</time>
      </trkpt>
      <trkpt lat="44.97191" lon="4.51663">
        <ele>719</ele>
        <time>2015-12-02T09:33:30Z</time>
      </trkpt>
      <trkpt lat="44.97206" lon="4.51687">
        <ele>714</ele>
        <time>2015-12-02T09:33:35Z</time>
      </trkpt>
      <trkpt lat="44.9721" lon="4.51716">
        <ele>711</ele>
        <time>2015-12-02T09:33:39Z</time>
      </trkpt>
      <trkpt lat="44.97213" lon="4.51747">
        <ele>708</ele>
        <time>2015-12-02T09:33:42Z</time>
      </trkpt>
      <trkpt lat="44.97219" lon="4.51786">
        <ele>704</ele>
        <time>2015-12-02T09:33:46Z</time>
      </trkpt>
      <trkpt lat="44.97226" lon="4.51827">
        <ele>701</ele>
        <time>2015-12-02T09:33:51Z</time>
      </trkpt>
      <trkpt lat="44.97234" lon="4.51849">
        <ele>699</ele>
        <time>2015-12-02T09:33:54Z</time>
      </trkpt>
      <trkpt lat="44.97243" lon="4.5188">
        <ele>696</ele>
        <time>2015-12-02T09:33:59Z</time>
      </trkpt>
      <trkpt lat="44.97251" lon="4.51897">
        <ele>694</ele>
        <time>2015-12-02T09:34:02Z</time>
      </trkpt>
      <trkpt lat="44.97264" lon="4.51927">
        <ele>692</ele>
        <time>2015-12-02T09:34:06Z</time>
      </trkpt>
      <trkpt lat="44.97274" lon="4.51941">
        <ele>690</ele>
        <time>2015-12-02T09:34:09Z</time>
      </trkpt>
      <trkpt lat="44.97282" lon="4.51956">
        <ele>689</ele>
        <time>2015-12-02T09:34:12Z</time>
      </trkpt>
      <trkpt lat="44.97297" lon="4.51974">
        <ele>686</ele>
        <time>2015-12-02T09:34:16Z</time>
      </trkpt>
      <trkpt lat="44.97308" lon="4.51989">
        <ele>684</ele>
        <time>2015-12-02T09:34:19Z</time>
      </trkpt>
      <trkpt lat="44.97322" lon="4.52012">
        <ele>681</ele>
        <time>2015-12-02T09:34:24Z</time>
      </trkpt>
      <trkpt lat="44.97329" lon="4.52027">
        <ele>678</ele>
        <time>2015-12-02T09:34:28Z</time>
      </trkpt>
      <trkpt lat="44.9733" lon="4.52039">
        <ele>674</ele>
        <time>2015-12-02T09:34:32Z</time>
      </trkpt>
      <trkpt lat="44.97329" lon="4.52058">
        <ele>671</ele>
        <time>2015-12-02T09:34:37Z</time>
      </trkpt>
      <trkpt lat="44.9734" lon="4.52075">
        <ele>668</ele>
        <time>2015-12-02T09:34:42Z</time>
      </trkpt>
      <trkpt lat="44.97345" lon="4.52088">
        <ele>671</ele>
        <time>2015-12-02T09:34:46Z</time>
      </trkpt>
      <trkpt lat="44.97355" lon="4.52084">
        <ele>674</ele>
        <time>2015-12-02T09:34:49Z</time>
      </trkpt>
      <trkpt lat="44.97368" lon="4.52068">
        <ele>674</ele>
        <time>2015-12-02T09:34:54Z</time>
      </trkpt>
      <trkpt lat="44.97376" lon="4.52056">
        <ele>674</ele>
        <time>2015-12-02T09:34:57Z</time>
      </trkpt>
      <trkpt lat="44.97388" lon="4.52041">
        <ele>674</ele>
        <time>2015-12-02T09:35:01Z</time>
      </trkpt>
      <trkpt lat="44.974" lon="4.52028">
        <ele>674</ele>
        <time>2015-12-02T09:35:05Z</time>
      </trkpt>
      <trkpt lat="44.97413" lon="4.52014">
        <ele>673</ele>
        <time>2015-12-02T09:35:10Z</time>
      </trkpt>
      <trkpt lat="44.97422" lon="4.52007">
        <ele>672</ele>
        <time>2015-12-02T09:35:13Z</time>
      </trkpt>
      <trkpt lat="44.97431" lon="4.52">
        <ele>672</ele>
        <time>2015-12-02T09:35:17Z</time>
      </trkpt>
      <trkpt lat="44.97441" lon="4.51991">
        <ele>672</ele>
        <time>2015-12-02T09:35:21Z</time>
      </trkpt>
      <trkpt lat="44.97449" lon="4.51988">
        <ele>671</ele>
        <time>2015-12-02T09:35:24Z</time>
      </trkpt>
      <trkpt lat="44.97458" lon="4.51986">
        <ele>671</ele>
        <time>2015-12-02T09:35:28Z</time>
      </trkpt>
      <trkpt lat="44.97465" lon="4.51993">
        <ele>671</ele>
        <time>2015-12-02T09:35:35Z</time>
      </trkpt>
      <trkpt lat="44.97481" lon="4.52004">
        <ele>675</ele>
        <time>2015-12-02T09:35:39Z</time>
      </trkpt>
      <trkpt lat="44.97486" lon="4.52023">
        <ele>676</ele>
        <time>2015-12-02T09:35:43Z</time>
      </trkpt>
      <trkpt lat="44.97482" lon="4.52037">
        <ele>676</ele>
        <time>2015-12-02T09:35:46Z</time>
      </trkpt>
      <trkpt lat="44.9748" lon="4.5206">
        <ele>674</ele>
        <time>2015-12-02T09:35:50Z</time>
      </trkpt>
      <trkpt lat="44.97479" lon="4.52087">
        <ele>671</ele>
        <time>2015-12-02T09:35:54Z</time>
      </trkpt>
      <trkpt lat="44.97474" lon="4.52121">
        <ele>669</ele>
        <time>2015-12-02T09:35:59Z</time>
      </trkpt>
      <trkpt lat="44.97469" lon="4.52145">
        <ele>667</ele>
        <time>2015-12-02T09:36:03Z</time>
      </trkpt>
      <trkpt lat="44.97468" lon="4.5216">
        <ele>666</ele>
        <time>2015-12-02T09:36:08Z</time>
      </trkpt>
      <trkpt lat="44.9747" lon="4.52174">
        <ele>664</ele>
        <time>2015-12-02T09:36:12Z</time>
      </trkpt>
      <trkpt lat="44.97472" lon="4.52187">
        <ele>664</ele>
        <time>2015-12-02T09:36:15Z</time>
      </trkpt>
      <trkpt lat="44.97484" lon="4.52207">
        <ele>660</ele>
        <time>2015-12-02T09:36:20Z</time>
      </trkpt>
      <trkpt lat="44.97492" lon="4.52225">
        <ele>656</ele>
        <time>2015-12-02T09:36:24Z</time>
      </trkpt>
      <trkpt lat="44.97497" lon="4.52249">
        <ele>655</ele>
        <time>2015-12-02T09:36:28Z</time>
      </trkpt>
      <trkpt lat="44.97496" lon="4.52269">
        <ele>653</ele>
        <time>2015-12-02T09:36:32Z</time>
      </trkpt>
      <trkpt lat="44.97502" lon="4.52277">
        <ele>649</ele>
        <time>2015-12-02T09:36:38Z</time>
      </trkpt>
      <trkpt lat="44.97507" lon="4.52269">
        <ele>647</ele>
        <time>2015-12-02T09:36:41Z</time>
      </trkpt>
      <trkpt lat="44.97519" lon="4.52249">
        <ele>644</ele>
        <time>2015-12-02T09:36:46Z</time>
      </trkpt>
      <trkpt lat="44.97531" lon="4.5222">
        <ele>642</ele>
        <time>2015-12-02T09:36:50Z</time>
      </trkpt>
      <trkpt lat="44.97545" lon="4.52193">
        <ele>639</ele>
        <time>2015-12-02T09:36:55Z</time>
      </trkpt>
      <trkpt lat="44.97562" lon="4.5217">
        <ele>636</ele>
        <time>2015-12-02T09:36:59Z</time>
      </trkpt>
      <trkpt lat="44.97573" lon="4.52151">
        <ele>635</ele>
        <time>2015-12-02T09:37:02Z</time>
      </trkpt>
      <trkpt lat="44.97587" lon="4.52113">
        <ele>631</ele>
        <time>2015-12-02T09:37:07Z</time>
      </trkpt>
      <trkpt lat="44.97597" lon="4.52079">
        <ele>628</ele>
        <time>2015-12-02T09:37:12Z</time>
      </trkpt>
      <trkpt lat="44.97607" lon="4.52057">
        <ele>625</ele>
        <time>2015-12-02T09:37:16Z</time>
      </trkpt>
      <trkpt lat="44.97624" lon="4.5205">
        <ele>623</ele>
        <time>2015-12-02T09:37:21Z</time>
      </trkpt>
      <trkpt lat="44.97646" lon="4.52044">
        <ele>620</ele>
        <time>2015-12-02T09:37:26Z</time>
      </trkpt>
      <trkpt lat="44.97663" lon="4.52046">
        <ele>618</ele>
        <time>2015-12-02T09:37:30Z</time>
      </trkpt>
      <trkpt lat="44.97681" lon="4.52046">
        <ele>616</ele>
        <time>2015-12-02T09:37:34Z</time>
      </trkpt>
      <trkpt lat="44.97695" lon="4.5205">
        <ele>613</ele>
        <time>2015-12-02T09:37:37Z</time>
      </trkpt>
      <trkpt lat="44.97712" lon="4.52053">
        <ele>611</ele>
        <time>2015-12-02T09:37:41Z</time>
      </trkpt>
      <trkpt lat="44.97727" lon="4.52064">
        <ele>611</ele>
        <time>2015-12-02T09:37:44Z</time>
      </trkpt>
      <trkpt lat="44.97741" lon="4.52083">
        <ele>610</ele>
        <time>2015-12-02T09:37:48Z</time>
      </trkpt>
      <trkpt lat="44.97755" lon="4.52094">
        <ele>607</ele>
        <time>2015-12-02T09:37:53Z</time>
      </trkpt>
      <trkpt lat="44.97767" lon="4.52102">
        <ele>605</ele>
        <time>2015-12-02T09:37:56Z</time>
      </trkpt>
      <trkpt lat="44.97783" lon="4.52115">
        <ele>603</ele>
        <time>2015-12-02T09:38:00Z</time>
      </trkpt>
      <trkpt lat="44.97799" lon="4.52121">
        <ele>601</ele>
        <time>2015-12-02T09:38:04Z</time>
      </trkpt>
      <trkpt lat="44.97812" lon="4.52128">
        <ele>598</ele>
        <time>2015-12-02T09:38:07Z</time>
      </trkpt>
      <trkpt lat="44.97828" lon="4.52142">
        <ele>596</ele>
        <time>2015-12-02T09:38:11Z</time>
      </trkpt>
      <trkpt lat="44.9784" lon="4.52149">
        <ele>595</ele>
        <time>2015-12-02T09:38:15Z</time>
      </trkpt>
      <trkpt lat="44.97852" lon="4.52168">
        <ele>594</ele>
        <time>2015-12-02T09:38:20Z</time>
      </trkpt>
      <trkpt lat="44.97863" lon="4.52173">
        <ele>592</ele>
        <time>2015-12-02T09:38:24Z</time>
      </trkpt>
      <trkpt lat="44.97871" lon="4.5218">
        <ele>589</ele>
        <time>2015-12-02T09:38:28Z</time>
      </trkpt>
      <trkpt lat="44.97884" lon="4.52185">
        <ele>587</ele>
        <time>2015-12-02T09:38:32Z</time>
      </trkpt>
      <trkpt lat="44.97891" lon="4.52195">
        <ele>584</ele>
        <time>2015-12-02T09:38:36Z</time>
      </trkpt>
      <trkpt lat="44.97899" lon="4.52206">
        <ele>581</ele>
        <time>2015-12-02T09:38:40Z</time>
      </trkpt>
      <trkpt lat="44.97908" lon="4.52214">
        <ele>579</ele>
        <time>2015-12-02T09:38:44Z</time>
      </trkpt>
      <trkpt lat="44.97918" lon="4.52222">
        <ele>577</ele>
        <time>2015-12-02T09:38:48Z</time>
      </trkpt>
      <trkpt lat="44.97931" lon="4.52229">
        <ele>575</ele>
        <time>2015-12-02T09:38:52Z</time>
      </trkpt>
      <trkpt lat="44.97947" lon="4.52236">
        <ele>573</ele>
        <time>2015-12-02T09:38:56Z</time>
      </trkpt>
      <trkpt lat="44.97957" lon="4.52243">
        <ele>570</ele>
        <time>2015-12-02T09:39:00Z</time>
      </trkpt>
      <trkpt lat="44.97973" lon="4.5225">
        <ele>568</ele>
        <time>2015-12-02T09:39:05Z</time>
      </trkpt>
      <trkpt lat="44.97987" lon="4.52255">
        <ele>566</ele>
        <time>2015-12-02T09:39:08Z</time>
      </trkpt>
      <trkpt lat="44.9801" lon="4.5226">
        <ele>563</ele>
        <time>2015-12-02T09:39:12Z</time>
      </trkpt>
      <trkpt lat="44.98027" lon="4.52263">
        <ele>561</ele>
        <time>2015-12-02T09:39:15Z</time>
      </trkpt>
      <trkpt lat="44.98046" lon="4.52268">
        <ele>563</ele>
        <time>2015-12-02T09:39:20Z</time>
      </trkpt>
      <trkpt lat="44.98062" lon="4.52263">
        <ele>563</ele>
        <time>2015-12-02T09:39:24Z</time>
      </trkpt>
      <trkpt lat="44.98074" lon="4.52254">
        <ele>562</ele>
        <time>2015-12-02T09:39:29Z</time>
      </trkpt>
      <trkpt lat="44.98085" lon="4.52243">
        <ele>561</ele>
        <time>2015-12-02T09:39:33Z</time>
      </trkpt>
      <trkpt lat="44.98096" lon="4.52234">
        <ele>558</ele>
        <time>2015-12-02T09:39:37Z</time>
      </trkpt>
      <trkpt lat="44.98101" lon="4.52226">
        <ele>556</ele>
        <time>2015-12-02T09:39:41Z</time>
      </trkpt>
      <trkpt lat="44.98108" lon="4.52215">
        <ele>554</ele>
        <time>2015-12-02T09:39:46Z</time>
      </trkpt>
      <trkpt lat="44.98114" lon="4.52202">
        <ele>552</ele>
        <time>2015-12-02T09:39:50Z</time>
      </trkpt>
      <trkpt lat="44.98118" lon="4.52184">
        <ele>551</ele>
        <time>2015-12-02T09:39:54Z</time>
      </trkpt>
      <trkpt lat="44.98126" lon="4.52165">
        <ele>549</ele>
        <time>2015-12-02T09:39:58Z</time>
      </trkpt>
      <trkpt lat="44.9813" lon="4.52152">
        <ele>547</ele>
        <time>2015-12-02T09:40:02Z</time>
      </trkpt>
      <trkpt lat="44.98135" lon="4.52129">
        <ele>544</ele>
        <time>2015-12-02T09:40:06Z</time>
      </trkpt>
      <trkpt lat="44.98143" lon="4.52105">
        <ele>542</ele>
        <time>2015-12-02T09:40:10Z</time>
      </trkpt>
      <trkpt lat="44.98163" lon="4.52077">
        <ele>538</ele>
        <time>2015-12-02T09:40:15Z</time>
      </trkpt>
      <trkpt lat="44.98173" lon="4.52073">
        <ele>536</ele>
        <time>2015-12-02T09:40:18Z</time>
      </trkpt>
      <trkpt lat="44.98188" lon="4.52068">
        <ele>533</ele>
        <time>2015-12-02T09:40:22Z</time>
      </trkpt>
      <trkpt lat="44.98207" lon="4.52052">
        <ele>531</ele>
        <time>2015-12-02T09:40:27Z</time>
      </trkpt>
      <trkpt lat="44.98213" lon="4.52044">
        <ele>529</ele>
        <time>2015-12-02T09:40:30Z</time>
      </trkpt>
      <trkpt lat="44.98219" lon="4.52035">
        <ele>526</ele>
        <time>2015-12-02T09:40:34Z</time>
      </trkpt>
      <trkpt lat="44.98228" lon="4.52026">
        <ele>522</ele>
        <time>2015-12-02T09:40:38Z</time>
      </trkpt>
      <trkpt lat="44.98236" lon="4.52014">
        <ele>519</ele>
        <time>2015-12-02T09:40:43Z</time>
      </trkpt>
      <trkpt lat="44.98255" lon="4.5202">
        <ele>520</ele>
        <time>2015-12-02T09:40:48Z</time>
      </trkpt>
      <trkpt lat="44.98267" lon="4.52028">
        <ele>521</ele>
        <time>2015-12-02T09:40:52Z</time>
      </trkpt>
      <trkpt lat="44.98277" lon="4.52031">
        <ele>521</ele>
        <time>2015-12-02T09:40:56Z</time>
      </trkpt>
      <trkpt lat="44.98293" lon="4.52041">
        <ele>520</ele>
        <time>2015-12-02T09:41:00Z</time>
      </trkpt>
      <trkpt lat="44.98299" lon="4.5205">
        <ele>519</ele>
        <time>2015-12-02T09:41:05Z</time>
      </trkpt>
      <trkpt lat="44.98304" lon="4.52063">
        <ele>517</ele>
        <time>2015-12-02T09:41:10Z</time>
      </trkpt>
      <trkpt lat="44.98304" lon="4.52072">
        <ele>515</ele>
        <time>2015-12-02T09:41:13Z</time>
      </trkpt>
      <trkpt lat="44.98299" lon="4.52084">
        <ele>513</ele>
        <time>2015-12-02T09:41:17Z</time>
      </trkpt>
      <trkpt lat="44.983" lon="4.52095">
        <ele>511</ele>
        <time>2015-12-02T09:41:23Z</time>
      </trkpt>
      <trkpt lat="44.98297" lon="4.521">
        <ele>509</ele>
        <time>2015-12-02T09:41:29Z</time>
      </trkpt>
      <trkpt lat="44.98302" lon="4.52101">
        <ele>510</ele>
        <time>2015-12-02T09:41:34Z</time>
      </trkpt>
      <trkpt lat="44.98323" lon="4.52113">
        <ele>512</ele>
        <time>2015-12-02T09:41:38Z</time>
      </trkpt>
      <trkpt lat="44.98329" lon="4.52123">
        <ele>511</ele>
        <time>2015-12-02T09:41:41Z</time>
      </trkpt>
      <trkpt lat="44.98338" lon="4.52135">
        <ele>509</ele>
        <time>2015-12-02T09:41:46Z</time>
      </trkpt>
      <trkpt lat="44.98347" lon="4.52144">
        <ele>509</ele>
        <time>2015-12-02T09:41:50Z</time>
      </trkpt>
      <trkpt lat="44.98359" lon="4.52154">
        <ele>509</ele>
        <time>2015-12-02T09:41:55Z</time>
      </trkpt>
      <trkpt lat="44.98373" lon="4.52162">
        <ele>509</ele>
        <time>2015-12-02T09:42:00Z</time>
      </trkpt>
      <trkpt lat="44.98385" lon="4.52167">
        <ele>508</ele>
        <time>2015-12-02T09:42:04Z</time>
      </trkpt>
      <trkpt lat="44.98398" lon="4.52174">
        <ele>507</ele>
        <time>2015-12-02T09:42:08Z</time>
      </trkpt>
      <trkpt lat="44.9841" lon="4.52181">
        <ele>507</ele>
        <time>2015-12-02T09:42:11Z</time>
      </trkpt>
      <trkpt lat="44.98422" lon="4.52192">
        <ele>510</ele>
        <time>2015-12-02T09:42:15Z</time>
      </trkpt>
      <trkpt lat="44.98438" lon="4.52207">
        <ele>512</ele>
        <time>2015-12-02T09:42:19Z</time>
      </trkpt>
      <trkpt lat="44.98448" lon="4.52232">
        <ele>513</ele>
        <time>2015-12-02T09:42:23Z</time>
      </trkpt>
      <trkpt lat="44.98452" lon="4.52243">
        <ele>513</ele>
        <time>2015-12-02T09:42:28Z</time>
      </trkpt>
      <trkpt lat="44.98451" lon="4.52256">
        <ele>522</ele>
        <time>2015-12-02T09:42:38Z</time>
      </trkpt>
      <trkpt lat="44.98457" lon="4.52258">
        <ele>526</ele>
        <time>2015-12-02T09:43:19Z</time>
      </trkpt>
      <trkpt lat="44.98464" lon="4.52272">
        <ele>526</ele>
        <time>2015-12-02T09:43:23Z</time>
      </trkpt>
      <trkpt lat="44.98476" lon="4.52291">
        <ele>526</ele>
        <time>2015-12-02T09:43:27Z</time>
      </trkpt>
      <trkpt lat="44.98494" lon="4.52314">
        <ele>525</ele>
        <time>2015-12-02T09:43:32Z</time>
      </trkpt>
      <trkpt lat="44.98515" lon="4.52311">
        <ele>525</ele>
        <time>2015-12-02T09:43:36Z</time>
      </trkpt>
      <trkpt lat="44.98528" lon="4.52303">
        <ele>525</ele>
        <time>2015-12-02T09:43:39Z</time>
      </trkpt>
      <trkpt lat="44.98541" lon="4.52291">
        <ele>524</ele>
        <time>2015-12-02T09:43:43Z</time>
      </trkpt>
      <trkpt lat="44.98562" lon="4.52279">
        <ele>525</ele>
        <time>2015-12-02T09:43:47Z</time>
      </trkpt>
      <trkpt lat="44.98581" lon="4.52273">
        <ele>525</ele>
        <time>2015-12-02T09:43:50Z</time>
      </trkpt>
      <trkpt lat="44.98605" lon="4.52273">
        <ele>524</ele>
        <time>2015-12-02T09:43:54Z</time>
      </trkpt>
      <trkpt lat="44.9863" lon="4.52289">
        <ele>523</ele>
        <time>2015-12-02T09:43:58Z</time>
      </trkpt>
      <trkpt lat="44.98654" lon="4.5232">
        <ele>521</ele>
        <time>2015-12-02T09:44:02Z</time>
      </trkpt>
      <trkpt lat="44.98663" lon="4.52357">
        <ele>519</ele>
        <time>2015-12-02T09:44:06Z</time>
      </trkpt>
      <trkpt lat="44.9866" lon="4.52381">
        <ele>517</ele>
        <time>2015-12-02T09:44:09Z</time>
      </trkpt>
      <trkpt lat="44.98653" lon="4.52399">
        <ele>515</ele>
        <time>2015-12-02T09:44:12Z</time>
      </trkpt>
      <trkpt lat="44.98656" lon="4.52417">
        <ele>513</ele>
        <time>2015-12-02T09:44:15Z</time>
      </trkpt>
      <trkpt lat="44.98681" lon="4.52439">
        <ele>510</ele>
        <time>2015-12-02T09:44:20Z</time>
      </trkpt>
      <trkpt lat="44.98707" lon="4.52479">
        <ele>506</ele>
        <time>2015-12-02T09:44:24Z</time>
      </trkpt>
      <trkpt lat="44.98725" lon="4.52517">
        <ele>503</ele>
        <time>2015-12-02T09:44:28Z</time>
      </trkpt>
      <trkpt lat="44.98733" lon="4.5254">
        <ele>498</ele>
        <time>2015-12-02T09:44:32Z</time>
      </trkpt>
      <trkpt lat="44.9874" lon="4.52532">
        <ele>495</ele>
        <time>2015-12-02T09:44:36Z</time>
      </trkpt>
      <trkpt lat="44.98732" lon="4.52504">
        <ele>490</ele>
        <time>2015-12-02T09:44:40Z</time>
      </trkpt>
      <trkpt lat="44.9872" lon="4.52471">
        <ele>486</ele>
        <time>2015-12-02T09:44:44Z</time>
      </trkpt>
      <trkpt lat="44.98716" lon="4.52435">
        <ele>484</ele>
        <time>2015-12-02T09:44:48Z</time>
      </trkpt>
      <trkpt lat="44.98726" lon="4.52419">
        <ele>482</ele>
        <time>2015-12-02T09:44:51Z</time>
      </trkpt>
      <trkpt lat="44.98739" lon="4.524">
        <ele>479</ele>
        <time>2015-12-02T09:44:56Z</time>
      </trkpt>
      <trkpt lat="44.98747" lon="4.5238">
        <ele>476</ele>
        <time>2015-12-02T09:45:00Z</time>
      </trkpt>
      <trkpt lat="44.98756" lon="4.52351">
        <ele>474</ele>
        <time>2015-12-02T09:45:04Z</time>
      </trkpt>
      <trkpt lat="44.98771" lon="4.52335">
        <ele>472</ele>
        <time>2015-12-02T09:45:08Z</time>
      </trkpt>
      <trkpt lat="44.9879" lon="4.52324">
        <ele>470</ele>
        <time>2015-12-02T09:45:11Z</time>
      </trkpt>
      <trkpt lat="44.98808" lon="4.52298">
        <ele>467</ele>
        <time>2015-12-02T09:45:15Z</time>
      </trkpt>
      <trkpt lat="44.98811" lon="4.52265">
        <ele>465</ele>
        <time>2015-12-02T09:45:18Z</time>
      </trkpt>
      <trkpt lat="44.98823" lon="4.52222">
        <ele>462</ele>
        <time>2015-12-02T09:45:22Z</time>
      </trkpt>
      <trkpt lat="44.98836" lon="4.52164">
        <ele>460</ele>
        <time>2015-12-02T09:45:27Z</time>
      </trkpt>
      <trkpt lat="44.98831" lon="4.52118">
        <ele>458</ele>
        <time>2015-12-02T09:45:31Z</time>
      </trkpt>
      <trkpt lat="44.98827" lon="4.52087">
        <ele>456</ele>
        <time>2015-12-02T09:45:35Z</time>
      </trkpt>
      <trkpt lat="44.9884" lon="4.52075">
        <ele>453</ele>
        <time>2015-12-02T09:45:40Z</time>
      </trkpt>
      <trkpt lat="44.98868" lon="4.52121">
        <ele>451</ele>
        <time>2015-12-02T09:45:44Z</time>
      </trkpt>
      <trkpt lat="44.98885" lon="4.52153">
        <ele>448</ele>
        <time>2015-12-02T09:45:49Z</time>
      </trkpt>
      <trkpt lat="44.98896" lon="4.52184">
        <ele>446</ele>
        <time>2015-12-02T09:45:53Z</time>
      </trkpt>
      <trkpt lat="44.98928" lon="4.5217">
        <ele>444</ele>
        <time>2015-12-02T09:45:58Z</time>
      </trkpt>
      <trkpt lat="44.9896" lon="4.52147">
        <ele>442</ele>
        <time>2015-12-02T09:46:02Z</time>
      </trkpt>
      <trkpt lat="44.98973" lon="4.52128">
        <ele>442</ele>
        <time>2015-12-02T09:46:05Z</time>
      </trkpt>
      <trkpt lat="44.9896" lon="4.52101">
        <ele>441</ele>
        <time>2015-12-02T09:46:09Z</time>
      </trkpt>
      <trkpt lat="44.98938" lon="4.52072">
        <ele>440</ele>
        <time>2015-12-02T09:46:14Z</time>
      </trkpt>
      <trkpt lat="44.98927" lon="4.52066">
        <ele>439</ele>
        <time>2015-12-02T09:46:18Z</time>
      </trkpt>
      <trkpt lat="44.98933" lon="4.52037">
        <ele>439</ele>
        <time>2015-12-02T09:46:21Z</time>
      </trkpt>
      <trkpt lat="44.98957" lon="4.52045">
        <ele>440</ele>
        <time>2015-12-02T09:46:25Z</time>
      </trkpt>
      <trkpt lat="44.98992" lon="4.52054">
        <ele>438</ele>
        <time>2015-12-02T09:46:30Z</time>
      </trkpt>
      <trkpt lat="44.99022" lon="4.52039">
        <ele>436</ele>
        <time>2015-12-02T09:46:34Z</time>
      </trkpt>
      <trkpt lat="44.99051" lon="4.52044">
        <ele>434</ele>
        <time>2015-12-02T09:46:38Z</time>
      </trkpt>
      <trkpt lat="44.99086" lon="4.52051">
        <ele>430</ele>
        <time>2015-12-02T09:46:42Z</time>
      </trkpt>
      <trkpt lat="44.99109" lon="4.52026">
        <ele>428</ele>
        <time>2015-12-02T09:46:45Z</time>
      </trkpt>
      <trkpt lat="44.99132" lon="4.51995">
        <ele>426</ele>
        <time>2015-12-02T09:46:48Z</time>
      </trkpt>
      <trkpt lat="44.99161" lon="4.51947">
        <ele>422</ele>
        <time>2015-12-02T09:46:52Z</time>
      </trkpt>
      <trkpt lat="44.99188" lon="4.51921">
        <ele>419</ele>
        <time>2015-12-02T09:46:56Z</time>
      </trkpt>
      <trkpt lat="44.99206" lon="4.51904">
        <ele>416</ele>
        <time>2015-12-02T09:47:00Z</time>
      </trkpt>
      <trkpt lat="44.99211" lon="4.51884">
        <ele>413</ele>
        <time>2015-12-02T09:47:04Z</time>
      </trkpt>
      <trkpt lat="44.99225" lon="4.51869">
        <ele>409</ele>
        <time>2015-12-02T09:47:08Z</time>
      </trkpt>
      <trkpt lat="44.99245" lon="4.51887">
        <ele>406</ele>
        <time>2015-12-02T09:47:13Z</time>
      </trkpt>
      <trkpt lat="44.99263" lon="4.51904">
        <ele>405</ele>
        <time>2015-12-02T09:47:17Z</time>
      </trkpt>
      <trkpt lat="44.99277" lon="4.51913">
        <ele>404</ele>
        <time>2015-12-02T09:47:21Z</time>
      </trkpt>
      <trkpt lat="44.99296" lon="4.5193">
        <ele>404</ele>
        <time>2015-12-02T09:47:26Z</time>
      </trkpt>
      <trkpt lat="44.99306" lon="4.51949">
        <ele>403</ele>
        <time>2015-12-02T09:47:30Z</time>
      </trkpt>
      <trkpt lat="44.99314" lon="4.51955">
        <ele>402</ele>
        <time>2015-12-02T09:47:33Z</time>
      </trkpt>
      <trkpt lat="44.99324" lon="4.5195">
        <ele>401</ele>
        <time>2015-12-02T09:47:37Z</time>
      </trkpt>
      <trkpt lat="44.99329" lon="4.51941">
        <ele>400</ele>
        <time>2015-12-02T09:47:43Z</time>
      </trkpt>
      <trkpt lat="44.99327" lon="4.51929">
        <ele>398</ele>
        <time>2015-12-02T09:47:47Z</time>
      </trkpt>
      <trkpt lat="44.99326" lon="4.51912">
        <ele>397</ele>
        <time>2015-12-02T09:47:50Z</time>
      </trkpt>
      <trkpt lat="44.99326" lon="4.51888">
        <ele>396</ele>
        <time>2015-12-02T09:47:53Z</time>
      </trkpt>
      <trkpt lat="44.99326" lon="4.51864">
        <ele>395</ele>
        <time>2015-12-02T09:47:57Z</time>
      </trkpt>
      <trkpt lat="44.99326" lon="4.51839">
        <ele>393</ele>
        <time>2015-12-02T09:48:01Z</time>
      </trkpt>
      <trkpt lat="44.99321" lon="4.51809">
        <ele>393</ele>
        <time>2015-12-02T09:48:06Z</time>
      </trkpt>
      <trkpt lat="44.99319" lon="4.51793">
        <ele>392</ele>
        <time>2015-12-02T09:48:09Z</time>
      </trkpt>
      <trkpt lat="44.9932" lon="4.51778">
        <ele>391</ele>
        <time>2015-12-02T09:48:13Z</time>
      </trkpt>
      <trkpt lat="44.9932" lon="4.51769">
        <ele>392</ele>
        <time>2015-12-02T09:48:19Z</time>
      </trkpt>
      <trkpt lat="44.99321" lon="4.51756">
        <ele>392</ele>
        <time>2015-12-02T09:48:27Z</time>
      </trkpt>
      <trkpt lat="44.9932" lon="4.51745">
        <ele>393</ele>
        <time>2015-12-02T09:48:33Z</time>
      </trkpt>
      <trkpt lat="44.9932" lon="4.51736">
        <ele>394</ele>
        <time>2015-12-02T09:48:38Z</time>
      </trkpt>
      <trkpt lat="44.9932" lon="4.51724">
        <ele>394</ele>
        <time>2015-12-02T09:48:45Z</time>
      </trkpt>
      <trkpt lat="44.99321" lon="4.51714">
        <ele>396</ele>
        <time>2015-12-02T09:48:50Z</time>
      </trkpt>
      <trkpt lat="44.99325" lon="4.51703">
        <ele>399</ele>
        <time>2015-12-02T09:48:58Z</time>
      </trkpt>
      <trkpt lat="44.99325" lon="4.51692">
        <ele>400</ele>
        <time>2015-12-02T09:49:04Z</time>
      </trkpt>
      <trkpt lat="44.99332" lon="4.51683">
        <ele>401</ele>
        <time>2015-12-02T09:49:12Z</time>
      </trkpt>
      <trkpt lat="44.99339" lon="4.51682">
        <ele>402</ele>
        <time>2015-12-02T09:49:19Z</time>
      </trkpt>
      <trkpt lat="44.99346" lon="4.51689">
        <ele>403</ele>
        <time>2015-12-02T09:49:25Z</time>
      </trkpt>
      <trkpt lat="44.99353" lon="4.51691">
        <ele>404</ele>
        <time>2015-12-02T09:49:30Z</time>
      </trkpt>
      <trkpt lat="44.99361" lon="4.51684">
        <ele>405</ele>
        <time>2015-12-02T09:49:35Z</time>
      </trkpt>
      <trkpt lat="44.99364" lon="4.51672">
        <ele>406</ele>
        <time>2015-12-02T09:49:44Z</time>
      </trkpt>
      <trkpt lat="44.99371" lon="4.51665">
        <ele>407</ele>
        <time>2015-12-02T09:49:49Z</time>
      </trkpt>
      <trkpt lat="44.99377" lon="4.51656">
        <ele>408</ele>
        <time>2015-12-02T09:49:56Z</time>
      </trkpt>
      <trkpt lat="44.99382" lon="4.51648">
        <ele>408</ele>
        <time>2015-12-02T09:50:03Z</time>
      </trkpt>
      <trkpt lat="44.99389" lon="4.51641">
        <ele>409</ele>
        <time>2015-12-02T09:50:09Z</time>
      </trkpt>
      <trkpt lat="44.99396" lon="4.51635">
        <ele>411</ele>
        <time>2015-12-02T09:50:16Z</time>
      </trkpt>
      <trkpt lat="44.99402" lon="4.51628">
        <ele>413</ele>
        <time>2015-12-02T09:50:24Z</time>
      </trkpt>
      <trkpt lat="44.99408" lon="4.51624">
        <ele>414</ele>
        <time>2015-12-02T09:51:04Z</time>
      </trkpt>
      <trkpt lat="44.99408" lon="4.51624">
        <ele>414</ele>
        <time>2015-12-02T09:51:06Z</time>
      </trkpt>
    </trkseg>
  </trk>
</gpx>